<?xml version="1.0" encoding="UTF-8" standalone="no" ?>
<gpx xmlns="http://www.topografix.com/GPX/1/1" xmlns:xsi="http://www.w3.org/2001/XMLSchema-instance" xsi:schemaLocation="http://www.topografix.com/GPX/1/1 http://www.topografix.com/GPX/1/1/gpx.xsd" version="1.1" creator="VisuGPX - https://www.visugpx.com">
  <metadata>
    <name>Rando &amp;quot;des p'tits Vieux&amp;quot;</name>
    <desc><![CDATA[Rando club autour de Vieux, et le long de l'Orne]]></desc>
  </metadata>
  <trk>
    <name><![CDATA[20181227101100-pZA7S]]></name>
    <trkseg>
      <trkpt lat="49.10547" lon="-0.43572">
        <ele>53.01</ele>
        <time>2018-11-16T08:15:40Z</time>
      </trkpt>
      <trkpt lat="49.10547" lon="-0.43567">
        <ele>53.49</ele>
        <time>2018-11-16T08:16:02Z</time>
      </trkpt>
      <trkpt lat="49.10547" lon="-0.43567">
        <ele>52.05</ele>
        <time>2018-11-16T08:16:05Z</time>
      </trkpt>
      <trkpt lat="49.1055" lon="-0.43567">
        <ele>52.05</ele>
        <time>2018-11-16T08:16:33Z</time>
      </trkpt>
      <trkpt lat="49.10547" lon="-0.43567">
        <ele>52.05</ele>
        <time>2018-11-16T08:17:08Z</time>
      </trkpt>
      <trkpt lat="49.10548" lon="-0.43566">
        <ele>52.05</ele>
        <time>2018-11-16T08:17:25Z</time>
      </trkpt>
      <trkpt lat="49.10546" lon="-0.43567">
        <ele>52.05</ele>
        <time>2018-11-16T08:17:40Z</time>
      </trkpt>
      <trkpt lat="49.10553" lon="-0.4357">
        <ele>52.05</ele>
        <time>2018-11-16T08:17:53Z</time>
      </trkpt>
      <trkpt lat="49.10556" lon="-0.43569">
        <ele>52.05</ele>
        <time>2018-11-16T08:18:13Z</time>
      </trkpt>
      <trkpt lat="49.10556" lon="-0.43571">
        <ele>52.05</ele>
        <time>2018-11-16T08:18:45Z</time>
      </trkpt>
      <trkpt lat="49.10569" lon="-0.43564">
        <ele>52.05</ele>
        <time>2018-11-16T08:19:01Z</time>
      </trkpt>
      <trkpt lat="49.10569" lon="-0.43548">
        <ele>52.05</ele>
        <time>2018-11-16T08:19:09Z</time>
      </trkpt>
      <trkpt lat="49.10569" lon="-0.43542">
        <ele>51.57</ele>
        <time>2018-11-16T08:19:13Z</time>
      </trkpt>
      <trkpt lat="49.10571" lon="-0.43507">
        <ele>51.57</ele>
        <time>2018-11-16T08:19:31Z</time>
      </trkpt>
      <trkpt lat="49.10574" lon="-0.43467">
        <ele>51.57</ele>
        <time>2018-11-16T08:19:51Z</time>
      </trkpt>
      <trkpt lat="49.10576" lon="-0.43432">
        <ele>51.57</ele>
        <time>2018-11-16T08:20:08Z</time>
      </trkpt>
      <trkpt lat="49.10575" lon="-0.43394">
        <ele>51.57</ele>
        <time>2018-11-16T08:20:27Z</time>
      </trkpt>
      <trkpt lat="49.10572" lon="-0.43352">
        <ele>51.57</ele>
        <time>2018-11-16T08:20:48Z</time>
      </trkpt>
      <trkpt lat="49.1057" lon="-0.43312">
        <ele>50.13</ele>
        <time>2018-11-16T08:21:08Z</time>
      </trkpt>
      <trkpt lat="49.10566" lon="-0.43268">
        <ele>48.2</ele>
        <time>2018-11-16T08:21:30Z</time>
      </trkpt>
      <trkpt lat="49.10561" lon="-0.43233">
        <ele>46.28</ele>
        <time>2018-11-16T08:21:47Z</time>
      </trkpt>
      <trkpt lat="49.10559" lon="-0.43228">
        <ele>46.28</ele>
        <time>2018-11-16T08:21:50Z</time>
      </trkpt>
      <trkpt lat="49.10564" lon="-0.43198">
        <ele>44.84</ele>
        <time>2018-11-16T08:22:09Z</time>
      </trkpt>
      <trkpt lat="49.10565" lon="-0.43197">
        <ele>42.92</ele>
        <time>2018-11-16T08:22:33Z</time>
      </trkpt>
      <trkpt lat="49.10564" lon="-0.43198">
        <ele>47.72</ele>
        <time>2018-11-16T08:22:35Z</time>
      </trkpt>
      <trkpt lat="49.10564" lon="-0.43198">
        <ele>44.36</ele>
        <time>2018-11-16T08:22:36Z</time>
      </trkpt>
      <trkpt lat="49.10564" lon="-0.43198">
        <ele>42.92</ele>
        <time>2018-11-16T08:22:47Z</time>
      </trkpt>
      <trkpt lat="49.10563" lon="-0.43198">
        <ele>45.8</ele>
        <time>2018-11-16T08:23:02Z</time>
      </trkpt>
      <trkpt lat="49.10548" lon="-0.43182">
        <ele>43.88</ele>
        <time>2018-11-16T08:23:16Z</time>
      </trkpt>
      <trkpt lat="49.10543" lon="-0.43165">
        <ele>43.4</ele>
        <time>2018-11-16T08:23:26Z</time>
      </trkpt>
      <trkpt lat="49.10537" lon="-0.43129">
        <ele>41.47</ele>
        <time>2018-11-16T08:23:45Z</time>
      </trkpt>
      <trkpt lat="49.10525" lon="-0.43087">
        <ele>40.03</ele>
        <time>2018-11-16T08:24:07Z</time>
      </trkpt>
      <trkpt lat="49.10513" lon="-0.43045">
        <ele>38.11</ele>
        <time>2018-11-16T08:24:28Z</time>
      </trkpt>
      <trkpt lat="49.10504" lon="-0.43007">
        <ele>37.63</ele>
        <time>2018-11-16T08:24:48Z</time>
      </trkpt>
      <trkpt lat="49.10493" lon="-0.42968">
        <ele>37.63</ele>
        <time>2018-11-16T08:25:09Z</time>
      </trkpt>
      <trkpt lat="49.1048" lon="-0.42929">
        <ele>37.15</ele>
        <time>2018-11-16T08:25:30Z</time>
      </trkpt>
      <trkpt lat="49.10471" lon="-0.42896">
        <ele>37.15</ele>
        <time>2018-11-16T08:25:47Z</time>
      </trkpt>
      <trkpt lat="49.10468" lon="-0.42864">
        <ele>37.15</ele>
        <time>2018-11-16T08:26:04Z</time>
      </trkpt>
      <trkpt lat="49.10464" lon="-0.42829">
        <ele>36.19</ele>
        <time>2018-11-16T08:26:23Z</time>
      </trkpt>
      <trkpt lat="49.10461" lon="-0.42795">
        <ele>35.71</ele>
        <time>2018-11-16T08:26:39Z</time>
      </trkpt>
      <trkpt lat="49.10459" lon="-0.42751">
        <ele>34.74</ele>
        <time>2018-11-16T08:26:59Z</time>
      </trkpt>
      <trkpt lat="49.10456" lon="-0.42707">
        <ele>33.3</ele>
        <time>2018-11-16T08:27:20Z</time>
      </trkpt>
      <trkpt lat="49.10452" lon="-0.42673">
        <ele>31.38</ele>
        <time>2018-11-16T08:27:38Z</time>
      </trkpt>
      <trkpt lat="49.10442" lon="-0.42646">
        <ele>28.5</ele>
        <time>2018-11-16T08:27:55Z</time>
      </trkpt>
      <trkpt lat="49.10439" lon="-0.42645">
        <ele>28.5</ele>
        <time>2018-11-16T08:27:58Z</time>
      </trkpt>
      <trkpt lat="49.10423" lon="-0.42667">
        <ele>26.57</ele>
        <time>2018-11-16T08:28:15Z</time>
      </trkpt>
      <trkpt lat="49.10403" lon="-0.42689">
        <ele>25.13</ele>
        <time>2018-11-16T08:28:34Z</time>
      </trkpt>
      <trkpt lat="49.10389" lon="-0.42699">
        <ele>24.17</ele>
        <time>2018-11-16T08:28:48Z</time>
      </trkpt>
      <trkpt lat="49.10377" lon="-0.4271">
        <ele>25.13</ele>
        <time>2018-11-16T08:29:00Z</time>
      </trkpt>
      <trkpt lat="49.1036" lon="-0.42727">
        <ele>28.5</ele>
        <time>2018-11-16T08:29:15Z</time>
      </trkpt>
      <trkpt lat="49.1035" lon="-0.42722">
        <ele>31.38</ele>
        <time>2018-11-16T08:29:27Z</time>
      </trkpt>
      <trkpt lat="49.10349" lon="-0.42721">
        <ele>31.38</ele>
        <time>2018-11-16T08:29:28Z</time>
      </trkpt>
      <trkpt lat="49.10344" lon="-0.42694">
        <ele>34.74</ele>
        <time>2018-11-16T08:29:43Z</time>
      </trkpt>
      <trkpt lat="49.10338" lon="-0.42666">
        <ele>37.15</ele>
        <time>2018-11-16T08:29:59Z</time>
      </trkpt>
      <trkpt lat="49.10333" lon="-0.4265">
        <ele>38.11</ele>
        <time>2018-11-16T08:30:08Z</time>
      </trkpt>
      <trkpt lat="49.10332" lon="-0.42643">
        <ele>38.59</ele>
        <time>2018-11-16T08:30:12Z</time>
      </trkpt>
      <trkpt lat="49.1031" lon="-0.42626">
        <ele>40.03</ele>
        <time>2018-11-16T08:30:31Z</time>
      </trkpt>
      <trkpt lat="49.10291" lon="-0.42626">
        <ele>40.99</ele>
        <time>2018-11-16T08:30:45Z</time>
      </trkpt>
      <trkpt lat="49.10273" lon="-0.42634">
        <ele>43.4</ele>
        <time>2018-11-16T08:31:00Z</time>
      </trkpt>
      <trkpt lat="49.10253" lon="-0.42639">
        <ele>44.84</ele>
        <time>2018-11-16T08:31:16Z</time>
      </trkpt>
      <trkpt lat="49.10234" lon="-0.42646">
        <ele>46.76</ele>
        <time>2018-11-16T08:31:32Z</time>
      </trkpt>
      <trkpt lat="49.10208" lon="-0.4265">
        <ele>48.2</ele>
        <time>2018-11-16T08:31:51Z</time>
      </trkpt>
      <trkpt lat="49.10203" lon="-0.42652">
        <ele>49.16</ele>
        <time>2018-11-16T08:32:05Z</time>
      </trkpt>
      <trkpt lat="49.10182" lon="-0.42658">
        <ele>49.65</ele>
        <time>2018-11-16T08:32:23Z</time>
      </trkpt>
      <trkpt lat="49.10157" lon="-0.42665">
        <ele>50.61</ele>
        <time>2018-11-16T08:32:42Z</time>
      </trkpt>
      <trkpt lat="49.10132" lon="-0.42674">
        <ele>51.57</ele>
        <time>2018-11-16T08:33:01Z</time>
      </trkpt>
      <trkpt lat="49.10109" lon="-0.42685">
        <ele>52.53</ele>
        <time>2018-11-16T08:33:19Z</time>
      </trkpt>
      <trkpt lat="49.10093" lon="-0.42692">
        <ele>53.49</ele>
        <time>2018-11-16T08:33:33Z</time>
      </trkpt>
      <trkpt lat="49.10068" lon="-0.42698">
        <ele>53.49</ele>
        <time>2018-11-16T08:33:52Z</time>
      </trkpt>
      <trkpt lat="49.10061" lon="-0.427">
        <ele>54.93</ele>
        <time>2018-11-16T08:33:57Z</time>
      </trkpt>
      <trkpt lat="49.10033" lon="-0.42708">
        <ele>55.89</ele>
        <time>2018-11-16T08:34:17Z</time>
      </trkpt>
      <trkpt lat="49.10004" lon="-0.42716">
        <ele>56.86</ele>
        <time>2018-11-16T08:34:38Z</time>
      </trkpt>
      <trkpt lat="49.09982" lon="-0.42728">
        <ele>57.34</ele>
        <time>2018-11-16T08:34:55Z</time>
      </trkpt>
      <trkpt lat="49.09974" lon="-0.42734">
        <ele>57.82</ele>
        <time>2018-11-16T08:35:08Z</time>
      </trkpt>
      <trkpt lat="49.09964" lon="-0.42741">
        <ele>58.3</ele>
        <time>2018-11-16T08:35:26Z</time>
      </trkpt>
      <trkpt lat="49.0996" lon="-0.42737">
        <ele>58.3</ele>
        <time>2018-11-16T08:35:31Z</time>
      </trkpt>
      <trkpt lat="49.09954" lon="-0.42704">
        <ele>58.3</ele>
        <time>2018-11-16T08:35:49Z</time>
      </trkpt>
      <trkpt lat="49.09946" lon="-0.42652">
        <ele>58.3</ele>
        <time>2018-11-16T08:36:14Z</time>
      </trkpt>
      <trkpt lat="49.09944" lon="-0.42636">
        <ele>56.86</ele>
        <time>2018-11-16T08:36:22Z</time>
      </trkpt>
      <trkpt lat="49.09938" lon="-0.42601">
        <ele>56.86</ele>
        <time>2018-11-16T08:36:39Z</time>
      </trkpt>
      <trkpt lat="49.0993" lon="-0.42561">
        <ele>56.37</ele>
        <time>2018-11-16T08:36:59Z</time>
      </trkpt>
      <trkpt lat="49.09921" lon="-0.42523">
        <ele>55.89</ele>
        <time>2018-11-16T08:37:18Z</time>
      </trkpt>
      <trkpt lat="49.0992" lon="-0.42517">
        <ele>55.89</ele>
        <time>2018-11-16T08:37:21Z</time>
      </trkpt>
      <trkpt lat="49.09924" lon="-0.42512">
        <ele>55.41</ele>
        <time>2018-11-16T08:37:25Z</time>
      </trkpt>
      <trkpt lat="49.0995" lon="-0.42502">
        <ele>53.97</ele>
        <time>2018-11-16T08:37:46Z</time>
      </trkpt>
      <trkpt lat="49.09976" lon="-0.42491">
        <ele>52.05</ele>
        <time>2018-11-16T08:38:07Z</time>
      </trkpt>
      <trkpt lat="49.09995" lon="-0.42472">
        <ele>49.16</ele>
        <time>2018-11-16T08:38:26Z</time>
      </trkpt>
      <trkpt lat="49.10006" lon="-0.42451">
        <ele>45.8</ele>
        <time>2018-11-16T08:38:40Z</time>
      </trkpt>
      <trkpt lat="49.1002" lon="-0.42421">
        <ele>43.4</ele>
        <time>2018-11-16T08:38:58Z</time>
      </trkpt>
      <trkpt lat="49.10036" lon="-0.42381">
        <ele>40.03</ele>
        <time>2018-11-16T08:39:21Z</time>
      </trkpt>
      <trkpt lat="49.10051" lon="-0.42343">
        <ele>37.63</ele>
        <time>2018-11-16T08:39:44Z</time>
      </trkpt>
      <trkpt lat="49.10068" lon="-0.4231">
        <ele>35.71</ele>
        <time>2018-11-16T08:40:05Z</time>
      </trkpt>
      <trkpt lat="49.10088" lon="-0.4228">
        <ele>33.78</ele>
        <time>2018-11-16T08:40:27Z</time>
      </trkpt>
      <trkpt lat="49.10089" lon="-0.42279">
        <ele>33.78</ele>
        <time>2018-11-16T08:40:28Z</time>
      </trkpt>
      <trkpt lat="49.10107" lon="-0.42259">
        <ele>31.86</ele>
        <time>2018-11-16T08:40:45Z</time>
      </trkpt>
      <trkpt lat="49.10112" lon="-0.42256">
        <ele>31.38</ele>
        <time>2018-11-16T08:40:49Z</time>
      </trkpt>
      <trkpt lat="49.10136" lon="-0.4223">
        <ele>29.46</ele>
        <time>2018-11-16T08:41:11Z</time>
      </trkpt>
      <trkpt lat="49.10153" lon="-0.4221">
        <ele>28.5</ele>
        <time>2018-11-16T08:41:29Z</time>
      </trkpt>
      <trkpt lat="49.10178" lon="-0.42187">
        <ele>26.09</ele>
        <time>2018-11-16T08:41:52Z</time>
      </trkpt>
      <trkpt lat="49.10191" lon="-0.42175">
        <ele>23.69</ele>
        <time>2018-11-16T08:42:06Z</time>
      </trkpt>
      <trkpt lat="49.1021" lon="-0.42183">
        <ele>21.77</ele>
        <time>2018-11-16T08:42:24Z</time>
      </trkpt>
      <trkpt lat="49.1022" lon="-0.42198">
        <ele>20.81</ele>
        <time>2018-11-16T08:42:36Z</time>
      </trkpt>
      <trkpt lat="49.10228" lon="-0.42197">
        <ele>20.32</ele>
        <time>2018-11-16T08:42:43Z</time>
      </trkpt>
      <trkpt lat="49.10244" lon="-0.42183">
        <ele>19.36</ele>
        <time>2018-11-16T08:43:00Z</time>
      </trkpt>
      <trkpt lat="49.10247" lon="-0.42181">
        <ele>19.36</ele>
        <time>2018-11-16T08:43:03Z</time>
      </trkpt>
      <trkpt lat="49.10245" lon="-0.42165">
        <ele>18.88</ele>
        <time>2018-11-16T08:43:17Z</time>
      </trkpt>
      <trkpt lat="49.10245" lon="-0.42163">
        <ele>20.32</ele>
        <time>2018-11-16T08:43:35Z</time>
      </trkpt>
      <trkpt lat="49.10247" lon="-0.42158">
        <ele>20.32</ele>
        <time>2018-11-16T08:43:54Z</time>
      </trkpt>
      <trkpt lat="49.10248" lon="-0.42152">
        <ele>20.32</ele>
        <time>2018-11-16T08:44:11Z</time>
      </trkpt>
      <trkpt lat="49.10251" lon="-0.42149">
        <ele>20.32</ele>
        <time>2018-11-16T08:44:42Z</time>
      </trkpt>
      <trkpt lat="49.10258" lon="-0.42136">
        <ele>19.36</ele>
        <time>2018-11-16T08:44:53Z</time>
      </trkpt>
      <trkpt lat="49.10255" lon="-0.42129">
        <ele>19.36</ele>
        <time>2018-11-16T08:44:59Z</time>
      </trkpt>
      <trkpt lat="49.10251" lon="-0.42128">
        <ele>19.36</ele>
        <time>2018-11-16T08:45:06Z</time>
      </trkpt>
      <trkpt lat="49.10241" lon="-0.42111">
        <ele>19.36</ele>
        <time>2018-11-16T08:45:19Z</time>
      </trkpt>
      <trkpt lat="49.1024" lon="-0.4211">
        <ele>19.36</ele>
        <time>2018-11-16T08:45:20Z</time>
      </trkpt>
      <trkpt lat="49.10231" lon="-0.42092">
        <ele>19.36</ele>
        <time>2018-11-16T08:45:34Z</time>
      </trkpt>
      <trkpt lat="49.10223" lon="-0.4207">
        <ele>18.88</ele>
        <time>2018-11-16T08:45:48Z</time>
      </trkpt>
      <trkpt lat="49.10218" lon="-0.42059">
        <ele>18.4</ele>
        <time>2018-11-16T08:45:56Z</time>
      </trkpt>
      <trkpt lat="49.10214" lon="-0.42049">
        <ele>18.4</ele>
        <time>2018-11-16T08:46:01Z</time>
      </trkpt>
      <trkpt lat="49.1021" lon="-0.42039">
        <ele>17.44</ele>
        <time>2018-11-16T08:46:05Z</time>
      </trkpt>
      <trkpt lat="49.10204" lon="-0.42009">
        <ele>16.96</ele>
        <time>2018-11-16T08:46:20Z</time>
      </trkpt>
      <trkpt lat="49.10204" lon="-0.42007">
        <ele>16.96</ele>
        <time>2018-11-16T08:46:21Z</time>
      </trkpt>
      <trkpt lat="49.102" lon="-0.41972">
        <ele>16</ele>
        <time>2018-11-16T08:46:38Z</time>
      </trkpt>
      <trkpt lat="49.10198" lon="-0.41938">
        <ele>15.04</ele>
        <time>2018-11-16T08:46:55Z</time>
      </trkpt>
      <trkpt lat="49.10198" lon="-0.41923">
        <ele>15.04</ele>
        <time>2018-11-16T08:47:03Z</time>
      </trkpt>
      <trkpt lat="49.10194" lon="-0.41914">
        <ele>15.04</ele>
        <time>2018-11-16T08:47:09Z</time>
      </trkpt>
      <trkpt lat="49.10188" lon="-0.41888">
        <ele>15.04</ele>
        <time>2018-11-16T08:47:24Z</time>
      </trkpt>
      <trkpt lat="49.10184" lon="-0.41879">
        <ele>15.04</ele>
        <time>2018-11-16T08:47:31Z</time>
      </trkpt>
      <trkpt lat="49.10174" lon="-0.4186">
        <ele>15.04</ele>
        <time>2018-11-16T08:47:42Z</time>
      </trkpt>
      <trkpt lat="49.10165" lon="-0.41842">
        <ele>15.04</ele>
        <time>2018-11-16T08:47:54Z</time>
      </trkpt>
      <trkpt lat="49.10154" lon="-0.41817">
        <ele>14.56</ele>
        <time>2018-11-16T08:48:10Z</time>
      </trkpt>
      <trkpt lat="49.10146" lon="-0.41798">
        <ele>14.08</ele>
        <time>2018-11-16T08:48:24Z</time>
      </trkpt>
      <trkpt lat="49.10133" lon="-0.41775">
        <ele>13.6</ele>
        <time>2018-11-16T08:48:40Z</time>
      </trkpt>
      <trkpt lat="49.1012" lon="-0.41754">
        <ele>13.6</ele>
        <time>2018-11-16T08:48:56Z</time>
      </trkpt>
      <trkpt lat="49.10108" lon="-0.4173">
        <ele>13.12</ele>
        <time>2018-11-16T08:49:10Z</time>
      </trkpt>
      <trkpt lat="49.10098" lon="-0.41709">
        <ele>13.12</ele>
        <time>2018-11-16T08:49:26Z</time>
      </trkpt>
      <trkpt lat="49.1008" lon="-0.41689">
        <ele>13.12</ele>
        <time>2018-11-16T08:49:42Z</time>
      </trkpt>
      <trkpt lat="49.10068" lon="-0.41671">
        <ele>12.63</ele>
        <time>2018-11-16T08:49:56Z</time>
      </trkpt>
      <trkpt lat="49.10057" lon="-0.41647">
        <ele>11.67</ele>
        <time>2018-11-16T08:50:12Z</time>
      </trkpt>
      <trkpt lat="49.10047" lon="-0.41623">
        <ele>11.19</ele>
        <time>2018-11-16T08:50:27Z</time>
      </trkpt>
      <trkpt lat="49.10043" lon="-0.41604">
        <ele>10.71</ele>
        <time>2018-11-16T08:50:38Z</time>
      </trkpt>
      <trkpt lat="49.10038" lon="-0.41588">
        <ele>10.23</ele>
        <time>2018-11-16T08:50:48Z</time>
      </trkpt>
      <trkpt lat="49.10033" lon="-0.41561">
        <ele>9.75</ele>
        <time>2018-11-16T08:51:01Z</time>
      </trkpt>
      <trkpt lat="49.10028" lon="-0.41537">
        <ele>9.75</ele>
        <time>2018-11-16T08:51:15Z</time>
      </trkpt>
      <trkpt lat="49.10028" lon="-0.41531">
        <ele>9.27</ele>
        <time>2018-11-16T08:51:32Z</time>
      </trkpt>
      <trkpt lat="49.10021" lon="-0.41522">
        <ele>9.27</ele>
        <time>2018-11-16T08:51:47Z</time>
      </trkpt>
      <trkpt lat="49.10012" lon="-0.41506">
        <ele>9.27</ele>
        <time>2018-11-16T08:52:01Z</time>
      </trkpt>
      <trkpt lat="49.10002" lon="-0.41488">
        <ele>9.27</ele>
        <time>2018-11-16T08:52:16Z</time>
      </trkpt>
      <trkpt lat="49.09995" lon="-0.41459">
        <ele>8.79</ele>
        <time>2018-11-16T08:52:30Z</time>
      </trkpt>
      <trkpt lat="49.09992" lon="-0.41432">
        <ele>8.79</ele>
        <time>2018-11-16T08:52:45Z</time>
      </trkpt>
      <trkpt lat="49.09992" lon="-0.41408">
        <ele>8.79</ele>
        <time>2018-11-16T08:52:59Z</time>
      </trkpt>
      <trkpt lat="49.09992" lon="-0.414">
        <ele>8.31</ele>
        <time>2018-11-16T08:53:03Z</time>
      </trkpt>
      <trkpt lat="49.09994" lon="-0.4138">
        <ele>7.83</ele>
        <time>2018-11-16T08:53:13Z</time>
      </trkpt>
      <trkpt lat="49.09994" lon="-0.41358">
        <ele>7.83</ele>
        <time>2018-11-16T08:53:28Z</time>
      </trkpt>
      <trkpt lat="49.09991" lon="-0.41344">
        <ele>7.83</ele>
        <time>2018-11-16T08:53:44Z</time>
      </trkpt>
      <trkpt lat="49.09985" lon="-0.41334">
        <ele>7.83</ele>
        <time>2018-11-16T08:54:22Z</time>
      </trkpt>
      <trkpt lat="49.09984" lon="-0.41328">
        <ele>8.31</ele>
        <time>2018-11-16T08:54:49Z</time>
      </trkpt>
      <trkpt lat="49.09989" lon="-0.41331">
        <ele>8.31</ele>
        <time>2018-11-16T08:55:08Z</time>
      </trkpt>
      <trkpt lat="49.09992" lon="-0.41332">
        <ele>8.31</ele>
        <time>2018-11-16T08:55:32Z</time>
      </trkpt>
      <trkpt lat="49.09996" lon="-0.41316">
        <ele>8.31</ele>
        <time>2018-11-16T08:55:44Z</time>
      </trkpt>
      <trkpt lat="49.09998" lon="-0.41318">
        <ele>7.83</ele>
        <time>2018-11-16T08:55:57Z</time>
      </trkpt>
      <trkpt lat="49.1001" lon="-0.4129">
        <ele>12.63</ele>
        <time>2018-11-16T09:04:51Z</time>
      </trkpt>
      <trkpt lat="49.10011" lon="-0.41276">
        <ele>11.67</ele>
        <time>2018-11-16T09:05:03Z</time>
      </trkpt>
      <trkpt lat="49.10009" lon="-0.41271">
        <ele>11.67</ele>
        <time>2018-11-16T09:05:05Z</time>
      </trkpt>
      <trkpt lat="49.10008" lon="-0.41266">
        <ele>11.67</ele>
        <time>2018-11-16T09:05:07Z</time>
      </trkpt>
      <trkpt lat="49.10006" lon="-0.41255">
        <ele>12.63</ele>
        <time>2018-11-16T09:05:11Z</time>
      </trkpt>
      <trkpt lat="49.10002" lon="-0.41228">
        <ele>14.56</ele>
        <time>2018-11-16T09:05:22Z</time>
      </trkpt>
      <trkpt lat="49.10006" lon="-0.412">
        <ele>16</ele>
        <time>2018-11-16T09:05:36Z</time>
      </trkpt>
      <trkpt lat="49.10006" lon="-0.41196">
        <ele>16.48</ele>
        <time>2018-11-16T09:05:38Z</time>
      </trkpt>
      <trkpt lat="49.10005" lon="-0.41178">
        <ele>17.44</ele>
        <time>2018-11-16T09:05:50Z</time>
      </trkpt>
      <trkpt lat="49.10006" lon="-0.41162">
        <ele>17.92</ele>
        <time>2018-11-16T09:05:58Z</time>
      </trkpt>
      <trkpt lat="49.10006" lon="-0.41159">
        <ele>18.88</ele>
        <time>2018-11-16T09:06:00Z</time>
      </trkpt>
      <trkpt lat="49.10004" lon="-0.41152">
        <ele>19.36</ele>
        <time>2018-11-16T09:06:04Z</time>
      </trkpt>
      <trkpt lat="49.10003" lon="-0.41133">
        <ele>22.25</ele>
        <time>2018-11-16T09:06:17Z</time>
      </trkpt>
      <trkpt lat="49.10002" lon="-0.41127">
        <ele>22.73</ele>
        <time>2018-11-16T09:06:21Z</time>
      </trkpt>
      <trkpt lat="49.09999" lon="-0.41105">
        <ele>25.13</ele>
        <time>2018-11-16T09:06:34Z</time>
      </trkpt>
      <trkpt lat="49.1" lon="-0.41101">
        <ele>25.61</ele>
        <time>2018-11-16T09:06:37Z</time>
      </trkpt>
      <trkpt lat="49.09999" lon="-0.41094">
        <ele>26.57</ele>
        <time>2018-11-16T09:06:42Z</time>
      </trkpt>
      <trkpt lat="49.1" lon="-0.4107">
        <ele>28.98</ele>
        <time>2018-11-16T09:06:58Z</time>
      </trkpt>
      <trkpt lat="49.1" lon="-0.41068">
        <ele>29.94</ele>
        <time>2018-11-16T09:07:00Z</time>
      </trkpt>
      <trkpt lat="49.1001" lon="-0.41065">
        <ele>30.42</ele>
        <time>2018-11-16T09:07:15Z</time>
      </trkpt>
      <trkpt lat="49.10011" lon="-0.41065">
        <ele>30.42</ele>
        <time>2018-11-16T09:07:16Z</time>
      </trkpt>
      <trkpt lat="49.10016" lon="-0.41065">
        <ele>30.42</ele>
        <time>2018-11-16T09:07:20Z</time>
      </trkpt>
      <trkpt lat="49.10035" lon="-0.41058">
        <ele>30.9</ele>
        <time>2018-11-16T09:07:37Z</time>
      </trkpt>
      <trkpt lat="49.10051" lon="-0.41049">
        <ele>29.94</ele>
        <time>2018-11-16T09:07:49Z</time>
      </trkpt>
      <trkpt lat="49.10069" lon="-0.41038">
        <ele>30.9</ele>
        <time>2018-11-16T09:08:05Z</time>
      </trkpt>
      <trkpt lat="49.10088" lon="-0.41028">
        <ele>30.9</ele>
        <time>2018-11-16T09:08:21Z</time>
      </trkpt>
      <trkpt lat="49.10095" lon="-0.41026">
        <ele>30.9</ele>
        <time>2018-11-16T09:08:27Z</time>
      </trkpt>
      <trkpt lat="49.10103" lon="-0.4102">
        <ele>31.86</ele>
        <time>2018-11-16T09:08:34Z</time>
      </trkpt>
      <trkpt lat="49.10109" lon="-0.41015">
        <ele>31.86</ele>
        <time>2018-11-16T09:08:39Z</time>
      </trkpt>
      <trkpt lat="49.10116" lon="-0.41011">
        <ele>32.34</ele>
        <time>2018-11-16T09:08:46Z</time>
      </trkpt>
      <trkpt lat="49.10132" lon="-0.41002">
        <ele>33.78</ele>
        <time>2018-11-16T09:09:00Z</time>
      </trkpt>
      <trkpt lat="49.10153" lon="-0.40994">
        <ele>35.23</ele>
        <time>2018-11-16T09:09:16Z</time>
      </trkpt>
      <trkpt lat="49.10168" lon="-0.40981">
        <ele>37.15</ele>
        <time>2018-11-16T09:09:33Z</time>
      </trkpt>
      <trkpt lat="49.10187" lon="-0.40964">
        <ele>39.55</ele>
        <time>2018-11-16T09:09:50Z</time>
      </trkpt>
      <trkpt lat="49.10194" lon="-0.40958">
        <ele>40.03</ele>
        <time>2018-11-16T09:09:58Z</time>
      </trkpt>
      <trkpt lat="49.10213" lon="-0.40945">
        <ele>41.47</ele>
        <time>2018-11-16T09:10:14Z</time>
      </trkpt>
      <trkpt lat="49.10232" lon="-0.40931">
        <ele>42.92</ele>
        <time>2018-11-16T09:10:30Z</time>
      </trkpt>
      <trkpt lat="49.10233" lon="-0.40925">
        <ele>42.92</ele>
        <time>2018-11-16T09:10:34Z</time>
      </trkpt>
      <trkpt lat="49.10231" lon="-0.40917">
        <ele>42.44</ele>
        <time>2018-11-16T09:10:47Z</time>
      </trkpt>
      <trkpt lat="49.1023" lon="-0.40918">
        <ele>42.44</ele>
        <time>2018-11-16T09:11:13Z</time>
      </trkpt>
      <trkpt lat="49.1023" lon="-0.40918">
        <ele>43.88</ele>
        <time>2018-11-16T09:11:16Z</time>
      </trkpt>
      <trkpt lat="49.10231" lon="-0.40916">
        <ele>43.88</ele>
        <time>2018-11-16T09:11:37Z</time>
      </trkpt>
      <trkpt lat="49.1023" lon="-0.40915">
        <ele>43.88</ele>
        <time>2018-11-16T09:11:51Z</time>
      </trkpt>
      <trkpt lat="49.1023" lon="-0.40914">
        <ele>43.88</ele>
        <time>2018-11-16T09:12:10Z</time>
      </trkpt>
      <trkpt lat="49.1023" lon="-0.40918">
        <ele>43.88</ele>
        <time>2018-11-16T09:12:26Z</time>
      </trkpt>
      <trkpt lat="49.10231" lon="-0.40916">
        <ele>43.88</ele>
        <time>2018-11-16T09:12:51Z</time>
      </trkpt>
      <trkpt lat="49.10227" lon="-0.40905">
        <ele>43.88</ele>
        <time>2018-11-16T09:12:59Z</time>
      </trkpt>
      <trkpt lat="49.10208" lon="-0.40878">
        <ele>44.36</ele>
        <time>2018-11-16T09:13:19Z</time>
      </trkpt>
      <trkpt lat="49.10193" lon="-0.40853">
        <ele>44.36</ele>
        <time>2018-11-16T09:13:36Z</time>
      </trkpt>
      <trkpt lat="49.10182" lon="-0.4082">
        <ele>44.36</ele>
        <time>2018-11-16T09:13:53Z</time>
      </trkpt>
      <trkpt lat="49.10174" lon="-0.40795">
        <ele>42.92</ele>
        <time>2018-11-16T09:14:07Z</time>
      </trkpt>
      <trkpt lat="49.10165" lon="-0.40768">
        <ele>41.47</ele>
        <time>2018-11-16T09:14:22Z</time>
      </trkpt>
      <trkpt lat="49.10168" lon="-0.40755">
        <ele>41.47</ele>
        <time>2018-11-16T09:14:29Z</time>
      </trkpt>
      <trkpt lat="49.10186" lon="-0.40735">
        <ele>40.51</ele>
        <time>2018-11-16T09:14:45Z</time>
      </trkpt>
      <trkpt lat="49.10184" lon="-0.4071">
        <ele>38.11</ele>
        <time>2018-11-16T09:14:59Z</time>
      </trkpt>
      <trkpt lat="49.10177" lon="-0.40685">
        <ele>39.07</ele>
        <time>2018-11-16T09:15:13Z</time>
      </trkpt>
      <trkpt lat="49.1017" lon="-0.40663">
        <ele>40.51</ele>
        <time>2018-11-16T09:15:27Z</time>
      </trkpt>
      <trkpt lat="49.10162" lon="-0.40635">
        <ele>42.92</ele>
        <time>2018-11-16T09:15:41Z</time>
      </trkpt>
      <trkpt lat="49.10158" lon="-0.40592">
        <ele>43.4</ele>
        <time>2018-11-16T09:16:00Z</time>
      </trkpt>
      <trkpt lat="49.10158" lon="-0.40557">
        <ele>44.36</ele>
        <time>2018-11-16T09:16:17Z</time>
      </trkpt>
      <trkpt lat="49.10161" lon="-0.40532">
        <ele>44.36</ele>
        <time>2018-11-16T09:16:32Z</time>
      </trkpt>
      <trkpt lat="49.10161" lon="-0.40492">
        <ele>44.84</ele>
        <time>2018-11-16T09:16:51Z</time>
      </trkpt>
      <trkpt lat="49.10168" lon="-0.40454">
        <ele>45.32</ele>
        <time>2018-11-16T09:17:10Z</time>
      </trkpt>
      <trkpt lat="49.10174" lon="-0.40421">
        <ele>45.32</ele>
        <time>2018-11-16T09:17:27Z</time>
      </trkpt>
      <trkpt lat="49.10176" lon="-0.40414">
        <ele>45.32</ele>
        <time>2018-11-16T09:17:31Z</time>
      </trkpt>
      <trkpt lat="49.10183" lon="-0.40378">
        <ele>45.8</ele>
        <time>2018-11-16T09:17:50Z</time>
      </trkpt>
      <trkpt lat="49.10189" lon="-0.40341">
        <ele>44.36</ele>
        <time>2018-11-16T09:18:08Z</time>
      </trkpt>
      <trkpt lat="49.10193" lon="-0.40307">
        <ele>44.36</ele>
        <time>2018-11-16T09:18:26Z</time>
      </trkpt>
      <trkpt lat="49.10197" lon="-0.40263">
        <ele>44.36</ele>
        <time>2018-11-16T09:18:49Z</time>
      </trkpt>
      <trkpt lat="49.10203" lon="-0.40216">
        <ele>44.36</ele>
        <time>2018-11-16T09:19:12Z</time>
      </trkpt>
      <trkpt lat="49.10209" lon="-0.40179">
        <ele>44.84</ele>
        <time>2018-11-16T09:19:30Z</time>
      </trkpt>
      <trkpt lat="49.10209" lon="-0.40141">
        <ele>44.36</ele>
        <time>2018-11-16T09:19:49Z</time>
      </trkpt>
      <trkpt lat="49.10205" lon="-0.40114">
        <ele>44.36</ele>
        <time>2018-11-16T09:20:04Z</time>
      </trkpt>
      <trkpt lat="49.10205" lon="-0.4011">
        <ele>44.36</ele>
        <time>2018-11-16T09:20:06Z</time>
      </trkpt>
      <trkpt lat="49.10204" lon="-0.40098">
        <ele>44.36</ele>
        <time>2018-11-16T09:20:22Z</time>
      </trkpt>
      <trkpt lat="49.10201" lon="-0.40085">
        <ele>44.36</ele>
        <time>2018-11-16T09:20:31Z</time>
      </trkpt>
      <trkpt lat="49.10195" lon="-0.40059">
        <ele>44.36</ele>
        <time>2018-11-16T09:20:46Z</time>
      </trkpt>
      <trkpt lat="49.10187" lon="-0.40018">
        <ele>43.88</ele>
        <time>2018-11-16T09:21:05Z</time>
      </trkpt>
      <trkpt lat="49.10174" lon="-0.39978">
        <ele>43.4</ele>
        <time>2018-11-16T09:21:27Z</time>
      </trkpt>
      <trkpt lat="49.10165" lon="-0.39938">
        <ele>44.84</ele>
        <time>2018-11-16T09:21:48Z</time>
      </trkpt>
      <trkpt lat="49.10153" lon="-0.3991">
        <ele>43.88</ele>
        <time>2018-11-16T09:22:05Z</time>
      </trkpt>
      <trkpt lat="49.10144" lon="-0.39888">
        <ele>43.4</ele>
        <time>2018-11-16T09:22:19Z</time>
      </trkpt>
      <trkpt lat="49.10135" lon="-0.39855">
        <ele>42.92</ele>
        <time>2018-11-16T09:22:36Z</time>
      </trkpt>
      <trkpt lat="49.10127" lon="-0.3983">
        <ele>41.95</ele>
        <time>2018-11-16T09:22:52Z</time>
      </trkpt>
      <trkpt lat="49.10118" lon="-0.39802">
        <ele>41.95</ele>
        <time>2018-11-16T09:23:07Z</time>
      </trkpt>
      <trkpt lat="49.10107" lon="-0.39774">
        <ele>41.47</ele>
        <time>2018-11-16T09:23:23Z</time>
      </trkpt>
      <trkpt lat="49.10103" lon="-0.39758">
        <ele>41.47</ele>
        <time>2018-11-16T09:23:32Z</time>
      </trkpt>
      <trkpt lat="49.10096" lon="-0.39737">
        <ele>41.47</ele>
        <time>2018-11-16T09:23:42Z</time>
      </trkpt>
      <trkpt lat="49.10095" lon="-0.39731">
        <ele>41.47</ele>
        <time>2018-11-16T09:23:46Z</time>
      </trkpt>
      <trkpt lat="49.10084" lon="-0.39702">
        <ele>41.47</ele>
        <time>2018-11-16T09:24:03Z</time>
      </trkpt>
      <trkpt lat="49.1008" lon="-0.39679">
        <ele>41.47</ele>
        <time>2018-11-16T09:24:15Z</time>
      </trkpt>
      <trkpt lat="49.10071" lon="-0.39647">
        <ele>40.99</ele>
        <time>2018-11-16T09:24:32Z</time>
      </trkpt>
      <trkpt lat="49.10062" lon="-0.39617">
        <ele>40.03</ele>
        <time>2018-11-16T09:24:49Z</time>
      </trkpt>
      <trkpt lat="49.10054" lon="-0.39596">
        <ele>38.59</ele>
        <time>2018-11-16T09:25:04Z</time>
      </trkpt>
      <trkpt lat="49.10051" lon="-0.39588">
        <ele>39.07</ele>
        <time>2018-11-16T09:25:09Z</time>
      </trkpt>
      <trkpt lat="49.10047" lon="-0.39577">
        <ele>38.59</ele>
        <time>2018-11-16T09:25:16Z</time>
      </trkpt>
      <trkpt lat="49.10036" lon="-0.39542">
        <ele>37.63</ele>
        <time>2018-11-16T09:25:35Z</time>
      </trkpt>
      <trkpt lat="49.1003" lon="-0.39515">
        <ele>36.67</ele>
        <time>2018-11-16T09:25:50Z</time>
      </trkpt>
      <trkpt lat="49.10029" lon="-0.39513">
        <ele>36.67</ele>
        <time>2018-11-16T09:25:51Z</time>
      </trkpt>
      <trkpt lat="49.10026" lon="-0.39505">
        <ele>36.19</ele>
        <time>2018-11-16T09:25:56Z</time>
      </trkpt>
      <trkpt lat="49.10017" lon="-0.39472">
        <ele>35.23</ele>
        <time>2018-11-16T09:26:15Z</time>
      </trkpt>
      <trkpt lat="49.10016" lon="-0.39467">
        <ele>35.23</ele>
        <time>2018-11-16T09:26:18Z</time>
      </trkpt>
      <trkpt lat="49.10004" lon="-0.39435">
        <ele>33.78</ele>
        <time>2018-11-16T09:26:36Z</time>
      </trkpt>
      <trkpt lat="49.10001" lon="-0.39419">
        <ele>33.3</ele>
        <time>2018-11-16T09:26:44Z</time>
      </trkpt>
      <trkpt lat="49.09992" lon="-0.39392">
        <ele>31.86</ele>
        <time>2018-11-16T09:27:00Z</time>
      </trkpt>
      <trkpt lat="49.09984" lon="-0.39368">
        <ele>30.42</ele>
        <time>2018-11-16T09:27:15Z</time>
      </trkpt>
      <trkpt lat="49.09976" lon="-0.39341">
        <ele>28.98</ele>
        <time>2018-11-16T09:27:30Z</time>
      </trkpt>
      <trkpt lat="49.09968" lon="-0.3932">
        <ele>26.09</ele>
        <time>2018-11-16T09:27:46Z</time>
      </trkpt>
      <trkpt lat="49.09963" lon="-0.39302">
        <ele>23.69</ele>
        <time>2018-11-16T09:28:02Z</time>
      </trkpt>
      <trkpt lat="49.09957" lon="-0.39282">
        <ele>20.32</ele>
        <time>2018-11-16T09:28:17Z</time>
      </trkpt>
      <trkpt lat="49.09952" lon="-0.39261">
        <ele>18.4</ele>
        <time>2018-11-16T09:28:31Z</time>
      </trkpt>
      <trkpt lat="49.09947" lon="-0.39243">
        <ele>16</ele>
        <time>2018-11-16T09:28:48Z</time>
      </trkpt>
      <trkpt lat="49.09943" lon="-0.39228">
        <ele>14.56</ele>
        <time>2018-11-16T09:29:05Z</time>
      </trkpt>
      <trkpt lat="49.09941" lon="-0.39226">
        <ele>14.56</ele>
        <time>2018-11-16T09:29:33Z</time>
      </trkpt>
      <trkpt lat="49.09947" lon="-0.39221">
        <ele>14.56</ele>
        <time>2018-11-16T09:29:48Z</time>
      </trkpt>
      <trkpt lat="49.09956" lon="-0.3921">
        <ele>16</ele>
        <time>2018-11-16T09:30:00Z</time>
      </trkpt>
      <trkpt lat="49.0997" lon="-0.39198">
        <ele>16.96</ele>
        <time>2018-11-16T09:30:16Z</time>
      </trkpt>
      <trkpt lat="49.0998" lon="-0.39193">
        <ele>17.44</ele>
        <time>2018-11-16T09:30:27Z</time>
      </trkpt>
      <trkpt lat="49.09997" lon="-0.39184">
        <ele>18.88</ele>
        <time>2018-11-16T09:30:42Z</time>
      </trkpt>
      <trkpt lat="49.10005" lon="-0.39182">
        <ele>19.36</ele>
        <time>2018-11-16T09:30:51Z</time>
      </trkpt>
      <trkpt lat="49.10008" lon="-0.39181">
        <ele>19.36</ele>
        <time>2018-11-16T09:30:53Z</time>
      </trkpt>
      <trkpt lat="49.10023" lon="-0.39174">
        <ele>20.32</ele>
        <time>2018-11-16T09:31:07Z</time>
      </trkpt>
      <trkpt lat="49.10038" lon="-0.39168">
        <ele>21.77</ele>
        <time>2018-11-16T09:31:19Z</time>
      </trkpt>
      <trkpt lat="49.10057" lon="-0.39165">
        <ele>23.21</ele>
        <time>2018-11-16T09:31:35Z</time>
      </trkpt>
      <trkpt lat="49.10077" lon="-0.39166">
        <ele>25.13</ele>
        <time>2018-11-16T09:31:50Z</time>
      </trkpt>
      <trkpt lat="49.1009" lon="-0.39188">
        <ele>27.53</ele>
        <time>2018-11-16T09:32:07Z</time>
      </trkpt>
      <trkpt lat="49.101" lon="-0.39211">
        <ele>29.46</ele>
        <time>2018-11-16T09:32:24Z</time>
      </trkpt>
      <trkpt lat="49.10109" lon="-0.39234">
        <ele>30.9</ele>
        <time>2018-11-16T09:32:40Z</time>
      </trkpt>
      <trkpt lat="49.10118" lon="-0.3926">
        <ele>31.86</ele>
        <time>2018-11-16T09:32:57Z</time>
      </trkpt>
      <trkpt lat="49.10124" lon="-0.39289">
        <ele>33.3</ele>
        <time>2018-11-16T09:33:11Z</time>
      </trkpt>
      <trkpt lat="49.1013" lon="-0.39306">
        <ele>33.78</ele>
        <time>2018-11-16T09:33:21Z</time>
      </trkpt>
      <trkpt lat="49.10149" lon="-0.39294">
        <ele>34.26</ele>
        <time>2018-11-16T09:33:39Z</time>
      </trkpt>
      <trkpt lat="49.10165" lon="-0.3928">
        <ele>33.3</ele>
        <time>2018-11-16T09:33:54Z</time>
      </trkpt>
      <trkpt lat="49.10187" lon="-0.39266">
        <ele>33.3</ele>
        <time>2018-11-16T09:34:11Z</time>
      </trkpt>
      <trkpt lat="49.10207" lon="-0.39248">
        <ele>33.3</ele>
        <time>2018-11-16T09:34:28Z</time>
      </trkpt>
      <trkpt lat="49.10213" lon="-0.39215">
        <ele>32.34</ele>
        <time>2018-11-16T09:34:46Z</time>
      </trkpt>
      <trkpt lat="49.10218" lon="-0.39177">
        <ele>31.86</ele>
        <time>2018-11-16T09:35:06Z</time>
      </trkpt>
      <trkpt lat="49.10221" lon="-0.39139">
        <ele>30.9</ele>
        <time>2018-11-16T09:35:26Z</time>
      </trkpt>
      <trkpt lat="49.10224" lon="-0.39105">
        <ele>29.94</ele>
        <time>2018-11-16T09:35:44Z</time>
      </trkpt>
      <trkpt lat="49.10227" lon="-0.39086">
        <ele>28.5</ele>
        <time>2018-11-16T09:35:56Z</time>
      </trkpt>
      <trkpt lat="49.1023" lon="-0.39061">
        <ele>27.53</ele>
        <time>2018-11-16T09:36:10Z</time>
      </trkpt>
      <trkpt lat="49.1023" lon="-0.39034">
        <ele>24.17</ele>
        <time>2018-11-16T09:36:26Z</time>
      </trkpt>
      <trkpt lat="49.10225" lon="-0.39007">
        <ele>21.77</ele>
        <time>2018-11-16T09:36:41Z</time>
      </trkpt>
      <trkpt lat="49.10224" lon="-0.38977">
        <ele>18.88</ele>
        <time>2018-11-16T09:36:57Z</time>
      </trkpt>
      <trkpt lat="49.10223" lon="-0.38952">
        <ele>16</ele>
        <time>2018-11-16T09:37:14Z</time>
      </trkpt>
      <trkpt lat="49.10219" lon="-0.38919">
        <ele>14.08</ele>
        <time>2018-11-16T09:37:30Z</time>
      </trkpt>
      <trkpt lat="49.10213" lon="-0.38882">
        <ele>10.71</ele>
        <time>2018-11-16T09:37:47Z</time>
      </trkpt>
      <trkpt lat="49.10205" lon="-0.38838">
        <ele>8.31</ele>
        <time>2018-11-16T09:38:07Z</time>
      </trkpt>
      <trkpt lat="49.10198" lon="-0.38803">
        <ele>5.91</ele>
        <time>2018-11-16T09:38:25Z</time>
      </trkpt>
      <trkpt lat="49.10191" lon="-0.38772">
        <ele>3.5</ele>
        <time>2018-11-16T09:38:42Z</time>
      </trkpt>
      <trkpt lat="49.10185" lon="-0.38756">
        <ele>2.54</ele>
        <time>2018-11-16T09:38:58Z</time>
      </trkpt>
      <trkpt lat="49.10185" lon="-0.38753">
        <ele>2.54</ele>
        <time>2018-11-16T09:39:12Z</time>
      </trkpt>
      <trkpt lat="49.10184" lon="-0.38741">
        <ele>2.54</ele>
        <time>2018-11-16T09:39:20Z</time>
      </trkpt>
      <trkpt lat="49.10169" lon="-0.38713">
        <ele>2.06</ele>
        <time>2018-11-16T09:39:38Z</time>
      </trkpt>
      <trkpt lat="49.10167" lon="-0.38709">
        <ele>2.06</ele>
        <time>2018-11-16T09:39:55Z</time>
      </trkpt>
      <trkpt lat="49.10162" lon="-0.38697">
        <ele>2.06</ele>
        <time>2018-11-16T09:40:05Z</time>
      </trkpt>
      <trkpt lat="49.10171" lon="-0.38673">
        <ele>2.06</ele>
        <time>2018-11-16T09:40:22Z</time>
      </trkpt>
      <trkpt lat="49.10188" lon="-0.38657">
        <ele>1.58</ele>
        <time>2018-11-16T09:40:39Z</time>
      </trkpt>
      <trkpt lat="49.10207" lon="-0.3864">
        <ele>1.58</ele>
        <time>2018-11-16T09:40:55Z</time>
      </trkpt>
      <trkpt lat="49.10211" lon="-0.38636">
        <ele>1.58</ele>
        <time>2018-11-16T09:40:59Z</time>
      </trkpt>
      <trkpt lat="49.10217" lon="-0.38631">
        <ele>1.58</ele>
        <time>2018-11-16T09:41:04Z</time>
      </trkpt>
      <trkpt lat="49.10235" lon="-0.38615">
        <ele>1.58</ele>
        <time>2018-11-16T09:41:19Z</time>
      </trkpt>
      <trkpt lat="49.10251" lon="-0.38601">
        <ele>1.58</ele>
        <time>2018-11-16T09:41:33Z</time>
      </trkpt>
      <trkpt lat="49.1027" lon="-0.38588">
        <ele>1.58</ele>
        <time>2018-11-16T09:41:48Z</time>
      </trkpt>
      <trkpt lat="49.10292" lon="-0.38572">
        <ele>2.06</ele>
        <time>2018-11-16T09:42:06Z</time>
      </trkpt>
      <trkpt lat="49.10313" lon="-0.3856">
        <ele>2.06</ele>
        <time>2018-11-16T09:42:23Z</time>
      </trkpt>
      <trkpt lat="49.10332" lon="-0.3855">
        <ele>2.06</ele>
        <time>2018-11-16T09:42:39Z</time>
      </trkpt>
      <trkpt lat="49.10358" lon="-0.38538">
        <ele>2.06</ele>
        <time>2018-11-16T09:42:57Z</time>
      </trkpt>
      <trkpt lat="49.10383" lon="-0.38528">
        <ele>1.58</ele>
        <time>2018-11-16T09:43:15Z</time>
      </trkpt>
      <trkpt lat="49.10404" lon="-0.38505">
        <ele>1.58</ele>
        <time>2018-11-16T09:43:33Z</time>
      </trkpt>
      <trkpt lat="49.1042" lon="-0.38484">
        <ele>1.58</ele>
        <time>2018-11-16T09:43:50Z</time>
      </trkpt>
      <trkpt lat="49.1044" lon="-0.3847">
        <ele>1.58</ele>
        <time>2018-11-16T09:44:06Z</time>
      </trkpt>
      <trkpt lat="49.10455" lon="-0.38467">
        <ele>1.58</ele>
        <time>2018-11-16T09:44:17Z</time>
      </trkpt>
      <trkpt lat="49.10466" lon="-0.3847">
        <ele>1.58</ele>
        <time>2018-11-16T09:44:25Z</time>
      </trkpt>
      <trkpt lat="49.10484" lon="-0.3847">
        <ele>1.58</ele>
        <time>2018-11-16T09:44:40Z</time>
      </trkpt>
      <trkpt lat="49.10501" lon="-0.38464">
        <ele>1.58</ele>
        <time>2018-11-16T09:44:54Z</time>
      </trkpt>
      <trkpt lat="49.10508" lon="-0.38463">
        <ele>1.58</ele>
        <time>2018-11-16T09:44:59Z</time>
      </trkpt>
      <trkpt lat="49.10522" lon="-0.38462">
        <ele>1.58</ele>
        <time>2018-11-16T09:45:10Z</time>
      </trkpt>
      <trkpt lat="49.10548" lon="-0.38471">
        <ele>1.58</ele>
        <time>2018-11-16T09:45:29Z</time>
      </trkpt>
      <trkpt lat="49.10567" lon="-0.38476">
        <ele>1.58</ele>
        <time>2018-11-16T09:45:44Z</time>
      </trkpt>
      <trkpt lat="49.10574" lon="-0.38477">
        <ele>1.58</ele>
        <time>2018-11-16T09:45:50Z</time>
      </trkpt>
      <trkpt lat="49.10598" lon="-0.38477">
        <ele>1.58</ele>
        <time>2018-11-16T09:46:08Z</time>
      </trkpt>
      <trkpt lat="49.10618" lon="-0.38486">
        <ele>1.58</ele>
        <time>2018-11-16T09:46:24Z</time>
      </trkpt>
      <trkpt lat="49.10641" lon="-0.38495">
        <ele>1.58</ele>
        <time>2018-11-16T09:46:41Z</time>
      </trkpt>
      <trkpt lat="49.10653" lon="-0.38495">
        <ele>2.06</ele>
        <time>2018-11-16T09:46:53Z</time>
      </trkpt>
      <trkpt lat="49.10655" lon="-0.38495">
        <ele>2.06</ele>
        <time>2018-11-16T09:46:55Z</time>
      </trkpt>
      <trkpt lat="49.10664" lon="-0.38499">
        <ele>1.58</ele>
        <time>2018-11-16T09:47:10Z</time>
      </trkpt>
      <trkpt lat="49.10665" lon="-0.38489">
        <ele>1.58</ele>
        <time>2018-11-16T09:47:48Z</time>
      </trkpt>
      <trkpt lat="49.10663" lon="-0.3849">
        <ele>1.58</ele>
        <time>2018-11-16T09:48:31Z</time>
      </trkpt>
      <trkpt lat="49.10665" lon="-0.38489">
        <ele>1.58</ele>
        <time>2018-11-16T09:49:09Z</time>
      </trkpt>
      <trkpt lat="49.10664" lon="-0.38486">
        <ele>1.58</ele>
        <time>2018-11-16T09:49:55Z</time>
      </trkpt>
      <trkpt lat="49.10666" lon="-0.38491">
        <ele>2.06</ele>
        <time>2018-11-16T09:50:27Z</time>
      </trkpt>
      <trkpt lat="49.10666" lon="-0.38492">
        <ele>2.06</ele>
        <time>2018-11-16T09:51:20Z</time>
      </trkpt>
      <trkpt lat="49.10664" lon="-0.38489">
        <ele>2.06</ele>
        <time>2018-11-16T09:52:04Z</time>
      </trkpt>
      <trkpt lat="49.10665" lon="-0.38489">
        <ele>2.06</ele>
        <time>2018-11-16T09:52:42Z</time>
      </trkpt>
      <trkpt lat="49.10664" lon="-0.38495">
        <ele>2.54</ele>
        <time>2018-11-16T09:53:19Z</time>
      </trkpt>
      <trkpt lat="49.10664" lon="-0.38497">
        <ele>2.54</ele>
        <time>2018-11-16T09:53:57Z</time>
      </trkpt>
      <trkpt lat="49.10663" lon="-0.38497">
        <ele>2.54</ele>
        <time>2018-11-16T09:54:17Z</time>
      </trkpt>
      <trkpt lat="49.1066" lon="-0.38493">
        <ele>2.54</ele>
        <time>2018-11-16T09:54:34Z</time>
      </trkpt>
      <trkpt lat="49.1066" lon="-0.38492">
        <ele>2.54</ele>
        <time>2018-11-16T09:54:35Z</time>
      </trkpt>
      <trkpt lat="49.10646" lon="-0.38458">
        <ele>2.54</ele>
        <time>2018-11-16T09:54:55Z</time>
      </trkpt>
      <trkpt lat="49.10632" lon="-0.38427">
        <ele>3.98</ele>
        <time>2018-11-16T09:55:13Z</time>
      </trkpt>
      <trkpt lat="49.10619" lon="-0.38395">
        <ele>3.98</ele>
        <time>2018-11-16T09:55:31Z</time>
      </trkpt>
      <trkpt lat="49.10609" lon="-0.3837">
        <ele>4.46</ele>
        <time>2018-11-16T09:55:47Z</time>
      </trkpt>
      <trkpt lat="49.10605" lon="-0.3836">
        <ele>4.46</ele>
        <time>2018-11-16T09:55:53Z</time>
      </trkpt>
      <trkpt lat="49.10595" lon="-0.38353">
        <ele>4.94</ele>
        <time>2018-11-16T09:56:01Z</time>
      </trkpt>
      <trkpt lat="49.10574" lon="-0.38358">
        <ele>4.94</ele>
        <time>2018-11-16T09:56:18Z</time>
      </trkpt>
      <trkpt lat="49.10561" lon="-0.38364">
        <ele>4.94</ele>
        <time>2018-11-16T09:56:28Z</time>
      </trkpt>
      <trkpt lat="49.10559" lon="-0.38365">
        <ele>4.94</ele>
        <time>2018-11-16T09:56:30Z</time>
      </trkpt>
      <trkpt lat="49.10554" lon="-0.38367">
        <ele>4.94</ele>
        <time>2018-11-16T09:56:34Z</time>
      </trkpt>
      <trkpt lat="49.10531" lon="-0.38367">
        <ele>5.42</ele>
        <time>2018-11-16T09:56:50Z</time>
      </trkpt>
      <trkpt lat="49.10513" lon="-0.38366">
        <ele>5.42</ele>
        <time>2018-11-16T09:57:04Z</time>
      </trkpt>
      <trkpt lat="49.10511" lon="-0.38366">
        <ele>5.42</ele>
        <time>2018-11-16T09:57:06Z</time>
      </trkpt>
      <trkpt lat="49.105" lon="-0.38368">
        <ele>5.42</ele>
        <time>2018-11-16T09:57:14Z</time>
      </trkpt>
      <trkpt lat="49.10478" lon="-0.38368">
        <ele>5.42</ele>
        <time>2018-11-16T09:57:32Z</time>
      </trkpt>
      <trkpt lat="49.10463" lon="-0.38368">
        <ele>5.42</ele>
        <time>2018-11-16T09:57:44Z</time>
      </trkpt>
      <trkpt lat="49.1044" lon="-0.3836">
        <ele>5.42</ele>
        <time>2018-11-16T09:57:58Z</time>
      </trkpt>
      <trkpt lat="49.10431" lon="-0.38359">
        <ele>5.42</ele>
        <time>2018-11-16T09:58:07Z</time>
      </trkpt>
      <trkpt lat="49.10409" lon="-0.38355">
        <ele>5.42</ele>
        <time>2018-11-16T09:58:25Z</time>
      </trkpt>
      <trkpt lat="49.10388" lon="-0.3835">
        <ele>5.42</ele>
        <time>2018-11-16T09:58:41Z</time>
      </trkpt>
      <trkpt lat="49.10368" lon="-0.38346">
        <ele>3.5</ele>
        <time>2018-11-16T09:58:58Z</time>
      </trkpt>
      <trkpt lat="49.10351" lon="-0.38344">
        <ele>3.02</ele>
        <time>2018-11-16T09:59:12Z</time>
      </trkpt>
      <trkpt lat="49.10332" lon="-0.38341">
        <ele>2.54</ele>
        <time>2018-11-16T09:59:27Z</time>
      </trkpt>
      <trkpt lat="49.10315" lon="-0.38344">
        <ele>2.54</ele>
        <time>2018-11-16T09:59:41Z</time>
      </trkpt>
      <trkpt lat="49.10296" lon="-0.38354">
        <ele>2.06</ele>
        <time>2018-11-16T09:59:55Z</time>
      </trkpt>
      <trkpt lat="49.10289" lon="-0.38355">
        <ele>2.06</ele>
        <time>2018-11-16T10:00:03Z</time>
      </trkpt>
      <trkpt lat="49.10266" lon="-0.38373">
        <ele>2.06</ele>
        <time>2018-11-16T10:00:20Z</time>
      </trkpt>
      <trkpt lat="49.10259" lon="-0.38381">
        <ele>2.06</ele>
        <time>2018-11-16T10:00:27Z</time>
      </trkpt>
      <trkpt lat="49.1025" lon="-0.38392">
        <ele>2.06</ele>
        <time>2018-11-16T10:00:35Z</time>
      </trkpt>
      <trkpt lat="49.10236" lon="-0.38415">
        <ele>3.02</ele>
        <time>2018-11-16T10:00:50Z</time>
      </trkpt>
      <trkpt lat="49.10224" lon="-0.38433">
        <ele>3.5</ele>
        <time>2018-11-16T10:01:05Z</time>
      </trkpt>
      <trkpt lat="49.10212" lon="-0.38454">
        <ele>3.02</ele>
        <time>2018-11-16T10:01:19Z</time>
      </trkpt>
      <trkpt lat="49.10202" lon="-0.38475">
        <ele>3.02</ele>
        <time>2018-11-16T10:01:33Z</time>
      </trkpt>
      <trkpt lat="49.10185" lon="-0.38505">
        <ele>3.02</ele>
        <time>2018-11-16T10:01:51Z</time>
      </trkpt>
      <trkpt lat="49.10169" lon="-0.38532">
        <ele>3.02</ele>
        <time>2018-11-16T10:02:07Z</time>
      </trkpt>
      <trkpt lat="49.1015" lon="-0.38556">
        <ele>3.02</ele>
        <time>2018-11-16T10:02:23Z</time>
      </trkpt>
      <trkpt lat="49.10146" lon="-0.38562">
        <ele>3.02</ele>
        <time>2018-11-16T10:02:27Z</time>
      </trkpt>
      <trkpt lat="49.10129" lon="-0.38581">
        <ele>3.02</ele>
        <time>2018-11-16T10:02:41Z</time>
      </trkpt>
      <trkpt lat="49.10113" lon="-0.38595">
        <ele>3.02</ele>
        <time>2018-11-16T10:02:54Z</time>
      </trkpt>
      <trkpt lat="49.10099" lon="-0.38611">
        <ele>3.02</ele>
        <time>2018-11-16T10:03:09Z</time>
      </trkpt>
      <trkpt lat="49.10088" lon="-0.38626">
        <ele>1.58</ele>
        <time>2018-11-16T10:03:22Z</time>
      </trkpt>
      <trkpt lat="49.1008" lon="-0.3864">
        <ele>1.58</ele>
        <time>2018-11-16T10:03:39Z</time>
      </trkpt>
      <trkpt lat="49.10059" lon="-0.38663">
        <ele>0.62</ele>
        <time>2018-11-16T10:03:56Z</time>
      </trkpt>
      <trkpt lat="49.10053" lon="-0.38666">
        <ele>0.62</ele>
        <time>2018-11-16T10:04:01Z</time>
      </trkpt>
      <trkpt lat="49.10048" lon="-0.38666">
        <ele>0.62</ele>
        <time>2018-11-16T10:04:16Z</time>
      </trkpt>
      <trkpt lat="49.10038" lon="-0.38675">
        <ele>0.62</ele>
        <time>2018-11-16T10:04:25Z</time>
      </trkpt>
      <trkpt lat="49.10029" lon="-0.38695">
        <ele>0.14</ele>
        <time>2018-11-16T10:04:38Z</time>
      </trkpt>
      <trkpt lat="49.10024" lon="-0.38701">
        <ele>0.14</ele>
        <time>2018-11-16T10:04:42Z</time>
      </trkpt>
      <trkpt lat="49.10017" lon="-0.38714">
        <ele>0.14</ele>
        <time>2018-11-16T10:04:50Z</time>
      </trkpt>
      <trkpt lat="49.10005" lon="-0.38739">
        <ele>0.62</ele>
        <time>2018-11-16T10:05:07Z</time>
      </trkpt>
      <trkpt lat="49.09993" lon="-0.38753">
        <ele>0.62</ele>
        <time>2018-11-16T10:05:21Z</time>
      </trkpt>
      <trkpt lat="49.09991" lon="-0.38755">
        <ele>0.62</ele>
        <time>2018-11-16T10:05:23Z</time>
      </trkpt>
      <trkpt lat="49.09972" lon="-0.38776">
        <ele>0.62</ele>
        <time>2018-11-16T10:05:38Z</time>
      </trkpt>
      <trkpt lat="49.09955" lon="-0.38798">
        <ele>0.62</ele>
        <time>2018-11-16T10:05:54Z</time>
      </trkpt>
      <trkpt lat="49.09939" lon="-0.38815">
        <ele>0.14</ele>
        <time>2018-11-16T10:06:08Z</time>
      </trkpt>
      <trkpt lat="49.09932" lon="-0.38827">
        <ele>0.14</ele>
        <time>2018-11-16T10:06:21Z</time>
      </trkpt>
      <trkpt lat="49.0992" lon="-0.38841">
        <ele>0.14</ele>
        <time>2018-11-16T10:06:35Z</time>
      </trkpt>
      <trkpt lat="49.09913" lon="-0.38847">
        <ele>0.14</ele>
        <time>2018-11-16T10:06:48Z</time>
      </trkpt>
      <trkpt lat="49.09902" lon="-0.3886">
        <ele>0.14</ele>
        <time>2018-11-16T10:07:03Z</time>
      </trkpt>
      <trkpt lat="49.09891" lon="-0.38871">
        <ele>0.14</ele>
        <time>2018-11-16T10:07:15Z</time>
      </trkpt>
      <trkpt lat="49.09879" lon="-0.38885">
        <ele>0.14</ele>
        <time>2018-11-16T10:07:30Z</time>
      </trkpt>
      <trkpt lat="49.09869" lon="-0.38901">
        <ele>0.14</ele>
        <time>2018-11-16T10:07:42Z</time>
      </trkpt>
      <trkpt lat="49.09862" lon="-0.38912">
        <ele>0.14</ele>
        <time>2018-11-16T10:07:51Z</time>
      </trkpt>
      <trkpt lat="49.09851" lon="-0.38937">
        <ele>0.14</ele>
        <time>2018-11-16T10:08:06Z</time>
      </trkpt>
      <trkpt lat="49.0984" lon="-0.3896">
        <ele>0.14</ele>
        <time>2018-11-16T10:08:22Z</time>
      </trkpt>
      <trkpt lat="49.09839" lon="-0.38962">
        <ele>0.14</ele>
        <time>2018-11-16T10:08:24Z</time>
      </trkpt>
      <trkpt lat="49.09833" lon="-0.38971">
        <ele>0.14</ele>
        <time>2018-11-16T10:08:31Z</time>
      </trkpt>
      <trkpt lat="49.0982" lon="-0.38986">
        <ele>0.14</ele>
        <time>2018-11-16T10:08:46Z</time>
      </trkpt>
      <trkpt lat="49.09807" lon="-0.39003">
        <ele>0.14</ele>
        <time>2018-11-16T10:09:01Z</time>
      </trkpt>
      <trkpt lat="49.09792" lon="-0.39019">
        <ele>0.14</ele>
        <time>2018-11-16T10:09:16Z</time>
      </trkpt>
      <trkpt lat="49.09778" lon="-0.39039">
        <ele>0.14</ele>
        <time>2018-11-16T10:09:30Z</time>
      </trkpt>
      <trkpt lat="49.0977" lon="-0.39056">
        <ele>0.14</ele>
        <time>2018-11-16T10:09:43Z</time>
      </trkpt>
      <trkpt lat="49.09768" lon="-0.39058">
        <ele>0.14</ele>
        <time>2018-11-16T10:09:45Z</time>
      </trkpt>
      <trkpt lat="49.09763" lon="-0.39068">
        <ele>1.1</ele>
        <time>2018-11-16T10:09:52Z</time>
      </trkpt>
      <trkpt lat="49.09749" lon="-0.39095">
        <ele>1.1</ele>
        <time>2018-11-16T10:10:09Z</time>
      </trkpt>
      <trkpt lat="49.09738" lon="-0.39111">
        <ele>1.1</ele>
        <time>2018-11-16T10:10:21Z</time>
      </trkpt>
      <trkpt lat="49.09722" lon="-0.39131">
        <ele>1.1</ele>
        <time>2018-11-16T10:10:37Z</time>
      </trkpt>
      <trkpt lat="49.0972" lon="-0.39137">
        <ele>1.1</ele>
        <time>2018-11-16T10:10:54Z</time>
      </trkpt>
      <trkpt lat="49.09718" lon="-0.39142">
        <ele>1.1</ele>
        <time>2018-11-16T10:11:10Z</time>
      </trkpt>
      <trkpt lat="49.09699" lon="-0.39154">
        <ele>1.1</ele>
        <time>2018-11-16T10:11:26Z</time>
      </trkpt>
      <trkpt lat="49.09692" lon="-0.39157">
        <ele>1.1</ele>
        <time>2018-11-16T10:11:34Z</time>
      </trkpt>
      <trkpt lat="49.09677" lon="-0.39157">
        <ele>1.58</ele>
        <time>2018-11-16T10:11:47Z</time>
      </trkpt>
      <trkpt lat="49.0967" lon="-0.39159">
        <ele>1.58</ele>
        <time>2018-11-16T10:11:54Z</time>
      </trkpt>
      <trkpt lat="49.09666" lon="-0.3916">
        <ele>1.58</ele>
        <time>2018-11-16T10:11:57Z</time>
      </trkpt>
      <trkpt lat="49.09654" lon="-0.39164">
        <ele>1.58</ele>
        <time>2018-11-16T10:12:07Z</time>
      </trkpt>
      <trkpt lat="49.09642" lon="-0.39165">
        <ele>1.58</ele>
        <time>2018-11-16T10:12:17Z</time>
      </trkpt>
      <trkpt lat="49.09624" lon="-0.3917">
        <ele>1.58</ele>
        <time>2018-11-16T10:12:31Z</time>
      </trkpt>
      <trkpt lat="49.09608" lon="-0.3917">
        <ele>1.58</ele>
        <time>2018-11-16T10:12:43Z</time>
      </trkpt>
      <trkpt lat="49.09591" lon="-0.39175">
        <ele>1.58</ele>
        <time>2018-11-16T10:12:56Z</time>
      </trkpt>
      <trkpt lat="49.09584" lon="-0.39176">
        <ele>1.58</ele>
        <time>2018-11-16T10:13:01Z</time>
      </trkpt>
      <trkpt lat="49.09563" lon="-0.39166">
        <ele>2.06</ele>
        <time>2018-11-16T10:13:19Z</time>
      </trkpt>
      <trkpt lat="49.09539" lon="-0.39154">
        <ele>2.06</ele>
        <time>2018-11-16T10:13:37Z</time>
      </trkpt>
      <trkpt lat="49.09521" lon="-0.39145">
        <ele>2.54</ele>
        <time>2018-11-16T10:13:51Z</time>
      </trkpt>
      <trkpt lat="49.09502" lon="-0.39136">
        <ele>2.54</ele>
        <time>2018-11-16T10:14:07Z</time>
      </trkpt>
      <trkpt lat="49.09482" lon="-0.39124">
        <ele>3.02</ele>
        <time>2018-11-16T10:14:24Z</time>
      </trkpt>
      <trkpt lat="49.09475" lon="-0.3912">
        <ele>3.02</ele>
        <time>2018-11-16T10:14:30Z</time>
      </trkpt>
      <trkpt lat="49.09458" lon="-0.39112">
        <ele>3.5</ele>
        <time>2018-11-16T10:14:45Z</time>
      </trkpt>
      <trkpt lat="49.09438" lon="-0.39108">
        <ele>3.02</ele>
        <time>2018-11-16T10:15:00Z</time>
      </trkpt>
      <trkpt lat="49.09412" lon="-0.39107">
        <ele>3.5</ele>
        <time>2018-11-16T10:15:18Z</time>
      </trkpt>
      <trkpt lat="49.09401" lon="-0.39109">
        <ele>4.46</ele>
        <time>2018-11-16T10:15:30Z</time>
      </trkpt>
      <trkpt lat="49.09383" lon="-0.3911">
        <ele>4.46</ele>
        <time>2018-11-16T10:15:46Z</time>
      </trkpt>
      <trkpt lat="49.09382" lon="-0.3911">
        <ele>4.94</ele>
        <time>2018-11-16T10:15:47Z</time>
      </trkpt>
      <trkpt lat="49.09362" lon="-0.39102">
        <ele>6.39</ele>
        <time>2018-11-16T10:16:05Z</time>
      </trkpt>
      <trkpt lat="49.09349" lon="-0.39093">
        <ele>7.83</ele>
        <time>2018-11-16T10:16:18Z</time>
      </trkpt>
      <trkpt lat="49.09343" lon="-0.39096">
        <ele>7.83</ele>
        <time>2018-11-16T10:16:23Z</time>
      </trkpt>
      <trkpt lat="49.09324" lon="-0.39106">
        <ele>6.87</ele>
        <time>2018-11-16T10:16:39Z</time>
      </trkpt>
      <trkpt lat="49.09314" lon="-0.39125">
        <ele>5.91</ele>
        <time>2018-11-16T10:16:53Z</time>
      </trkpt>
      <trkpt lat="49.09304" lon="-0.39144">
        <ele>4.94</ele>
        <time>2018-11-16T10:17:07Z</time>
      </trkpt>
      <trkpt lat="49.09287" lon="-0.39165">
        <ele>3.98</ele>
        <time>2018-11-16T10:17:27Z</time>
      </trkpt>
      <trkpt lat="49.09286" lon="-0.39167">
        <ele>3.98</ele>
        <time>2018-11-16T10:17:45Z</time>
      </trkpt>
      <trkpt lat="49.09282" lon="-0.39171">
        <ele>3.98</ele>
        <time>2018-11-16T10:17:53Z</time>
      </trkpt>
      <trkpt lat="49.09261" lon="-0.39183">
        <ele>3.98</ele>
        <time>2018-11-16T10:18:12Z</time>
      </trkpt>
      <trkpt lat="49.09243" lon="-0.39196">
        <ele>3.5</ele>
        <time>2018-11-16T10:18:30Z</time>
      </trkpt>
      <trkpt lat="49.09222" lon="-0.39213">
        <ele>3.5</ele>
        <time>2018-11-16T10:18:46Z</time>
      </trkpt>
      <trkpt lat="49.09204" lon="-0.39224">
        <ele>3.5</ele>
        <time>2018-11-16T10:19:01Z</time>
      </trkpt>
      <trkpt lat="49.09201" lon="-0.39226">
        <ele>3.5</ele>
        <time>2018-11-16T10:19:03Z</time>
      </trkpt>
      <trkpt lat="49.09183" lon="-0.39235">
        <ele>3.98</ele>
        <time>2018-11-16T10:19:18Z</time>
      </trkpt>
      <trkpt lat="49.09165" lon="-0.39245">
        <ele>4.46</ele>
        <time>2018-11-16T10:19:35Z</time>
      </trkpt>
      <trkpt lat="49.09145" lon="-0.39252">
        <ele>5.42</ele>
        <time>2018-11-16T10:19:53Z</time>
      </trkpt>
      <trkpt lat="49.09126" lon="-0.3926">
        <ele>5.42</ele>
        <time>2018-11-16T10:20:08Z</time>
      </trkpt>
      <trkpt lat="49.09121" lon="-0.39261">
        <ele>5.42</ele>
        <time>2018-11-16T10:20:23Z</time>
      </trkpt>
      <trkpt lat="49.09107" lon="-0.3926">
        <ele>5.91</ele>
        <time>2018-11-16T10:20:37Z</time>
      </trkpt>
      <trkpt lat="49.09087" lon="-0.39265">
        <ele>5.91</ele>
        <time>2018-11-16T10:20:53Z</time>
      </trkpt>
      <trkpt lat="49.09083" lon="-0.39264">
        <ele>5.91</ele>
        <time>2018-11-16T10:20:57Z</time>
      </trkpt>
      <trkpt lat="49.09076" lon="-0.39263">
        <ele>5.91</ele>
        <time>2018-11-16T10:21:04Z</time>
      </trkpt>
      <trkpt lat="49.09059" lon="-0.39256">
        <ele>6.87</ele>
        <time>2018-11-16T10:21:19Z</time>
      </trkpt>
      <trkpt lat="49.09057" lon="-0.39256">
        <ele>6.87</ele>
        <time>2018-11-16T10:21:21Z</time>
      </trkpt>
      <trkpt lat="49.09047" lon="-0.39255">
        <ele>8.31</ele>
        <time>2018-11-16T10:21:34Z</time>
      </trkpt>
      <trkpt lat="49.09042" lon="-0.39256">
        <ele>8.31</ele>
        <time>2018-11-16T10:21:38Z</time>
      </trkpt>
      <trkpt lat="49.0904" lon="-0.39257">
        <ele>8.31</ele>
        <time>2018-11-16T10:21:40Z</time>
      </trkpt>
      <trkpt lat="49.0903" lon="-0.39258">
        <ele>8.31</ele>
        <time>2018-11-16T10:21:47Z</time>
      </trkpt>
      <trkpt lat="49.09013" lon="-0.39256">
        <ele>8.31</ele>
        <time>2018-11-16T10:22:02Z</time>
      </trkpt>
      <trkpt lat="49.08999" lon="-0.3925">
        <ele>8.31</ele>
        <time>2018-11-16T10:22:12Z</time>
      </trkpt>
      <trkpt lat="49.08991" lon="-0.39243">
        <ele>8.31</ele>
        <time>2018-11-16T10:22:20Z</time>
      </trkpt>
      <trkpt lat="49.08982" lon="-0.39231">
        <ele>8.31</ele>
        <time>2018-11-16T10:22:30Z</time>
      </trkpt>
      <trkpt lat="49.08971" lon="-0.39217">
        <ele>8.31</ele>
        <time>2018-11-16T10:22:43Z</time>
      </trkpt>
      <trkpt lat="49.08955" lon="-0.39196">
        <ele>8.31</ele>
        <time>2018-11-16T10:22:58Z</time>
      </trkpt>
      <trkpt lat="49.08938" lon="-0.39174">
        <ele>7.83</ele>
        <time>2018-11-16T10:23:15Z</time>
      </trkpt>
      <trkpt lat="49.08919" lon="-0.39154">
        <ele>7.83</ele>
        <time>2018-11-16T10:23:33Z</time>
      </trkpt>
      <trkpt lat="49.08903" lon="-0.39136">
        <ele>7.83</ele>
        <time>2018-11-16T10:23:49Z</time>
      </trkpt>
      <trkpt lat="49.08889" lon="-0.39119">
        <ele>6.87</ele>
        <time>2018-11-16T10:24:05Z</time>
      </trkpt>
      <trkpt lat="49.08876" lon="-0.39103">
        <ele>6.39</ele>
        <time>2018-11-16T10:24:18Z</time>
      </trkpt>
      <trkpt lat="49.08873" lon="-0.39099">
        <ele>6.39</ele>
        <time>2018-11-16T10:24:21Z</time>
      </trkpt>
      <trkpt lat="49.08858" lon="-0.39067">
        <ele>6.39</ele>
        <time>2018-11-16T10:24:39Z</time>
      </trkpt>
      <trkpt lat="49.08848" lon="-0.39037">
        <ele>6.39</ele>
        <time>2018-11-16T10:24:55Z</time>
      </trkpt>
      <trkpt lat="49.08838" lon="-0.39011">
        <ele>5.91</ele>
        <time>2018-11-16T10:25:10Z</time>
      </trkpt>
      <trkpt lat="49.08825" lon="-0.38974">
        <ele>5.91</ele>
        <time>2018-11-16T10:25:29Z</time>
      </trkpt>
      <trkpt lat="49.08818" lon="-0.38936">
        <ele>5.91</ele>
        <time>2018-11-16T10:25:46Z</time>
      </trkpt>
      <trkpt lat="49.08815" lon="-0.38902">
        <ele>5.91</ele>
        <time>2018-11-16T10:26:04Z</time>
      </trkpt>
      <trkpt lat="49.08816" lon="-0.38886">
        <ele>5.91</ele>
        <time>2018-11-16T10:26:13Z</time>
      </trkpt>
      <trkpt lat="49.08816" lon="-0.38854">
        <ele>5.91</ele>
        <time>2018-11-16T10:26:30Z</time>
      </trkpt>
      <trkpt lat="49.08818" lon="-0.3884">
        <ele>5.91</ele>
        <time>2018-11-16T10:26:47Z</time>
      </trkpt>
      <trkpt lat="49.08815" lon="-0.3884">
        <ele>5.91</ele>
        <time>2018-11-16T10:27:02Z</time>
      </trkpt>
      <trkpt lat="49.08812" lon="-0.38834">
        <ele>5.91</ele>
        <time>2018-11-16T10:27:27Z</time>
      </trkpt>
      <trkpt lat="49.08811" lon="-0.38836">
        <ele>5.91</ele>
        <time>2018-11-16T10:27:52Z</time>
      </trkpt>
      <trkpt lat="49.08813" lon="-0.38824">
        <ele>6.39</ele>
        <time>2018-11-16T10:28:14Z</time>
      </trkpt>
      <trkpt lat="49.08814" lon="-0.38807">
        <ele>6.39</ele>
        <time>2018-11-16T10:28:26Z</time>
      </trkpt>
      <trkpt lat="49.08811" lon="-0.38784">
        <ele>7.35</ele>
        <time>2018-11-16T10:28:39Z</time>
      </trkpt>
      <trkpt lat="49.08809" lon="-0.3877">
        <ele>7.35</ele>
        <time>2018-11-16T10:28:46Z</time>
      </trkpt>
      <trkpt lat="49.08802" lon="-0.38742">
        <ele>7.83</ele>
        <time>2018-11-16T10:29:01Z</time>
      </trkpt>
      <trkpt lat="49.08793" lon="-0.38718">
        <ele>7.83</ele>
        <time>2018-11-16T10:29:16Z</time>
      </trkpt>
      <trkpt lat="49.08778" lon="-0.38688">
        <ele>7.83</ele>
        <time>2018-11-16T10:29:33Z</time>
      </trkpt>
      <trkpt lat="49.08764" lon="-0.38667">
        <ele>7.35</ele>
        <time>2018-11-16T10:29:48Z</time>
      </trkpt>
      <trkpt lat="49.08749" lon="-0.38642">
        <ele>7.35</ele>
        <time>2018-11-16T10:30:04Z</time>
      </trkpt>
      <trkpt lat="49.08738" lon="-0.38616">
        <ele>7.35</ele>
        <time>2018-11-16T10:30:20Z</time>
      </trkpt>
      <trkpt lat="49.08733" lon="-0.38608">
        <ele>7.83</ele>
        <time>2018-11-16T10:30:27Z</time>
      </trkpt>
      <trkpt lat="49.08716" lon="-0.38586">
        <ele>9.27</ele>
        <time>2018-11-16T10:30:45Z</time>
      </trkpt>
      <trkpt lat="49.08691" lon="-0.38554">
        <ele>10.23</ele>
        <time>2018-11-16T10:31:05Z</time>
      </trkpt>
      <trkpt lat="49.08688" lon="-0.38551">
        <ele>10.23</ele>
        <time>2018-11-16T10:31:08Z</time>
      </trkpt>
      <trkpt lat="49.08666" lon="-0.3853">
        <ele>10.23</ele>
        <time>2018-11-16T10:31:29Z</time>
      </trkpt>
      <trkpt lat="49.08648" lon="-0.3851">
        <ele>10.23</ele>
        <time>2018-11-16T10:31:46Z</time>
      </trkpt>
      <trkpt lat="49.0863" lon="-0.38491">
        <ele>8.79</ele>
        <time>2018-11-16T10:32:03Z</time>
      </trkpt>
      <trkpt lat="49.08626" lon="-0.38485">
        <ele>8.79</ele>
        <time>2018-11-16T10:32:08Z</time>
      </trkpt>
      <trkpt lat="49.08609" lon="-0.38465">
        <ele>8.79</ele>
        <time>2018-11-16T10:32:24Z</time>
      </trkpt>
      <trkpt lat="49.08592" lon="-0.38437">
        <ele>8.79</ele>
        <time>2018-11-16T10:32:43Z</time>
      </trkpt>
      <trkpt lat="49.0858" lon="-0.38405">
        <ele>8.79</ele>
        <time>2018-11-16T10:33:02Z</time>
      </trkpt>
      <trkpt lat="49.08574" lon="-0.38368">
        <ele>8.79</ele>
        <time>2018-11-16T10:33:21Z</time>
      </trkpt>
      <trkpt lat="49.08574" lon="-0.38347">
        <ele>8.79</ele>
        <time>2018-11-16T10:33:31Z</time>
      </trkpt>
      <trkpt lat="49.08579" lon="-0.38312">
        <ele>8.79</ele>
        <time>2018-11-16T10:33:48Z</time>
      </trkpt>
      <trkpt lat="49.08584" lon="-0.38288">
        <ele>8.79</ele>
        <time>2018-11-16T10:34:00Z</time>
      </trkpt>
      <trkpt lat="49.0859" lon="-0.38258">
        <ele>8.31</ele>
        <time>2018-11-16T10:34:17Z</time>
      </trkpt>
      <trkpt lat="49.08595" lon="-0.38236">
        <ele>8.31</ele>
        <time>2018-11-16T10:34:27Z</time>
      </trkpt>
      <trkpt lat="49.08603" lon="-0.38207">
        <ele>8.31</ele>
        <time>2018-11-16T10:34:43Z</time>
      </trkpt>
      <trkpt lat="49.0861" lon="-0.38186">
        <ele>8.31</ele>
        <time>2018-11-16T10:34:58Z</time>
      </trkpt>
      <trkpt lat="49.08614" lon="-0.38169">
        <ele>8.31</ele>
        <time>2018-11-16T10:35:06Z</time>
      </trkpt>
      <trkpt lat="49.08619" lon="-0.38133">
        <ele>9.27</ele>
        <time>2018-11-16T10:35:24Z</time>
      </trkpt>
      <trkpt lat="49.08625" lon="-0.38102">
        <ele>9.27</ele>
        <time>2018-11-16T10:35:38Z</time>
      </trkpt>
      <trkpt lat="49.08632" lon="-0.38064">
        <ele>9.75</ele>
        <time>2018-11-16T10:35:56Z</time>
      </trkpt>
      <trkpt lat="49.08637" lon="-0.38031">
        <ele>10.23</ele>
        <time>2018-11-16T10:36:13Z</time>
      </trkpt>
      <trkpt lat="49.08638" lon="-0.38">
        <ele>10.23</ele>
        <time>2018-11-16T10:36:30Z</time>
      </trkpt>
      <trkpt lat="49.08638" lon="-0.37998">
        <ele>10.23</ele>
        <time>2018-11-16T10:36:31Z</time>
      </trkpt>
      <trkpt lat="49.08634" lon="-0.37968">
        <ele>10.71</ele>
        <time>2018-11-16T10:36:47Z</time>
      </trkpt>
      <trkpt lat="49.08631" lon="-0.37946">
        <ele>10.71</ele>
        <time>2018-11-16T10:37:01Z</time>
      </trkpt>
      <trkpt lat="49.08627" lon="-0.37931">
        <ele>11.19</ele>
        <time>2018-11-16T10:37:09Z</time>
      </trkpt>
      <trkpt lat="49.08622" lon="-0.37909">
        <ele>13.6</ele>
        <time>2018-11-16T10:37:22Z</time>
      </trkpt>
      <trkpt lat="49.08616" lon="-0.37904">
        <ele>14.08</ele>
        <time>2018-11-16T10:37:35Z</time>
      </trkpt>
      <trkpt lat="49.08603" lon="-0.37925">
        <ele>14.08</ele>
        <time>2018-11-16T10:37:49Z</time>
      </trkpt>
      <trkpt lat="49.08597" lon="-0.37933">
        <ele>12.63</ele>
        <time>2018-11-16T10:37:54Z</time>
      </trkpt>
      <trkpt lat="49.08573" lon="-0.37952">
        <ele>12.63</ele>
        <time>2018-11-16T10:38:12Z</time>
      </trkpt>
      <trkpt lat="49.0856" lon="-0.37969">
        <ele>12.15</ele>
        <time>2018-11-16T10:38:26Z</time>
      </trkpt>
      <trkpt lat="49.08545" lon="-0.37985">
        <ele>12.15</ele>
        <time>2018-11-16T10:38:40Z</time>
      </trkpt>
      <trkpt lat="49.08524" lon="-0.38005">
        <ele>12.15</ele>
        <time>2018-11-16T10:38:59Z</time>
      </trkpt>
      <trkpt lat="49.08515" lon="-0.38015">
        <ele>12.15</ele>
        <time>2018-11-16T10:39:14Z</time>
      </trkpt>
      <trkpt lat="49.08512" lon="-0.38019">
        <ele>12.15</ele>
        <time>2018-11-16T10:39:27Z</time>
      </trkpt>
      <trkpt lat="49.08489" lon="-0.38026">
        <ele>13.6</ele>
        <time>2018-11-16T10:39:45Z</time>
      </trkpt>
      <trkpt lat="49.08472" lon="-0.38037">
        <ele>15.04</ele>
        <time>2018-11-16T10:40:02Z</time>
      </trkpt>
      <trkpt lat="49.08466" lon="-0.38041">
        <ele>15.52</ele>
        <time>2018-11-16T10:40:14Z</time>
      </trkpt>
      <trkpt lat="49.08455" lon="-0.38045">
        <ele>15.52</ele>
        <time>2018-11-16T10:40:23Z</time>
      </trkpt>
      <trkpt lat="49.08433" lon="-0.38059">
        <ele>17.44</ele>
        <time>2018-11-16T10:40:42Z</time>
      </trkpt>
      <trkpt lat="49.08423" lon="-0.38068">
        <ele>17.92</ele>
        <time>2018-11-16T10:40:56Z</time>
      </trkpt>
      <trkpt lat="49.08423" lon="-0.38068">
        <ele>16.96</ele>
        <time>2018-11-16T10:40:59Z</time>
      </trkpt>
      <trkpt lat="49.0843" lon="-0.38096">
        <ele>11.19</ele>
        <time>2018-11-16T10:42:42Z</time>
      </trkpt>
      <trkpt lat="49.08428" lon="-0.38098">
        <ele>11.19</ele>
        <time>2018-11-16T10:42:47Z</time>
      </trkpt>
      <trkpt lat="49.08421" lon="-0.38099">
        <ele>11.67</ele>
        <time>2018-11-16T10:42:53Z</time>
      </trkpt>
      <trkpt lat="49.08416" lon="-0.38102">
        <ele>12.15</ele>
        <time>2018-11-16T10:42:58Z</time>
      </trkpt>
      <trkpt lat="49.084" lon="-0.38107">
        <ele>11.67</ele>
        <time>2018-11-16T10:43:13Z</time>
      </trkpt>
      <trkpt lat="49.08402" lon="-0.38094">
        <ele>13.6</ele>
        <time>2018-11-16T10:43:28Z</time>
      </trkpt>
      <trkpt lat="49.08401" lon="-0.38096">
        <ele>13.6</ele>
        <time>2018-11-16T10:43:35Z</time>
      </trkpt>
      <trkpt lat="49.0839" lon="-0.38061">
        <ele>13.6</ele>
        <time>2018-11-16T10:43:43Z</time>
      </trkpt>
      <trkpt lat="49.08387" lon="-0.38015">
        <ele>12.63</ele>
        <time>2018-11-16T10:44:01Z</time>
      </trkpt>
      <trkpt lat="49.08385" lon="-0.37978">
        <ele>12.63</ele>
        <time>2018-11-16T10:44:19Z</time>
      </trkpt>
      <trkpt lat="49.08382" lon="-0.37957">
        <ele>13.12</ele>
        <time>2018-11-16T10:44:33Z</time>
      </trkpt>
      <trkpt lat="49.08369" lon="-0.37925">
        <ele>14.08</ele>
        <time>2018-11-16T10:44:51Z</time>
      </trkpt>
      <trkpt lat="49.08365" lon="-0.37913">
        <ele>15.52</ele>
        <time>2018-11-16T10:45:04Z</time>
      </trkpt>
      <trkpt lat="49.08363" lon="-0.37912">
        <ele>16</ele>
        <time>2018-11-16T10:45:24Z</time>
      </trkpt>
      <trkpt lat="49.08363" lon="-0.37913">
        <ele>16</ele>
        <time>2018-11-16T10:45:26Z</time>
      </trkpt>
      <trkpt lat="49.08364" lon="-0.37919">
        <ele>16</ele>
        <time>2018-11-16T10:45:30Z</time>
      </trkpt>
      <trkpt lat="49.08359" lon="-0.37925">
        <ele>16.48</ele>
        <time>2018-11-16T10:45:36Z</time>
      </trkpt>
      <trkpt lat="49.08341" lon="-0.37936">
        <ele>16.96</ele>
        <time>2018-11-16T10:45:50Z</time>
      </trkpt>
      <trkpt lat="49.0834" lon="-0.37937">
        <ele>16.96</ele>
        <time>2018-11-16T10:45:51Z</time>
      </trkpt>
      <trkpt lat="49.08334" lon="-0.37946">
        <ele>16.96</ele>
        <time>2018-11-16T10:45:58Z</time>
      </trkpt>
      <trkpt lat="49.08332" lon="-0.37948">
        <ele>17.44</ele>
        <time>2018-11-16T10:46:00Z</time>
      </trkpt>
      <trkpt lat="49.08325" lon="-0.37952">
        <ele>17.92</ele>
        <time>2018-11-16T10:46:05Z</time>
      </trkpt>
      <trkpt lat="49.08303" lon="-0.37957">
        <ele>19.84</ele>
        <time>2018-11-16T10:46:24Z</time>
      </trkpt>
      <trkpt lat="49.08286" lon="-0.37967">
        <ele>20.81</ele>
        <time>2018-11-16T10:46:40Z</time>
      </trkpt>
      <trkpt lat="49.08269" lon="-0.37976">
        <ele>21.77</ele>
        <time>2018-11-16T10:46:54Z</time>
      </trkpt>
      <trkpt lat="49.08252" lon="-0.37984">
        <ele>22.73</ele>
        <time>2018-11-16T10:47:08Z</time>
      </trkpt>
      <trkpt lat="49.08238" lon="-0.3799">
        <ele>23.69</ele>
        <time>2018-11-16T10:47:20Z</time>
      </trkpt>
      <trkpt lat="49.08219" lon="-0.38001">
        <ele>24.65</ele>
        <time>2018-11-16T10:47:38Z</time>
      </trkpt>
      <trkpt lat="49.08214" lon="-0.38004">
        <ele>25.13</ele>
        <time>2018-11-16T10:47:42Z</time>
      </trkpt>
      <trkpt lat="49.08204" lon="-0.38009">
        <ele>25.61</ele>
        <time>2018-11-16T10:47:50Z</time>
      </trkpt>
      <trkpt lat="49.08187" lon="-0.38012">
        <ele>26.09</ele>
        <time>2018-11-16T10:48:06Z</time>
      </trkpt>
      <trkpt lat="49.08186" lon="-0.38">
        <ele>26.09</ele>
        <time>2018-11-16T10:48:15Z</time>
      </trkpt>
      <trkpt lat="49.08172" lon="-0.37989">
        <ele>26.09</ele>
        <time>2018-11-16T10:48:28Z</time>
      </trkpt>
      <trkpt lat="49.08166" lon="-0.37988">
        <ele>26.09</ele>
        <time>2018-11-16T10:48:33Z</time>
      </trkpt>
      <trkpt lat="49.08144" lon="-0.37992">
        <ele>26.57</ele>
        <time>2018-11-16T10:48:50Z</time>
      </trkpt>
      <trkpt lat="49.08124" lon="-0.37996">
        <ele>27.05</ele>
        <time>2018-11-16T10:49:05Z</time>
      </trkpt>
      <trkpt lat="49.08113" lon="-0.37998">
        <ele>27.53</ele>
        <time>2018-11-16T10:49:14Z</time>
      </trkpt>
      <trkpt lat="49.08089" lon="-0.38003">
        <ele>28.5</ele>
        <time>2018-11-16T10:49:33Z</time>
      </trkpt>
      <trkpt lat="49.08068" lon="-0.38006">
        <ele>28.98</ele>
        <time>2018-11-16T10:49:48Z</time>
      </trkpt>
      <trkpt lat="49.08049" lon="-0.38009">
        <ele>29.46</ele>
        <time>2018-11-16T10:50:04Z</time>
      </trkpt>
      <trkpt lat="49.08028" lon="-0.38014">
        <ele>30.42</ele>
        <time>2018-11-16T10:50:21Z</time>
      </trkpt>
      <trkpt lat="49.08008" lon="-0.38019">
        <ele>30.9</ele>
        <time>2018-11-16T10:50:36Z</time>
      </trkpt>
      <trkpt lat="49.07994" lon="-0.38027">
        <ele>31.38</ele>
        <time>2018-11-16T10:50:49Z</time>
      </trkpt>
      <trkpt lat="49.07972" lon="-0.38036">
        <ele>31.86</ele>
        <time>2018-11-16T10:51:06Z</time>
      </trkpt>
      <trkpt lat="49.07952" lon="-0.38044">
        <ele>32.82</ele>
        <time>2018-11-16T10:51:22Z</time>
      </trkpt>
      <trkpt lat="49.07931" lon="-0.38052">
        <ele>33.3</ele>
        <time>2018-11-16T10:51:39Z</time>
      </trkpt>
      <trkpt lat="49.07912" lon="-0.3806">
        <ele>33.78</ele>
        <time>2018-11-16T10:51:57Z</time>
      </trkpt>
      <trkpt lat="49.07887" lon="-0.38064">
        <ele>34.74</ele>
        <time>2018-11-16T10:52:15Z</time>
      </trkpt>
      <trkpt lat="49.07864" lon="-0.38069">
        <ele>35.71</ele>
        <time>2018-11-16T10:52:34Z</time>
      </trkpt>
      <trkpt lat="49.07845" lon="-0.38075">
        <ele>37.63</ele>
        <time>2018-11-16T10:52:50Z</time>
      </trkpt>
      <trkpt lat="49.07837" lon="-0.38072">
        <ele>38.11</ele>
        <time>2018-11-16T10:53:03Z</time>
      </trkpt>
      <trkpt lat="49.0783" lon="-0.38075">
        <ele>38.11</ele>
        <time>2018-11-16T10:53:18Z</time>
      </trkpt>
      <trkpt lat="49.07812" lon="-0.38083">
        <ele>38.59</ele>
        <time>2018-11-16T10:53:35Z</time>
      </trkpt>
      <trkpt lat="49.07796" lon="-0.38094">
        <ele>39.55</ele>
        <time>2018-11-16T10:53:50Z</time>
      </trkpt>
      <trkpt lat="49.07778" lon="-0.38105">
        <ele>40.51</ele>
        <time>2018-11-16T10:54:07Z</time>
      </trkpt>
      <trkpt lat="49.07762" lon="-0.38113">
        <ele>40.51</ele>
        <time>2018-11-16T10:54:22Z</time>
      </trkpt>
      <trkpt lat="49.07742" lon="-0.38125">
        <ele>41.47</ele>
        <time>2018-11-16T10:54:39Z</time>
      </trkpt>
      <trkpt lat="49.07725" lon="-0.38134">
        <ele>41.95</ele>
        <time>2018-11-16T10:54:53Z</time>
      </trkpt>
      <trkpt lat="49.07716" lon="-0.38132">
        <ele>43.4</ele>
        <time>2018-11-16T10:55:08Z</time>
      </trkpt>
      <trkpt lat="49.07715" lon="-0.38133">
        <ele>41.95</ele>
        <time>2018-11-16T10:55:24Z</time>
      </trkpt>
      <trkpt lat="49.07714" lon="-0.38137">
        <ele>39.07</ele>
        <time>2018-11-16T11:03:33Z</time>
      </trkpt>
      <trkpt lat="49.07714" lon="-0.3814">
        <ele>41.95</ele>
        <time>2018-11-16T11:03:39Z</time>
      </trkpt>
      <trkpt lat="49.07714" lon="-0.38141">
        <ele>41.47</ele>
        <time>2018-11-16T11:03:40Z</time>
      </trkpt>
      <trkpt lat="49.07697" lon="-0.38152">
        <ele>45.8</ele>
        <time>2018-11-16T11:03:56Z</time>
      </trkpt>
      <trkpt lat="49.07696" lon="-0.38153">
        <ele>46.28</ele>
        <time>2018-11-16T11:03:57Z</time>
      </trkpt>
      <trkpt lat="49.07674" lon="-0.38158">
        <ele>48.68</ele>
        <time>2018-11-16T11:04:15Z</time>
      </trkpt>
      <trkpt lat="49.07646" lon="-0.38162">
        <ele>51.09</ele>
        <time>2018-11-16T11:04:36Z</time>
      </trkpt>
      <trkpt lat="49.07617" lon="-0.38167">
        <ele>52.53</ele>
        <time>2018-11-16T11:04:58Z</time>
      </trkpt>
      <trkpt lat="49.07594" lon="-0.3817">
        <ele>54.45</ele>
        <time>2018-11-16T11:05:17Z</time>
      </trkpt>
      <trkpt lat="49.07584" lon="-0.38178">
        <ele>54.93</ele>
        <time>2018-11-16T11:05:30Z</time>
      </trkpt>
      <trkpt lat="49.07584" lon="-0.38179">
        <ele>54.93</ele>
        <time>2018-11-16T11:05:31Z</time>
      </trkpt>
      <trkpt lat="49.07587" lon="-0.3821">
        <ele>56.37</ele>
        <time>2018-11-16T11:05:46Z</time>
      </trkpt>
      <trkpt lat="49.07591" lon="-0.38232">
        <ele>56.86</ele>
        <time>2018-11-16T11:05:59Z</time>
      </trkpt>
      <trkpt lat="49.0759" lon="-0.38234">
        <ele>56.86</ele>
        <time>2018-11-16T11:06:08Z</time>
      </trkpt>
      <trkpt lat="49.07594" lon="-0.38266">
        <ele>57.82</ele>
        <time>2018-11-16T11:06:25Z</time>
      </trkpt>
      <trkpt lat="49.07597" lon="-0.38286">
        <ele>58.3</ele>
        <time>2018-11-16T11:06:38Z</time>
      </trkpt>
      <trkpt lat="49.07601" lon="-0.38321">
        <ele>59.74</ele>
        <time>2018-11-16T11:06:57Z</time>
      </trkpt>
      <trkpt lat="49.07604" lon="-0.38346">
        <ele>60.22</ele>
        <time>2018-11-16T11:07:10Z</time>
      </trkpt>
      <trkpt lat="49.07609" lon="-0.38374">
        <ele>60.7</ele>
        <time>2018-11-16T11:07:26Z</time>
      </trkpt>
      <trkpt lat="49.07613" lon="-0.38384">
        <ele>61.18</ele>
        <time>2018-11-16T11:07:42Z</time>
      </trkpt>
      <trkpt lat="49.07613" lon="-0.38387">
        <ele>61.18</ele>
        <time>2018-11-16T11:08:15Z</time>
      </trkpt>
      <trkpt lat="49.07613" lon="-0.38386">
        <ele>61.18</ele>
        <time>2018-11-16T11:08:47Z</time>
      </trkpt>
      <trkpt lat="49.07613" lon="-0.38401">
        <ele>61.18</ele>
        <time>2018-11-16T11:09:03Z</time>
      </trkpt>
      <trkpt lat="49.07617" lon="-0.38433">
        <ele>61.66</ele>
        <time>2018-11-16T11:09:21Z</time>
      </trkpt>
      <trkpt lat="49.07622" lon="-0.38467">
        <ele>62.14</ele>
        <time>2018-11-16T11:09:39Z</time>
      </trkpt>
      <trkpt lat="49.07629" lon="-0.38505">
        <ele>62.14</ele>
        <time>2018-11-16T11:09:58Z</time>
      </trkpt>
      <trkpt lat="49.07633" lon="-0.38533">
        <ele>63.1</ele>
        <time>2018-11-16T11:10:13Z</time>
      </trkpt>
      <trkpt lat="49.07638" lon="-0.38561">
        <ele>63.1</ele>
        <time>2018-11-16T11:10:26Z</time>
      </trkpt>
      <trkpt lat="49.07642" lon="-0.38575">
        <ele>63.58</ele>
        <time>2018-11-16T11:10:37Z</time>
      </trkpt>
      <trkpt lat="49.07644" lon="-0.38589">
        <ele>63.58</ele>
        <time>2018-11-16T11:10:44Z</time>
      </trkpt>
      <trkpt lat="49.07649" lon="-0.38611">
        <ele>64.07</ele>
        <time>2018-11-16T11:10:58Z</time>
      </trkpt>
      <trkpt lat="49.07653" lon="-0.38634">
        <ele>64.55</ele>
        <time>2018-11-16T11:11:13Z</time>
      </trkpt>
      <trkpt lat="49.07658" lon="-0.38658">
        <ele>64.55</ele>
        <time>2018-11-16T11:11:26Z</time>
      </trkpt>
      <trkpt lat="49.07663" lon="-0.3869">
        <ele>64.55</ele>
        <time>2018-11-16T11:11:41Z</time>
      </trkpt>
      <trkpt lat="49.07668" lon="-0.3872">
        <ele>64.55</ele>
        <time>2018-11-16T11:11:57Z</time>
      </trkpt>
      <trkpt lat="49.07672" lon="-0.38734">
        <ele>64.55</ele>
        <time>2018-11-16T11:12:05Z</time>
      </trkpt>
      <trkpt lat="49.07674" lon="-0.38743">
        <ele>64.55</ele>
        <time>2018-11-16T11:12:10Z</time>
      </trkpt>
      <trkpt lat="49.0768" lon="-0.38774">
        <ele>64.55</ele>
        <time>2018-11-16T11:12:27Z</time>
      </trkpt>
      <trkpt lat="49.07685" lon="-0.38803">
        <ele>65.03</ele>
        <time>2018-11-16T11:12:42Z</time>
      </trkpt>
      <trkpt lat="49.0769" lon="-0.38834">
        <ele>65.03</ele>
        <time>2018-11-16T11:12:56Z</time>
      </trkpt>
      <trkpt lat="49.07698" lon="-0.38871">
        <ele>65.03</ele>
        <time>2018-11-16T11:13:13Z</time>
      </trkpt>
      <trkpt lat="49.07705" lon="-0.38911">
        <ele>65.51</ele>
        <time>2018-11-16T11:13:34Z</time>
      </trkpt>
      <trkpt lat="49.07711" lon="-0.38945">
        <ele>65.51</ele>
        <time>2018-11-16T11:13:52Z</time>
      </trkpt>
      <trkpt lat="49.07717" lon="-0.38976">
        <ele>65.51</ele>
        <time>2018-11-16T11:14:08Z</time>
      </trkpt>
      <trkpt lat="49.07724" lon="-0.39014">
        <ele>65.51</ele>
        <time>2018-11-16T11:14:27Z</time>
      </trkpt>
      <trkpt lat="49.07729" lon="-0.39043">
        <ele>65.51</ele>
        <time>2018-11-16T11:14:42Z</time>
      </trkpt>
      <trkpt lat="49.07737" lon="-0.39076">
        <ele>65.51</ele>
        <time>2018-11-16T11:14:59Z</time>
      </trkpt>
      <trkpt lat="49.07748" lon="-0.39111">
        <ele>64.55</ele>
        <time>2018-11-16T11:15:18Z</time>
      </trkpt>
      <trkpt lat="49.07762" lon="-0.39152">
        <ele>64.07</ele>
        <time>2018-11-16T11:15:41Z</time>
      </trkpt>
      <trkpt lat="49.07773" lon="-0.39188">
        <ele>64.07</ele>
        <time>2018-11-16T11:16:01Z</time>
      </trkpt>
      <trkpt lat="49.07782" lon="-0.3922">
        <ele>63.1</ele>
        <time>2018-11-16T11:16:18Z</time>
      </trkpt>
      <trkpt lat="49.07793" lon="-0.39256">
        <ele>63.1</ele>
        <time>2018-11-16T11:16:38Z</time>
      </trkpt>
      <trkpt lat="49.07803" lon="-0.39287">
        <ele>63.1</ele>
        <time>2018-11-16T11:16:56Z</time>
      </trkpt>
      <trkpt lat="49.07811" lon="-0.39317">
        <ele>63.1</ele>
        <time>2018-11-16T11:17:13Z</time>
      </trkpt>
      <trkpt lat="49.0782" lon="-0.39346">
        <ele>63.1</ele>
        <time>2018-11-16T11:17:30Z</time>
      </trkpt>
      <trkpt lat="49.07821" lon="-0.3935">
        <ele>63.1</ele>
        <time>2018-11-16T11:17:32Z</time>
      </trkpt>
      <trkpt lat="49.07831" lon="-0.39379">
        <ele>63.1</ele>
        <time>2018-11-16T11:17:48Z</time>
      </trkpt>
      <trkpt lat="49.07838" lon="-0.39406">
        <ele>63.1</ele>
        <time>2018-11-16T11:18:02Z</time>
      </trkpt>
      <trkpt lat="49.07851" lon="-0.39444">
        <ele>63.1</ele>
        <time>2018-11-16T11:18:24Z</time>
      </trkpt>
      <trkpt lat="49.07861" lon="-0.39477">
        <ele>62.14</ele>
        <time>2018-11-16T11:18:42Z</time>
      </trkpt>
      <trkpt lat="49.07869" lon="-0.39501">
        <ele>62.14</ele>
        <time>2018-11-16T11:18:55Z</time>
      </trkpt>
      <trkpt lat="49.07878" lon="-0.39535">
        <ele>60.22</ele>
        <time>2018-11-16T11:19:14Z</time>
      </trkpt>
      <trkpt lat="49.07889" lon="-0.39569">
        <ele>59.26</ele>
        <time>2018-11-16T11:19:33Z</time>
      </trkpt>
      <trkpt lat="49.07898" lon="-0.39598">
        <ele>57.34</ele>
        <time>2018-11-16T11:19:51Z</time>
      </trkpt>
      <trkpt lat="49.07897" lon="-0.39606">
        <ele>56.86</ele>
        <time>2018-11-16T11:20:04Z</time>
      </trkpt>
      <trkpt lat="49.079" lon="-0.39612">
        <ele>56.37</ele>
        <time>2018-11-16T11:20:17Z</time>
      </trkpt>
      <trkpt lat="49.07908" lon="-0.39627">
        <ele>55.89</ele>
        <time>2018-11-16T11:20:30Z</time>
      </trkpt>
      <trkpt lat="49.07921" lon="-0.39652">
        <ele>53.97</ele>
        <time>2018-11-16T11:20:47Z</time>
      </trkpt>
      <trkpt lat="49.07935" lon="-0.39675">
        <ele>53.49</ele>
        <time>2018-11-16T11:21:04Z</time>
      </trkpt>
      <trkpt lat="49.07945" lon="-0.39688">
        <ele>53.49</ele>
        <time>2018-11-16T11:21:16Z</time>
      </trkpt>
      <trkpt lat="49.07961" lon="-0.39707">
        <ele>53.49</ele>
        <time>2018-11-16T11:21:32Z</time>
      </trkpt>
      <trkpt lat="49.0797" lon="-0.39722">
        <ele>53.01</ele>
        <time>2018-11-16T11:21:42Z</time>
      </trkpt>
      <trkpt lat="49.07973" lon="-0.39728">
        <ele>53.01</ele>
        <time>2018-11-16T11:21:46Z</time>
      </trkpt>
      <trkpt lat="49.07984" lon="-0.39748">
        <ele>54.93</ele>
        <time>2018-11-16T11:22:00Z</time>
      </trkpt>
      <trkpt lat="49.07985" lon="-0.3975">
        <ele>54.93</ele>
        <time>2018-11-16T11:22:02Z</time>
      </trkpt>
      <trkpt lat="49.07996" lon="-0.3978">
        <ele>54.93</ele>
        <time>2018-11-16T11:22:19Z</time>
      </trkpt>
      <trkpt lat="49.07997" lon="-0.39783">
        <ele>54.93</ele>
        <time>2018-11-16T11:22:21Z</time>
      </trkpt>
      <trkpt lat="49.08007" lon="-0.3981">
        <ele>53.49</ele>
        <time>2018-11-16T11:22:37Z</time>
      </trkpt>
      <trkpt lat="49.08012" lon="-0.39823">
        <ele>52.53</ele>
        <time>2018-11-16T11:22:46Z</time>
      </trkpt>
      <trkpt lat="49.08026" lon="-0.39848">
        <ele>50.61</ele>
        <time>2018-11-16T11:23:03Z</time>
      </trkpt>
      <trkpt lat="49.08035" lon="-0.39863">
        <ele>48.68</ele>
        <time>2018-11-16T11:23:15Z</time>
      </trkpt>
      <trkpt lat="49.08041" lon="-0.39867">
        <ele>48.68</ele>
        <time>2018-11-16T11:23:19Z</time>
      </trkpt>
      <trkpt lat="49.08052" lon="-0.39899">
        <ele>48.2</ele>
        <time>2018-11-16T11:23:38Z</time>
      </trkpt>
      <trkpt lat="49.08055" lon="-0.3991">
        <ele>48.2</ele>
        <time>2018-11-16T11:23:45Z</time>
      </trkpt>
      <trkpt lat="49.08054" lon="-0.39929">
        <ele>49.16</ele>
        <time>2018-11-16T11:23:56Z</time>
      </trkpt>
      <trkpt lat="49.08054" lon="-0.39933">
        <ele>49.65</ele>
        <time>2018-11-16T11:23:58Z</time>
      </trkpt>
      <trkpt lat="49.08051" lon="-0.39953">
        <ele>51.09</ele>
        <time>2018-11-16T11:24:10Z</time>
      </trkpt>
      <trkpt lat="49.08049" lon="-0.3996">
        <ele>51.57</ele>
        <time>2018-11-16T11:24:14Z</time>
      </trkpt>
      <trkpt lat="49.08046" lon="-0.39984">
        <ele>53.01</ele>
        <time>2018-11-16T11:24:27Z</time>
      </trkpt>
      <trkpt lat="49.08044" lon="-0.40006">
        <ele>54.93</ele>
        <time>2018-11-16T11:24:40Z</time>
      </trkpt>
      <trkpt lat="49.08042" lon="-0.40018">
        <ele>55.41</ele>
        <time>2018-11-16T11:24:49Z</time>
      </trkpt>
      <trkpt lat="49.08041" lon="-0.40026">
        <ele>55.41</ele>
        <time>2018-11-16T11:24:53Z</time>
      </trkpt>
      <trkpt lat="49.08035" lon="-0.40053">
        <ele>57.82</ele>
        <time>2018-11-16T11:25:09Z</time>
      </trkpt>
      <trkpt lat="49.0802" lon="-0.40077">
        <ele>57.82</ele>
        <time>2018-11-16T11:25:27Z</time>
      </trkpt>
      <trkpt lat="49.08003" lon="-0.40097">
        <ele>57.82</ele>
        <time>2018-11-16T11:25:43Z</time>
      </trkpt>
      <trkpt lat="49.07997" lon="-0.40104">
        <ele>58.3</ele>
        <time>2018-11-16T11:25:51Z</time>
      </trkpt>
      <trkpt lat="49.07993" lon="-0.40105">
        <ele>58.3</ele>
        <time>2018-11-16T11:25:54Z</time>
      </trkpt>
      <trkpt lat="49.07991" lon="-0.40107">
        <ele>58.3</ele>
        <time>2018-11-16T11:25:56Z</time>
      </trkpt>
      <trkpt lat="49.0798" lon="-0.40105">
        <ele>58.78</ele>
        <time>2018-11-16T11:26:07Z</time>
      </trkpt>
      <trkpt lat="49.07978" lon="-0.40104">
        <ele>56.86</ele>
        <time>2018-11-16T11:26:16Z</time>
      </trkpt>
      <trkpt lat="49.07975" lon="-0.40094">
        <ele>59.26</ele>
        <time>2018-11-16T11:58:34Z</time>
      </trkpt>
      <trkpt lat="49.07978" lon="-0.40099">
        <ele>59.26</ele>
        <time>2018-11-16T11:58:35Z</time>
      </trkpt>
      <trkpt lat="49.07962" lon="-0.40113">
        <ele>62.14</ele>
        <time>2018-11-16T11:58:48Z</time>
      </trkpt>
      <trkpt lat="49.07962" lon="-0.401">
        <ele>62.62</ele>
        <time>2018-11-16T11:58:53Z</time>
      </trkpt>
      <trkpt lat="49.07971" lon="-0.40119">
        <ele>62.62</ele>
        <time>2018-11-16T11:59:07Z</time>
      </trkpt>
      <trkpt lat="49.07968" lon="-0.4013">
        <ele>62.62</ele>
        <time>2018-11-16T11:59:15Z</time>
      </trkpt>
      <trkpt lat="49.07964" lon="-0.40135">
        <ele>62.62</ele>
        <time>2018-11-16T11:59:20Z</time>
      </trkpt>
      <trkpt lat="49.07954" lon="-0.40143">
        <ele>63.1</ele>
        <time>2018-11-16T11:59:36Z</time>
      </trkpt>
      <trkpt lat="49.07945" lon="-0.40152">
        <ele>63.58</ele>
        <time>2018-11-16T11:59:47Z</time>
      </trkpt>
      <trkpt lat="49.07929" lon="-0.40169">
        <ele>64.07</ele>
        <time>2018-11-16T12:00:02Z</time>
      </trkpt>
      <trkpt lat="49.07917" lon="-0.40184">
        <ele>64.55</ele>
        <time>2018-11-16T12:00:20Z</time>
      </trkpt>
      <trkpt lat="49.07904" lon="-0.40194">
        <ele>65.51</ele>
        <time>2018-11-16T12:00:37Z</time>
      </trkpt>
      <trkpt lat="49.07884" lon="-0.40211">
        <ele>66.47</ele>
        <time>2018-11-16T12:00:55Z</time>
      </trkpt>
      <trkpt lat="49.07878" lon="-0.40217">
        <ele>66.47</ele>
        <time>2018-11-16T12:01:01Z</time>
      </trkpt>
      <trkpt lat="49.07883" lon="-0.40243">
        <ele>67.91</ele>
        <time>2018-11-16T12:01:17Z</time>
      </trkpt>
      <trkpt lat="49.07887" lon="-0.40265">
        <ele>68.39</ele>
        <time>2018-11-16T12:01:31Z</time>
      </trkpt>
      <trkpt lat="49.07895" lon="-0.40281">
        <ele>69.35</ele>
        <time>2018-11-16T12:01:43Z</time>
      </trkpt>
      <trkpt lat="49.07902" lon="-0.40286">
        <ele>69.83</ele>
        <time>2018-11-16T12:01:49Z</time>
      </trkpt>
      <trkpt lat="49.07918" lon="-0.40281">
        <ele>69.83</ele>
        <time>2018-11-16T12:02:05Z</time>
      </trkpt>
      <trkpt lat="49.07935" lon="-0.40277">
        <ele>69.83</ele>
        <time>2018-11-16T12:02:20Z</time>
      </trkpt>
      <trkpt lat="49.07942" lon="-0.4028">
        <ele>69.83</ele>
        <time>2018-11-16T12:02:33Z</time>
      </trkpt>
      <trkpt lat="49.07944" lon="-0.40284">
        <ele>69.83</ele>
        <time>2018-11-16T12:02:37Z</time>
      </trkpt>
      <trkpt lat="49.07945" lon="-0.40309">
        <ele>71.27</ele>
        <time>2018-11-16T12:02:52Z</time>
      </trkpt>
      <trkpt lat="49.07939" lon="-0.4033">
        <ele>71.76</ele>
        <time>2018-11-16T12:03:04Z</time>
      </trkpt>
      <trkpt lat="49.07941" lon="-0.40334">
        <ele>71.76</ele>
        <time>2018-11-16T12:03:07Z</time>
      </trkpt>
      <trkpt lat="49.07946" lon="-0.4033">
        <ele>71.76</ele>
        <time>2018-11-16T12:03:11Z</time>
      </trkpt>
      <trkpt lat="49.07959" lon="-0.40323">
        <ele>71.76</ele>
        <time>2018-11-16T12:03:26Z</time>
      </trkpt>
      <trkpt lat="49.07958" lon="-0.4033">
        <ele>71.76</ele>
        <time>2018-11-16T12:03:40Z</time>
      </trkpt>
      <trkpt lat="49.0794" lon="-0.40337">
        <ele>71.76</ele>
        <time>2018-11-16T12:03:59Z</time>
      </trkpt>
      <trkpt lat="49.07937" lon="-0.40336">
        <ele>71.76</ele>
        <time>2018-11-16T12:04:02Z</time>
      </trkpt>
      <trkpt lat="49.07937" lon="-0.40332">
        <ele>71.76</ele>
        <time>2018-11-16T12:04:08Z</time>
      </trkpt>
      <trkpt lat="49.07924" lon="-0.40349">
        <ele>71.76</ele>
        <time>2018-11-16T12:04:23Z</time>
      </trkpt>
      <trkpt lat="49.07921" lon="-0.40352">
        <ele>72.24</ele>
        <time>2018-11-16T12:04:27Z</time>
      </trkpt>
      <trkpt lat="49.07918" lon="-0.40358">
        <ele>72.72</ele>
        <time>2018-11-16T12:04:42Z</time>
      </trkpt>
      <trkpt lat="49.07916" lon="-0.4036">
        <ele>72.72</ele>
        <time>2018-11-16T12:05:10Z</time>
      </trkpt>
      <trkpt lat="49.07918" lon="-0.40355">
        <ele>72.72</ele>
        <time>2018-11-16T12:05:23Z</time>
      </trkpt>
      <trkpt lat="49.07918" lon="-0.40355">
        <ele>72.72</ele>
        <time>2018-11-16T12:05:26Z</time>
      </trkpt>
      <trkpt lat="49.07926" lon="-0.40374">
        <ele>73.2</ele>
        <time>2018-11-16T12:05:40Z</time>
      </trkpt>
      <trkpt lat="49.07928" lon="-0.40379">
        <ele>73.2</ele>
        <time>2018-11-16T12:05:43Z</time>
      </trkpt>
      <trkpt lat="49.07929" lon="-0.40387">
        <ele>73.68</ele>
        <time>2018-11-16T12:05:47Z</time>
      </trkpt>
      <trkpt lat="49.07938" lon="-0.40416">
        <ele>74.64</ele>
        <time>2018-11-16T12:06:04Z</time>
      </trkpt>
      <trkpt lat="49.07947" lon="-0.40445">
        <ele>76.08</ele>
        <time>2018-11-16T12:06:20Z</time>
      </trkpt>
      <trkpt lat="49.07958" lon="-0.40464">
        <ele>77.04</ele>
        <time>2018-11-16T12:06:34Z</time>
      </trkpt>
      <trkpt lat="49.07967" lon="-0.40465">
        <ele>77.04</ele>
        <time>2018-11-16T12:06:47Z</time>
      </trkpt>
      <trkpt lat="49.07967" lon="-0.40464">
        <ele>78</ele>
        <time>2018-11-16T12:06:51Z</time>
      </trkpt>
      <trkpt lat="49.07976" lon="-0.40458">
        <ele>78</ele>
        <time>2018-11-16T12:06:59Z</time>
      </trkpt>
      <trkpt lat="49.07983" lon="-0.40463">
        <ele>78</ele>
        <time>2018-11-16T12:07:05Z</time>
      </trkpt>
      <trkpt lat="49.0799" lon="-0.4049">
        <ele>78</ele>
        <time>2018-11-16T12:07:22Z</time>
      </trkpt>
      <trkpt lat="49.07995" lon="-0.40521">
        <ele>78.97</ele>
        <time>2018-11-16T12:07:38Z</time>
      </trkpt>
      <trkpt lat="49.08" lon="-0.40551">
        <ele>79.93</ele>
        <time>2018-11-16T12:07:53Z</time>
      </trkpt>
      <trkpt lat="49.08006" lon="-0.40583">
        <ele>79.93</ele>
        <time>2018-11-16T12:08:09Z</time>
      </trkpt>
      <trkpt lat="49.08012" lon="-0.40617">
        <ele>80.41</ele>
        <time>2018-11-16T12:08:26Z</time>
      </trkpt>
      <trkpt lat="49.08017" lon="-0.40646">
        <ele>80.41</ele>
        <time>2018-11-16T12:08:42Z</time>
      </trkpt>
      <trkpt lat="49.0802" lon="-0.40673">
        <ele>80.41</ele>
        <time>2018-11-16T12:08:57Z</time>
      </trkpt>
      <trkpt lat="49.08025" lon="-0.40703">
        <ele>80.89</ele>
        <time>2018-11-16T12:09:12Z</time>
      </trkpt>
      <trkpt lat="49.08031" lon="-0.40737">
        <ele>80.89</ele>
        <time>2018-11-16T12:09:30Z</time>
      </trkpt>
      <trkpt lat="49.08036" lon="-0.40766">
        <ele>80.89</ele>
        <time>2018-11-16T12:09:46Z</time>
      </trkpt>
      <trkpt lat="49.08042" lon="-0.40802">
        <ele>80.89</ele>
        <time>2018-11-16T12:10:03Z</time>
      </trkpt>
      <trkpt lat="49.08046" lon="-0.40834">
        <ele>80.89</ele>
        <time>2018-11-16T12:10:21Z</time>
      </trkpt>
      <trkpt lat="49.08053" lon="-0.40872">
        <ele>80.41</ele>
        <time>2018-11-16T12:10:41Z</time>
      </trkpt>
      <trkpt lat="49.08056" lon="-0.40889">
        <ele>79.45</ele>
        <time>2018-11-16T12:10:49Z</time>
      </trkpt>
      <trkpt lat="49.08062" lon="-0.40926">
        <ele>78</ele>
        <time>2018-11-16T12:11:09Z</time>
      </trkpt>
      <trkpt lat="49.08067" lon="-0.40957">
        <ele>76.56</ele>
        <time>2018-11-16T12:11:25Z</time>
      </trkpt>
      <trkpt lat="49.0806" lon="-0.40989">
        <ele>75.6</ele>
        <time>2018-11-16T12:11:43Z</time>
      </trkpt>
      <trkpt lat="49.08037" lon="-0.40998">
        <ele>75.6</ele>
        <time>2018-11-16T12:12:01Z</time>
      </trkpt>
      <trkpt lat="49.08016" lon="-0.41007">
        <ele>75.6</ele>
        <time>2018-11-16T12:12:18Z</time>
      </trkpt>
      <trkpt lat="49.07994" lon="-0.41018">
        <ele>75.12</ele>
        <time>2018-11-16T12:12:35Z</time>
      </trkpt>
      <trkpt lat="49.07973" lon="-0.41031">
        <ele>76.08</ele>
        <time>2018-11-16T12:12:52Z</time>
      </trkpt>
      <trkpt lat="49.07956" lon="-0.41038">
        <ele>76.56</ele>
        <time>2018-11-16T12:13:06Z</time>
      </trkpt>
      <trkpt lat="49.07936" lon="-0.41046">
        <ele>77.04</ele>
        <time>2018-11-16T12:13:21Z</time>
      </trkpt>
      <trkpt lat="49.07919" lon="-0.41054">
        <ele>77.04</ele>
        <time>2018-11-16T12:13:35Z</time>
      </trkpt>
      <trkpt lat="49.07898" lon="-0.41061">
        <ele>77.04</ele>
        <time>2018-11-16T12:13:51Z</time>
      </trkpt>
      <trkpt lat="49.0788" lon="-0.41069">
        <ele>77.04</ele>
        <time>2018-11-16T12:14:04Z</time>
      </trkpt>
      <trkpt lat="49.0786" lon="-0.41078">
        <ele>77.52</ele>
        <time>2018-11-16T12:14:19Z</time>
      </trkpt>
      <trkpt lat="49.07842" lon="-0.41084">
        <ele>77.04</ele>
        <time>2018-11-16T12:14:33Z</time>
      </trkpt>
      <trkpt lat="49.07824" lon="-0.41091">
        <ele>77.04</ele>
        <time>2018-11-16T12:14:47Z</time>
      </trkpt>
      <trkpt lat="49.07795" lon="-0.41104">
        <ele>78</ele>
        <time>2018-11-16T12:15:05Z</time>
      </trkpt>
      <trkpt lat="49.07775" lon="-0.41112">
        <ele>78.48</ele>
        <time>2018-11-16T12:15:22Z</time>
      </trkpt>
      <trkpt lat="49.07756" lon="-0.41121">
        <ele>78.97</ele>
        <time>2018-11-16T12:15:37Z</time>
      </trkpt>
      <trkpt lat="49.07736" lon="-0.41132">
        <ele>78.97</ele>
        <time>2018-11-16T12:15:54Z</time>
      </trkpt>
      <trkpt lat="49.07714" lon="-0.41142">
        <ele>79.45</ele>
        <time>2018-11-16T12:16:11Z</time>
      </trkpt>
      <trkpt lat="49.077" lon="-0.41143">
        <ele>79.93</ele>
        <time>2018-11-16T12:16:27Z</time>
      </trkpt>
      <trkpt lat="49.07699" lon="-0.41143">
        <ele>79.93</ele>
        <time>2018-11-16T12:16:30Z</time>
      </trkpt>
      <trkpt lat="49.07693" lon="-0.41144">
        <ele>79.93</ele>
        <time>2018-11-16T12:16:34Z</time>
      </trkpt>
      <trkpt lat="49.07665" lon="-0.41153">
        <ele>80.89</ele>
        <time>2018-11-16T12:16:55Z</time>
      </trkpt>
      <trkpt lat="49.07643" lon="-0.41163">
        <ele>81.37</ele>
        <time>2018-11-16T12:17:13Z</time>
      </trkpt>
      <trkpt lat="49.07621" lon="-0.41173">
        <ele>81.85</ele>
        <time>2018-11-16T12:17:33Z</time>
      </trkpt>
      <trkpt lat="49.07612" lon="-0.41178">
        <ele>81.85</ele>
        <time>2018-11-16T12:17:41Z</time>
      </trkpt>
      <trkpt lat="49.07599" lon="-0.41185">
        <ele>81.85</ele>
        <time>2018-11-16T12:17:54Z</time>
      </trkpt>
      <trkpt lat="49.07577" lon="-0.41193">
        <ele>81.85</ele>
        <time>2018-11-16T12:18:12Z</time>
      </trkpt>
      <trkpt lat="49.07574" lon="-0.41194">
        <ele>81.85</ele>
        <time>2018-11-16T12:18:14Z</time>
      </trkpt>
      <trkpt lat="49.07545" lon="-0.41204">
        <ele>82.33</ele>
        <time>2018-11-16T12:18:33Z</time>
      </trkpt>
      <trkpt lat="49.07524" lon="-0.41213">
        <ele>81.85</ele>
        <time>2018-11-16T12:18:50Z</time>
      </trkpt>
      <trkpt lat="49.07518" lon="-0.41212">
        <ele>81.37</ele>
        <time>2018-11-16T12:19:10Z</time>
      </trkpt>
      <trkpt lat="49.07519" lon="-0.41212">
        <ele>81.37</ele>
        <time>2018-11-16T12:19:41Z</time>
      </trkpt>
      <trkpt lat="49.07518" lon="-0.41213">
        <ele>81.37</ele>
        <time>2018-11-16T12:20:03Z</time>
      </trkpt>
      <trkpt lat="49.07504" lon="-0.41219">
        <ele>81.37</ele>
        <time>2018-11-16T12:20:22Z</time>
      </trkpt>
      <trkpt lat="49.07493" lon="-0.41226">
        <ele>81.37</ele>
        <time>2018-11-16T12:20:35Z</time>
      </trkpt>
      <trkpt lat="49.07474" lon="-0.41235">
        <ele>81.37</ele>
        <time>2018-11-16T12:20:52Z</time>
      </trkpt>
      <trkpt lat="49.07454" lon="-0.41244">
        <ele>82.81</ele>
        <time>2018-11-16T12:21:10Z</time>
      </trkpt>
      <trkpt lat="49.07432" lon="-0.41252">
        <ele>82.33</ele>
        <time>2018-11-16T12:21:29Z</time>
      </trkpt>
      <trkpt lat="49.07414" lon="-0.41259">
        <ele>82.33</ele>
        <time>2018-11-16T12:21:43Z</time>
      </trkpt>
      <trkpt lat="49.07396" lon="-0.41265">
        <ele>82.33</ele>
        <time>2018-11-16T12:21:57Z</time>
      </trkpt>
      <trkpt lat="49.07372" lon="-0.41273">
        <ele>82.81</ele>
        <time>2018-11-16T12:22:14Z</time>
      </trkpt>
      <trkpt lat="49.0735" lon="-0.41282">
        <ele>82.81</ele>
        <time>2018-11-16T12:22:30Z</time>
      </trkpt>
      <trkpt lat="49.07323" lon="-0.41291">
        <ele>83.29</ele>
        <time>2018-11-16T12:22:51Z</time>
      </trkpt>
      <trkpt lat="49.073" lon="-0.41302">
        <ele>83.29</ele>
        <time>2018-11-16T12:23:10Z</time>
      </trkpt>
      <trkpt lat="49.07278" lon="-0.4131">
        <ele>83.29</ele>
        <time>2018-11-16T12:23:29Z</time>
      </trkpt>
      <trkpt lat="49.07264" lon="-0.41317">
        <ele>83.77</ele>
        <time>2018-11-16T12:23:45Z</time>
      </trkpt>
      <trkpt lat="49.07239" lon="-0.41324">
        <ele>84.25</ele>
        <time>2018-11-16T12:24:05Z</time>
      </trkpt>
      <trkpt lat="49.07211" lon="-0.41333">
        <ele>84.73</ele>
        <time>2018-11-16T12:24:27Z</time>
      </trkpt>
      <trkpt lat="49.07187" lon="-0.41341">
        <ele>85.21</ele>
        <time>2018-11-16T12:24:46Z</time>
      </trkpt>
      <trkpt lat="49.07164" lon="-0.41347">
        <ele>85.69</ele>
        <time>2018-11-16T12:25:05Z</time>
      </trkpt>
      <trkpt lat="49.07137" lon="-0.41355">
        <ele>86.18</ele>
        <time>2018-11-16T12:25:27Z</time>
      </trkpt>
      <trkpt lat="49.07111" lon="-0.41362">
        <ele>86.66</ele>
        <time>2018-11-16T12:25:48Z</time>
      </trkpt>
      <trkpt lat="49.07085" lon="-0.41368">
        <ele>87.14</ele>
        <time>2018-11-16T12:26:08Z</time>
      </trkpt>
      <trkpt lat="49.07059" lon="-0.41376">
        <ele>87.62</ele>
        <time>2018-11-16T12:26:28Z</time>
      </trkpt>
      <trkpt lat="49.07034" lon="-0.41383">
        <ele>87.62</ele>
        <time>2018-11-16T12:26:47Z</time>
      </trkpt>
      <trkpt lat="49.07006" lon="-0.41392">
        <ele>87.62</ele>
        <time>2018-11-16T12:27:09Z</time>
      </trkpt>
      <trkpt lat="49.06982" lon="-0.41398">
        <ele>88.1</ele>
        <time>2018-11-16T12:27:29Z</time>
      </trkpt>
      <trkpt lat="49.06959" lon="-0.41404">
        <ele>88.58</ele>
        <time>2018-11-16T12:27:47Z</time>
      </trkpt>
      <trkpt lat="49.06938" lon="-0.41408">
        <ele>89.54</ele>
        <time>2018-11-16T12:28:06Z</time>
      </trkpt>
      <trkpt lat="49.06925" lon="-0.4141">
        <ele>89.54</ele>
        <time>2018-11-16T12:28:27Z</time>
      </trkpt>
      <trkpt lat="49.06896" lon="-0.41416">
        <ele>89.54</ele>
        <time>2018-11-16T12:28:50Z</time>
      </trkpt>
      <trkpt lat="49.06879" lon="-0.41417">
        <ele>90.02</ele>
        <time>2018-11-16T12:29:07Z</time>
      </trkpt>
      <trkpt lat="49.06877" lon="-0.41416">
        <ele>90.02</ele>
        <time>2018-11-16T12:29:19Z</time>
      </trkpt>
      <trkpt lat="49.06864" lon="-0.41418">
        <ele>90.5</ele>
        <time>2018-11-16T12:29:32Z</time>
      </trkpt>
      <trkpt lat="49.06837" lon="-0.4142">
        <ele>90.5</ele>
        <time>2018-11-16T12:29:52Z</time>
      </trkpt>
      <trkpt lat="49.06805" lon="-0.4142">
        <ele>91.46</ele>
        <time>2018-11-16T12:30:15Z</time>
      </trkpt>
      <trkpt lat="49.06773" lon="-0.41418">
        <ele>91.94</ele>
        <time>2018-11-16T12:30:39Z</time>
      </trkpt>
      <trkpt lat="49.06747" lon="-0.41414">
        <ele>91.94</ele>
        <time>2018-11-16T12:30:59Z</time>
      </trkpt>
      <trkpt lat="49.06719" lon="-0.41411">
        <ele>92.9</ele>
        <time>2018-11-16T12:31:20Z</time>
      </trkpt>
      <trkpt lat="49.06691" lon="-0.41407">
        <ele>92.9</ele>
        <time>2018-11-16T12:31:42Z</time>
      </trkpt>
      <trkpt lat="49.0666" lon="-0.41404">
        <ele>93.87</ele>
        <time>2018-11-16T12:32:05Z</time>
      </trkpt>
      <trkpt lat="49.06634" lon="-0.41401">
        <ele>94.35</ele>
        <time>2018-11-16T12:32:24Z</time>
      </trkpt>
      <trkpt lat="49.06615" lon="-0.41395">
        <ele>94.83</ele>
        <time>2018-11-16T12:32:40Z</time>
      </trkpt>
      <trkpt lat="49.06598" lon="-0.41393">
        <ele>95.31</ele>
        <time>2018-11-16T12:32:57Z</time>
      </trkpt>
      <trkpt lat="49.06599" lon="-0.41394">
        <ele>95.31</ele>
        <time>2018-11-16T12:33:11Z</time>
      </trkpt>
      <trkpt lat="49.06592" lon="-0.41402">
        <ele>95.31</ele>
        <time>2018-11-16T12:33:18Z</time>
      </trkpt>
      <trkpt lat="49.06565" lon="-0.41437">
        <ele>94.35</ele>
        <time>2018-11-16T12:33:44Z</time>
      </trkpt>
      <trkpt lat="49.06545" lon="-0.41465">
        <ele>93.87</ele>
        <time>2018-11-16T12:34:05Z</time>
      </trkpt>
      <trkpt lat="49.06523" lon="-0.41495">
        <ele>93.87</ele>
        <time>2018-11-16T12:34:28Z</time>
      </trkpt>
      <trkpt lat="49.06502" lon="-0.41529">
        <ele>93.39</ele>
        <time>2018-11-16T12:34:52Z</time>
      </trkpt>
      <trkpt lat="49.06492" lon="-0.41546">
        <ele>91.94</ele>
        <time>2018-11-16T12:35:04Z</time>
      </trkpt>
      <trkpt lat="49.06491" lon="-0.41549">
        <ele>93.87</ele>
        <time>2018-11-16T12:35:06Z</time>
      </trkpt>
      <trkpt lat="49.06476" lon="-0.41582">
        <ele>91.94</ele>
        <time>2018-11-16T12:35:27Z</time>
      </trkpt>
      <trkpt lat="49.06463" lon="-0.41617">
        <ele>91.46</ele>
        <time>2018-11-16T12:35:48Z</time>
      </trkpt>
      <trkpt lat="49.06449" lon="-0.41653">
        <ele>90.98</ele>
        <time>2018-11-16T12:36:09Z</time>
      </trkpt>
      <trkpt lat="49.06439" lon="-0.41683">
        <ele>90.98</ele>
        <time>2018-11-16T12:36:27Z</time>
      </trkpt>
      <trkpt lat="49.06429" lon="-0.41722">
        <ele>90.5</ele>
        <time>2018-11-16T12:36:48Z</time>
      </trkpt>
      <trkpt lat="49.06423" lon="-0.41739">
        <ele>90.5</ele>
        <time>2018-11-16T12:37:02Z</time>
      </trkpt>
      <trkpt lat="49.06412" lon="-0.41771">
        <ele>90.5</ele>
        <time>2018-11-16T12:37:20Z</time>
      </trkpt>
      <trkpt lat="49.0641" lon="-0.41777">
        <ele>90.5</ele>
        <time>2018-11-16T12:37:33Z</time>
      </trkpt>
      <trkpt lat="49.06404" lon="-0.41804">
        <ele>90.5</ele>
        <time>2018-11-16T12:37:50Z</time>
      </trkpt>
      <trkpt lat="49.06397" lon="-0.41838">
        <ele>89.54</ele>
        <time>2018-11-16T12:38:09Z</time>
      </trkpt>
      <trkpt lat="49.06389" lon="-0.41874">
        <ele>89.54</ele>
        <time>2018-11-16T12:38:27Z</time>
      </trkpt>
      <trkpt lat="49.06382" lon="-0.41906">
        <ele>89.54</ele>
        <time>2018-11-16T12:38:45Z</time>
      </trkpt>
      <trkpt lat="49.06375" lon="-0.4194">
        <ele>89.54</ele>
        <time>2018-11-16T12:39:04Z</time>
      </trkpt>
      <trkpt lat="49.0637" lon="-0.4198">
        <ele>89.06</ele>
        <time>2018-11-16T12:39:24Z</time>
      </trkpt>
      <trkpt lat="49.0637" lon="-0.42016">
        <ele>88.58</ele>
        <time>2018-11-16T12:39:43Z</time>
      </trkpt>
      <trkpt lat="49.06362" lon="-0.42053">
        <ele>88.1</ele>
        <time>2018-11-16T12:40:03Z</time>
      </trkpt>
      <trkpt lat="49.06356" lon="-0.42082">
        <ele>87.14</ele>
        <time>2018-11-16T12:40:24Z</time>
      </trkpt>
      <trkpt lat="49.06356" lon="-0.42081">
        <ele>87.14</ele>
        <time>2018-11-16T12:40:27Z</time>
      </trkpt>
      <trkpt lat="49.06353" lon="-0.42082">
        <ele>87.14</ele>
        <time>2018-11-16T12:40:31Z</time>
      </trkpt>
      <trkpt lat="49.06351" lon="-0.42088">
        <ele>87.14</ele>
        <time>2018-11-16T12:40:35Z</time>
      </trkpt>
      <trkpt lat="49.06349" lon="-0.42106">
        <ele>86.66</ele>
        <time>2018-11-16T12:40:45Z</time>
      </trkpt>
      <trkpt lat="49.06348" lon="-0.42109">
        <ele>86.66</ele>
        <time>2018-11-16T12:40:47Z</time>
      </trkpt>
      <trkpt lat="49.06344" lon="-0.42118">
        <ele>86.66</ele>
        <time>2018-11-16T12:40:54Z</time>
      </trkpt>
      <trkpt lat="49.0634" lon="-0.42126">
        <ele>86.66</ele>
        <time>2018-11-16T12:41:00Z</time>
      </trkpt>
      <trkpt lat="49.06333" lon="-0.42137">
        <ele>86.66</ele>
        <time>2018-11-16T12:41:08Z</time>
      </trkpt>
      <trkpt lat="49.06314" lon="-0.42153">
        <ele>86.66</ele>
        <time>2018-11-16T12:41:23Z</time>
      </trkpt>
      <trkpt lat="49.06311" lon="-0.42155">
        <ele>87.62</ele>
        <time>2018-11-16T12:41:27Z</time>
      </trkpt>
      <trkpt lat="49.0629" lon="-0.42165">
        <ele>88.58</ele>
        <time>2018-11-16T12:41:44Z</time>
      </trkpt>
      <trkpt lat="49.06266" lon="-0.42174">
        <ele>89.06</ele>
        <time>2018-11-16T12:42:03Z</time>
      </trkpt>
      <trkpt lat="49.0624" lon="-0.42182">
        <ele>89.54</ele>
        <time>2018-11-16T12:42:24Z</time>
      </trkpt>
      <trkpt lat="49.0623" lon="-0.42186">
        <ele>90.02</ele>
        <time>2018-11-16T12:42:37Z</time>
      </trkpt>
      <trkpt lat="49.06206" lon="-0.42192">
        <ele>90.98</ele>
        <time>2018-11-16T12:42:55Z</time>
      </trkpt>
      <trkpt lat="49.06189" lon="-0.42191">
        <ele>92.42</ele>
        <time>2018-11-16T12:43:12Z</time>
      </trkpt>
      <trkpt lat="49.06171" lon="-0.42189">
        <ele>92.9</ele>
        <time>2018-11-16T12:43:27Z</time>
      </trkpt>
      <trkpt lat="49.06143" lon="-0.42196">
        <ele>92.9</ele>
        <time>2018-11-16T12:43:49Z</time>
      </trkpt>
      <trkpt lat="49.06134" lon="-0.42231">
        <ele>93.39</ele>
        <time>2018-11-16T12:44:07Z</time>
      </trkpt>
      <trkpt lat="49.0613" lon="-0.42268">
        <ele>93.39</ele>
        <time>2018-11-16T12:44:26Z</time>
      </trkpt>
      <trkpt lat="49.06125" lon="-0.42277">
        <ele>91.94</ele>
        <time>2018-11-16T12:44:39Z</time>
      </trkpt>
      <trkpt lat="49.06127" lon="-0.42276">
        <ele>91.94</ele>
        <time>2018-11-16T12:44:57Z</time>
      </trkpt>
      <trkpt lat="49.06127" lon="-0.42275">
        <ele>93.39</ele>
        <time>2018-11-16T12:45:14Z</time>
      </trkpt>
      <trkpt lat="49.06124" lon="-0.42282">
        <ele>92.9</ele>
        <time>2018-11-16T12:45:32Z</time>
      </trkpt>
      <trkpt lat="49.06124" lon="-0.42284">
        <ele>92.9</ele>
        <time>2018-11-16T12:45:33Z</time>
      </trkpt>
      <trkpt lat="49.06112" lon="-0.42305">
        <ele>92.9</ele>
        <time>2018-11-16T12:45:49Z</time>
      </trkpt>
      <trkpt lat="49.06095" lon="-0.42325">
        <ele>92.9</ele>
        <time>2018-11-16T12:46:06Z</time>
      </trkpt>
      <trkpt lat="49.06078" lon="-0.42354">
        <ele>92.9</ele>
        <time>2018-11-16T12:46:26Z</time>
      </trkpt>
      <trkpt lat="49.06064" lon="-0.42386">
        <ele>92.9</ele>
        <time>2018-11-16T12:46:45Z</time>
      </trkpt>
      <trkpt lat="49.06059" lon="-0.42402">
        <ele>92.9</ele>
        <time>2018-11-16T12:46:55Z</time>
      </trkpt>
      <trkpt lat="49.0605" lon="-0.4243">
        <ele>92.42</ele>
        <time>2018-11-16T12:47:11Z</time>
      </trkpt>
      <trkpt lat="49.06041" lon="-0.42459">
        <ele>91.94</ele>
        <time>2018-11-16T12:47:28Z</time>
      </trkpt>
      <trkpt lat="49.06032" lon="-0.42491">
        <ele>91.94</ele>
        <time>2018-11-16T12:47:45Z</time>
      </trkpt>
      <trkpt lat="49.06022" lon="-0.42534">
        <ele>91.94</ele>
        <time>2018-11-16T12:48:07Z</time>
      </trkpt>
      <trkpt lat="49.06015" lon="-0.42567">
        <ele>91.94</ele>
        <time>2018-11-16T12:48:25Z</time>
      </trkpt>
      <trkpt lat="49.06007" lon="-0.42605">
        <ele>91.94</ele>
        <time>2018-11-16T12:48:45Z</time>
      </trkpt>
      <trkpt lat="49.05993" lon="-0.42639">
        <ele>91.94</ele>
        <time>2018-11-16T12:49:06Z</time>
      </trkpt>
      <trkpt lat="49.05978" lon="-0.42669">
        <ele>91.94</ele>
        <time>2018-11-16T12:49:27Z</time>
      </trkpt>
      <trkpt lat="49.05963" lon="-0.42698">
        <ele>91.94</ele>
        <time>2018-11-16T12:49:45Z</time>
      </trkpt>
      <trkpt lat="49.05953" lon="-0.4273">
        <ele>91.94</ele>
        <time>2018-11-16T12:50:03Z</time>
      </trkpt>
      <trkpt lat="49.05944" lon="-0.4276">
        <ele>91.94</ele>
        <time>2018-11-16T12:50:20Z</time>
      </trkpt>
      <trkpt lat="49.05945" lon="-0.42762">
        <ele>91.94</ele>
        <time>2018-11-16T12:50:23Z</time>
      </trkpt>
      <trkpt lat="49.05947" lon="-0.42768">
        <ele>91.94</ele>
        <time>2018-11-16T12:50:37Z</time>
      </trkpt>
      <trkpt lat="49.05947" lon="-0.42771">
        <ele>91.94</ele>
        <time>2018-11-16T12:51:19Z</time>
      </trkpt>
      <trkpt lat="49.05944" lon="-0.4277">
        <ele>91.46</ele>
        <time>2018-11-16T12:51:38Z</time>
      </trkpt>
      <trkpt lat="49.05942" lon="-0.42771">
        <ele>91.46</ele>
        <time>2018-11-16T12:51:41Z</time>
      </trkpt>
      <trkpt lat="49.05931" lon="-0.42799">
        <ele>91.46</ele>
        <time>2018-11-16T12:52:01Z</time>
      </trkpt>
      <trkpt lat="49.05924" lon="-0.42837">
        <ele>91.46</ele>
        <time>2018-11-16T12:52:21Z</time>
      </trkpt>
      <trkpt lat="49.05939" lon="-0.42854">
        <ele>90.5</ele>
        <time>2018-11-16T12:52:37Z</time>
      </trkpt>
      <trkpt lat="49.05965" lon="-0.42858">
        <ele>90.02</ele>
        <time>2018-11-16T12:52:58Z</time>
      </trkpt>
      <trkpt lat="49.05986" lon="-0.42864">
        <ele>89.06</ele>
        <time>2018-11-16T12:53:14Z</time>
      </trkpt>
      <trkpt lat="49.06021" lon="-0.42875">
        <ele>88.1</ele>
        <time>2018-11-16T12:53:40Z</time>
      </trkpt>
      <trkpt lat="49.06049" lon="-0.42881">
        <ele>87.14</ele>
        <time>2018-11-16T12:54:01Z</time>
      </trkpt>
      <trkpt lat="49.06076" lon="-0.42891">
        <ele>86.66</ele>
        <time>2018-11-16T12:54:22Z</time>
      </trkpt>
      <trkpt lat="49.06105" lon="-0.429">
        <ele>85.69</ele>
        <time>2018-11-16T12:54:44Z</time>
      </trkpt>
      <trkpt lat="49.06134" lon="-0.42906">
        <ele>85.21</ele>
        <time>2018-11-16T12:55:07Z</time>
      </trkpt>
      <trkpt lat="49.06165" lon="-0.42914">
        <ele>83.77</ele>
        <time>2018-11-16T12:55:32Z</time>
      </trkpt>
      <trkpt lat="49.06178" lon="-0.42927">
        <ele>83.29</ele>
        <time>2018-11-16T12:55:49Z</time>
      </trkpt>
      <trkpt lat="49.0619" lon="-0.42942">
        <ele>82.81</ele>
        <time>2018-11-16T12:56:03Z</time>
      </trkpt>
      <trkpt lat="49.06201" lon="-0.42957">
        <ele>82.33</ele>
        <time>2018-11-16T12:56:15Z</time>
      </trkpt>
      <trkpt lat="49.06201" lon="-0.42989">
        <ele>82.33</ele>
        <time>2018-11-16T12:56:32Z</time>
      </trkpt>
      <trkpt lat="49.06198" lon="-0.43031">
        <ele>81.85</ele>
        <time>2018-11-16T12:56:53Z</time>
      </trkpt>
      <trkpt lat="49.06195" lon="-0.43081">
        <ele>81.37</ele>
        <time>2018-11-16T12:57:17Z</time>
      </trkpt>
      <trkpt lat="49.06192" lon="-0.43123">
        <ele>80.89</ele>
        <time>2018-11-16T12:57:39Z</time>
      </trkpt>
      <trkpt lat="49.06191" lon="-0.43159">
        <ele>80.41</ele>
        <time>2018-11-16T12:57:58Z</time>
      </trkpt>
      <trkpt lat="49.06188" lon="-0.43195">
        <ele>78.97</ele>
        <time>2018-11-16T12:58:16Z</time>
      </trkpt>
      <trkpt lat="49.06188" lon="-0.43232">
        <ele>77.52</ele>
        <time>2018-11-16T12:58:35Z</time>
      </trkpt>
      <trkpt lat="49.062" lon="-0.43237">
        <ele>76.56</ele>
        <time>2018-11-16T12:58:49Z</time>
      </trkpt>
      <trkpt lat="49.06211" lon="-0.43239">
        <ele>75.6</ele>
        <time>2018-11-16T12:59:02Z</time>
      </trkpt>
      <trkpt lat="49.06213" lon="-0.43241">
        <ele>75.6</ele>
        <time>2018-11-16T12:59:04Z</time>
      </trkpt>
      <trkpt lat="49.06215" lon="-0.43243">
        <ele>75.12</ele>
        <time>2018-11-16T12:59:06Z</time>
      </trkpt>
      <trkpt lat="49.06219" lon="-0.43261">
        <ele>73.68</ele>
        <time>2018-11-16T12:59:19Z</time>
      </trkpt>
      <trkpt lat="49.06218" lon="-0.43276">
        <ele>72.72</ele>
        <time>2018-11-16T12:59:28Z</time>
      </trkpt>
      <trkpt lat="49.06219" lon="-0.43295">
        <ele>72.24</ele>
        <time>2018-11-16T12:59:41Z</time>
      </trkpt>
      <trkpt lat="49.06218" lon="-0.43306">
        <ele>71.76</ele>
        <time>2018-11-16T12:59:48Z</time>
      </trkpt>
      <trkpt lat="49.06216" lon="-0.43346">
        <ele>71.76</ele>
        <time>2018-11-16T13:00:07Z</time>
      </trkpt>
      <trkpt lat="49.06216" lon="-0.4335">
        <ele>71.76</ele>
        <time>2018-11-16T13:00:10Z</time>
      </trkpt>
      <trkpt lat="49.06215" lon="-0.43356">
        <ele>71.76</ele>
        <time>2018-11-16T13:00:13Z</time>
      </trkpt>
      <trkpt lat="49.06213" lon="-0.43382">
        <ele>71.27</ele>
        <time>2018-11-16T13:00:28Z</time>
      </trkpt>
      <trkpt lat="49.06209" lon="-0.43402">
        <ele>70.31</ele>
        <time>2018-11-16T13:00:42Z</time>
      </trkpt>
      <trkpt lat="49.06201" lon="-0.43431">
        <ele>70.31</ele>
        <time>2018-11-16T13:00:56Z</time>
      </trkpt>
      <trkpt lat="49.06194" lon="-0.43457">
        <ele>70.31</ele>
        <time>2018-11-16T13:01:09Z</time>
      </trkpt>
      <trkpt lat="49.06194" lon="-0.43458">
        <ele>70.31</ele>
        <time>2018-11-16T13:01:10Z</time>
      </trkpt>
      <trkpt lat="49.06193" lon="-0.43466">
        <ele>69.83</ele>
        <time>2018-11-16T13:01:14Z</time>
      </trkpt>
      <trkpt lat="49.0619" lon="-0.43486">
        <ele>69.83</ele>
        <time>2018-11-16T13:01:26Z</time>
      </trkpt>
      <trkpt lat="49.0619" lon="-0.43496">
        <ele>69.83</ele>
        <time>2018-11-16T13:01:31Z</time>
      </trkpt>
      <trkpt lat="49.06191" lon="-0.43511">
        <ele>69.83</ele>
        <time>2018-11-16T13:01:40Z</time>
      </trkpt>
      <trkpt lat="49.06192" lon="-0.43533">
        <ele>71.27</ele>
        <time>2018-11-16T13:01:52Z</time>
      </trkpt>
      <trkpt lat="49.06186" lon="-0.43564">
        <ele>71.76</ele>
        <time>2018-11-16T13:02:09Z</time>
      </trkpt>
      <trkpt lat="49.06179" lon="-0.43591">
        <ele>71.76</ele>
        <time>2018-11-16T13:02:24Z</time>
      </trkpt>
      <trkpt lat="49.06174" lon="-0.43615">
        <ele>70.31</ele>
        <time>2018-11-16T13:02:38Z</time>
      </trkpt>
      <trkpt lat="49.06173" lon="-0.43621">
        <ele>69.83</ele>
        <time>2018-11-16T13:02:42Z</time>
      </trkpt>
      <trkpt lat="49.06171" lon="-0.43649">
        <ele>68.39</ele>
        <time>2018-11-16T13:02:58Z</time>
      </trkpt>
      <trkpt lat="49.06172" lon="-0.43665">
        <ele>66.47</ele>
        <time>2018-11-16T13:03:10Z</time>
      </trkpt>
      <trkpt lat="49.06172" lon="-0.43684">
        <ele>63.58</ele>
        <time>2018-11-16T13:03:25Z</time>
      </trkpt>
      <trkpt lat="49.0617" lon="-0.43705">
        <ele>61.66</ele>
        <time>2018-11-16T13:03:38Z</time>
      </trkpt>
      <trkpt lat="49.06168" lon="-0.4373">
        <ele>59.74</ele>
        <time>2018-11-16T13:03:53Z</time>
      </trkpt>
      <trkpt lat="49.06169" lon="-0.43745">
        <ele>57.34</ele>
        <time>2018-11-16T13:04:08Z</time>
      </trkpt>
      <trkpt lat="49.06168" lon="-0.43764">
        <ele>55.41</ele>
        <time>2018-11-16T13:04:22Z</time>
      </trkpt>
      <trkpt lat="49.06165" lon="-0.43776">
        <ele>53.01</ele>
        <time>2018-11-16T13:04:36Z</time>
      </trkpt>
      <trkpt lat="49.0616" lon="-0.43797">
        <ele>51.09</ele>
        <time>2018-11-16T13:04:51Z</time>
      </trkpt>
      <trkpt lat="49.06158" lon="-0.43814">
        <ele>48.2</ele>
        <time>2018-11-16T13:05:07Z</time>
      </trkpt>
      <trkpt lat="49.06154" lon="-0.43831">
        <ele>46.28</ele>
        <time>2018-11-16T13:05:21Z</time>
      </trkpt>
      <trkpt lat="49.0615" lon="-0.43846">
        <ele>44.36</ele>
        <time>2018-11-16T13:05:35Z</time>
      </trkpt>
      <trkpt lat="49.06147" lon="-0.43862">
        <ele>42.44</ele>
        <time>2018-11-16T13:05:50Z</time>
      </trkpt>
      <trkpt lat="49.06145" lon="-0.43874">
        <ele>40.51</ele>
        <time>2018-11-16T13:06:03Z</time>
      </trkpt>
      <trkpt lat="49.06142" lon="-0.4389">
        <ele>38.59</ele>
        <time>2018-11-16T13:06:17Z</time>
      </trkpt>
      <trkpt lat="49.06141" lon="-0.43904">
        <ele>36.67</ele>
        <time>2018-11-16T13:06:34Z</time>
      </trkpt>
      <trkpt lat="49.06141" lon="-0.43918">
        <ele>34.74</ele>
        <time>2018-11-16T13:06:49Z</time>
      </trkpt>
      <trkpt lat="49.0614" lon="-0.43938">
        <ele>32.82</ele>
        <time>2018-11-16T13:07:05Z</time>
      </trkpt>
      <trkpt lat="49.06143" lon="-0.43946">
        <ele>30.9</ele>
        <time>2018-11-16T13:07:19Z</time>
      </trkpt>
      <trkpt lat="49.06144" lon="-0.43956">
        <ele>29.46</ele>
        <time>2018-11-16T13:07:32Z</time>
      </trkpt>
      <trkpt lat="49.06143" lon="-0.43966">
        <ele>27.53</ele>
        <time>2018-11-16T13:07:46Z</time>
      </trkpt>
      <trkpt lat="49.06144" lon="-0.43974">
        <ele>25.13</ele>
        <time>2018-11-16T13:08:00Z</time>
      </trkpt>
      <trkpt lat="49.06146" lon="-0.43988">
        <ele>23.69</ele>
        <time>2018-11-16T13:08:13Z</time>
      </trkpt>
      <trkpt lat="49.06146" lon="-0.44002">
        <ele>21.77</ele>
        <time>2018-11-16T13:08:26Z</time>
      </trkpt>
      <trkpt lat="49.06147" lon="-0.44019">
        <ele>19.36</ele>
        <time>2018-11-16T13:08:41Z</time>
      </trkpt>
      <trkpt lat="49.06146" lon="-0.44045">
        <ele>16.96</ele>
        <time>2018-11-16T13:08:59Z</time>
      </trkpt>
      <trkpt lat="49.06148" lon="-0.44064">
        <ele>15.04</ele>
        <time>2018-11-16T13:09:11Z</time>
      </trkpt>
      <trkpt lat="49.0615" lon="-0.44086">
        <ele>13.6</ele>
        <time>2018-11-16T13:09:24Z</time>
      </trkpt>
      <trkpt lat="49.06151" lon="-0.44102">
        <ele>13.12</ele>
        <time>2018-11-16T13:09:38Z</time>
      </trkpt>
      <trkpt lat="49.06151" lon="-0.44108">
        <ele>12.63</ele>
        <time>2018-11-16T13:09:55Z</time>
      </trkpt>
      <trkpt lat="49.0615" lon="-0.44109">
        <ele>12.63</ele>
        <time>2018-11-16T13:10:11Z</time>
      </trkpt>
      <trkpt lat="49.06151" lon="-0.44121">
        <ele>12.15</ele>
        <time>2018-11-16T13:10:30Z</time>
      </trkpt>
      <trkpt lat="49.0615" lon="-0.44138">
        <ele>11.67</ele>
        <time>2018-11-16T13:10:43Z</time>
      </trkpt>
      <trkpt lat="49.06149" lon="-0.44159">
        <ele>12.15</ele>
        <time>2018-11-16T13:10:58Z</time>
      </trkpt>
      <trkpt lat="49.06148" lon="-0.44167">
        <ele>11.19</ele>
        <time>2018-11-16T13:11:04Z</time>
      </trkpt>
      <trkpt lat="49.06148" lon="-0.44194">
        <ele>10.71</ele>
        <time>2018-11-16T13:11:17Z</time>
      </trkpt>
      <trkpt lat="49.0615" lon="-0.44213">
        <ele>10.71</ele>
        <time>2018-11-16T13:11:28Z</time>
      </trkpt>
      <trkpt lat="49.06151" lon="-0.44241">
        <ele>10.23</ele>
        <time>2018-11-16T13:11:44Z</time>
      </trkpt>
      <trkpt lat="49.06152" lon="-0.44272">
        <ele>9.75</ele>
        <time>2018-11-16T13:12:00Z</time>
      </trkpt>
      <trkpt lat="49.06154" lon="-0.44293">
        <ele>9.75</ele>
        <time>2018-11-16T13:12:13Z</time>
      </trkpt>
      <trkpt lat="49.06156" lon="-0.44321">
        <ele>9.75</ele>
        <time>2018-11-16T13:12:28Z</time>
      </trkpt>
      <trkpt lat="49.06158" lon="-0.44344">
        <ele>10.71</ele>
        <time>2018-11-16T13:12:40Z</time>
      </trkpt>
      <trkpt lat="49.06159" lon="-0.44368">
        <ele>11.67</ele>
        <time>2018-11-16T13:12:54Z</time>
      </trkpt>
      <trkpt lat="49.06167" lon="-0.44391">
        <ele>9.75</ele>
        <time>2018-11-16T13:13:08Z</time>
      </trkpt>
      <trkpt lat="49.06179" lon="-0.44412">
        <ele>8.31</ele>
        <time>2018-11-16T13:13:23Z</time>
      </trkpt>
      <trkpt lat="49.06189" lon="-0.44427">
        <ele>7.83</ele>
        <time>2018-11-16T13:13:34Z</time>
      </trkpt>
      <trkpt lat="49.06198" lon="-0.44446">
        <ele>7.83</ele>
        <time>2018-11-16T13:13:47Z</time>
      </trkpt>
      <trkpt lat="49.06199" lon="-0.44447">
        <ele>7.83</ele>
        <time>2018-11-16T13:13:48Z</time>
      </trkpt>
      <trkpt lat="49.06202" lon="-0.44451">
        <ele>7.83</ele>
        <time>2018-11-16T13:13:50Z</time>
      </trkpt>
      <trkpt lat="49.06208" lon="-0.44462">
        <ele>7.83</ele>
        <time>2018-11-16T13:13:56Z</time>
      </trkpt>
      <trkpt lat="49.06218" lon="-0.44476">
        <ele>8.79</ele>
        <time>2018-11-16T13:14:10Z</time>
      </trkpt>
      <trkpt lat="49.06231" lon="-0.44493">
        <ele>8.31</ele>
        <time>2018-11-16T13:14:24Z</time>
      </trkpt>
      <trkpt lat="49.06248" lon="-0.44516">
        <ele>8.31</ele>
        <time>2018-11-16T13:14:41Z</time>
      </trkpt>
      <trkpt lat="49.06262" lon="-0.44528">
        <ele>8.31</ele>
        <time>2018-11-16T13:14:55Z</time>
      </trkpt>
      <trkpt lat="49.06278" lon="-0.44542">
        <ele>8.31</ele>
        <time>2018-11-16T13:15:09Z</time>
      </trkpt>
      <trkpt lat="49.06293" lon="-0.4456">
        <ele>7.83</ele>
        <time>2018-11-16T13:15:25Z</time>
      </trkpt>
      <trkpt lat="49.06309" lon="-0.44576">
        <ele>8.31</ele>
        <time>2018-11-16T13:15:40Z</time>
      </trkpt>
      <trkpt lat="49.06315" lon="-0.44582">
        <ele>8.31</ele>
        <time>2018-11-16T13:15:46Z</time>
      </trkpt>
      <trkpt lat="49.0632" lon="-0.44586">
        <ele>8.79</ele>
        <time>2018-11-16T13:15:50Z</time>
      </trkpt>
      <trkpt lat="49.06335" lon="-0.44599">
        <ele>8.79</ele>
        <time>2018-11-16T13:16:06Z</time>
      </trkpt>
      <trkpt lat="49.06337" lon="-0.446">
        <ele>8.79</ele>
        <time>2018-11-16T13:16:08Z</time>
      </trkpt>
      <trkpt lat="49.06359" lon="-0.44621">
        <ele>8.79</ele>
        <time>2018-11-16T13:16:25Z</time>
      </trkpt>
      <trkpt lat="49.06377" lon="-0.44636">
        <ele>8.79</ele>
        <time>2018-11-16T13:16:41Z</time>
      </trkpt>
      <trkpt lat="49.06393" lon="-0.4465">
        <ele>8.79</ele>
        <time>2018-11-16T13:16:56Z</time>
      </trkpt>
      <trkpt lat="49.06407" lon="-0.44667">
        <ele>9.27</ele>
        <time>2018-11-16T13:17:11Z</time>
      </trkpt>
      <trkpt lat="49.0642" lon="-0.44677">
        <ele>8.79</ele>
        <time>2018-11-16T13:17:22Z</time>
      </trkpt>
      <trkpt lat="49.06437" lon="-0.44679">
        <ele>7.35</ele>
        <time>2018-11-16T13:17:37Z</time>
      </trkpt>
      <trkpt lat="49.06451" lon="-0.44684">
        <ele>7.35</ele>
        <time>2018-11-16T13:17:51Z</time>
      </trkpt>
      <trkpt lat="49.06456" lon="-0.44702">
        <ele>8.31</ele>
        <time>2018-11-16T13:18:04Z</time>
      </trkpt>
      <trkpt lat="49.06463" lon="-0.44712">
        <ele>10.23</ele>
        <time>2018-11-16T13:18:17Z</time>
      </trkpt>
      <trkpt lat="49.06471" lon="-0.4472">
        <ele>12.63</ele>
        <time>2018-11-16T13:18:28Z</time>
      </trkpt>
      <trkpt lat="49.06475" lon="-0.44732">
        <ele>14.56</ele>
        <time>2018-11-16T13:18:42Z</time>
      </trkpt>
      <trkpt lat="49.06477" lon="-0.44745">
        <ele>15.52</ele>
        <time>2018-11-16T13:18:53Z</time>
      </trkpt>
      <trkpt lat="49.06489" lon="-0.44735">
        <ele>16.48</ele>
        <time>2018-11-16T13:19:06Z</time>
      </trkpt>
      <trkpt lat="49.06489" lon="-0.44734">
        <ele>16.48</ele>
        <time>2018-11-16T13:19:07Z</time>
      </trkpt>
      <trkpt lat="49.06487" lon="-0.44725">
        <ele>16.48</ele>
        <time>2018-11-16T13:19:22Z</time>
      </trkpt>
      <trkpt lat="49.06484" lon="-0.44715">
        <ele>16.48</ele>
        <time>2018-11-16T13:19:33Z</time>
      </trkpt>
      <trkpt lat="49.06482" lon="-0.44695">
        <ele>16.96</ele>
        <time>2018-11-16T13:19:46Z</time>
      </trkpt>
      <trkpt lat="49.06479" lon="-0.44668">
        <ele>17.44</ele>
        <time>2018-11-16T13:20:01Z</time>
      </trkpt>
      <trkpt lat="49.06473" lon="-0.4464">
        <ele>17.92</ele>
        <time>2018-11-16T13:20:16Z</time>
      </trkpt>
      <trkpt lat="49.06467" lon="-0.44621">
        <ele>17.44</ele>
        <time>2018-11-16T13:20:33Z</time>
      </trkpt>
      <trkpt lat="49.06465" lon="-0.44614">
        <ele>17.44</ele>
        <time>2018-11-16T13:20:37Z</time>
      </trkpt>
      <trkpt lat="49.06463" lon="-0.44606">
        <ele>17.44</ele>
        <time>2018-11-16T13:20:42Z</time>
      </trkpt>
      <trkpt lat="49.06461" lon="-0.44592">
        <ele>17.44</ele>
        <time>2018-11-16T13:20:50Z</time>
      </trkpt>
      <trkpt lat="49.06456" lon="-0.44558">
        <ele>17.92</ele>
        <time>2018-11-16T13:21:09Z</time>
      </trkpt>
      <trkpt lat="49.06455" lon="-0.44529">
        <ele>18.4</ele>
        <time>2018-11-16T13:21:25Z</time>
      </trkpt>
      <trkpt lat="49.06455" lon="-0.44517">
        <ele>18.4</ele>
        <time>2018-11-16T13:21:32Z</time>
      </trkpt>
      <trkpt lat="49.06453" lon="-0.44507">
        <ele>18.4</ele>
        <time>2018-11-16T13:21:38Z</time>
      </trkpt>
      <trkpt lat="49.06453" lon="-0.44494">
        <ele>18.4</ele>
        <time>2018-11-16T13:21:45Z</time>
      </trkpt>
      <trkpt lat="49.06455" lon="-0.44464">
        <ele>18.4</ele>
        <time>2018-11-16T13:22:03Z</time>
      </trkpt>
      <trkpt lat="49.06455" lon="-0.44462">
        <ele>18.4</ele>
        <time>2018-11-16T13:22:05Z</time>
      </trkpt>
      <trkpt lat="49.06453" lon="-0.44448">
        <ele>18.4</ele>
        <time>2018-11-16T13:22:12Z</time>
      </trkpt>
      <trkpt lat="49.06453" lon="-0.44442">
        <ele>18.4</ele>
        <time>2018-11-16T13:22:15Z</time>
      </trkpt>
      <trkpt lat="49.06454" lon="-0.44418">
        <ele>18.4</ele>
        <time>2018-11-16T13:22:27Z</time>
      </trkpt>
      <trkpt lat="49.06456" lon="-0.44396">
        <ele>18.4</ele>
        <time>2018-11-16T13:22:39Z</time>
      </trkpt>
      <trkpt lat="49.06458" lon="-0.44373">
        <ele>18.4</ele>
        <time>2018-11-16T13:22:51Z</time>
      </trkpt>
      <trkpt lat="49.06458" lon="-0.44353">
        <ele>18.4</ele>
        <time>2018-11-16T13:23:01Z</time>
      </trkpt>
      <trkpt lat="49.06462" lon="-0.44326">
        <ele>16.96</ele>
        <time>2018-11-16T13:23:14Z</time>
      </trkpt>
      <trkpt lat="49.06464" lon="-0.443">
        <ele>16.96</ele>
        <time>2018-11-16T13:23:26Z</time>
      </trkpt>
      <trkpt lat="49.06466" lon="-0.44276">
        <ele>16.96</ele>
        <time>2018-11-16T13:23:38Z</time>
      </trkpt>
      <trkpt lat="49.06469" lon="-0.4425">
        <ele>16.48</ele>
        <time>2018-11-16T13:23:50Z</time>
      </trkpt>
      <trkpt lat="49.06471" lon="-0.44245">
        <ele>16.48</ele>
        <time>2018-11-16T13:23:53Z</time>
      </trkpt>
      <trkpt lat="49.06476" lon="-0.44219">
        <ele>16.48</ele>
        <time>2018-11-16T13:24:06Z</time>
      </trkpt>
      <trkpt lat="49.06478" lon="-0.44212">
        <ele>16.48</ele>
        <time>2018-11-16T13:24:10Z</time>
      </trkpt>
      <trkpt lat="49.06486" lon="-0.44183">
        <ele>16</ele>
        <time>2018-11-16T13:24:26Z</time>
      </trkpt>
      <trkpt lat="49.06488" lon="-0.44177">
        <ele>15.52</ele>
        <time>2018-11-16T13:24:29Z</time>
      </trkpt>
      <trkpt lat="49.06495" lon="-0.44145">
        <ele>15.52</ele>
        <time>2018-11-16T13:24:46Z</time>
      </trkpt>
      <trkpt lat="49.0651" lon="-0.44112">
        <ele>15.04</ele>
        <time>2018-11-16T13:25:06Z</time>
      </trkpt>
      <trkpt lat="49.06515" lon="-0.44114">
        <ele>15.04</ele>
        <time>2018-11-16T13:25:11Z</time>
      </trkpt>
      <trkpt lat="49.06522" lon="-0.44135">
        <ele>17.92</ele>
        <time>2018-11-16T13:25:28Z</time>
      </trkpt>
      <trkpt lat="49.06519" lon="-0.44148">
        <ele>20.81</ele>
        <time>2018-11-16T13:25:42Z</time>
      </trkpt>
      <trkpt lat="49.06521" lon="-0.44157">
        <ele>23.69</ele>
        <time>2018-11-16T13:25:56Z</time>
      </trkpt>
      <trkpt lat="49.06519" lon="-0.44161">
        <ele>23.69</ele>
        <time>2018-11-16T13:26:04Z</time>
      </trkpt>
      <trkpt lat="49.06515" lon="-0.44164">
        <ele>23.69</ele>
        <time>2018-11-16T13:26:09Z</time>
      </trkpt>
      <trkpt lat="49.06514" lon="-0.44166">
        <ele>23.69</ele>
        <time>2018-11-16T13:26:11Z</time>
      </trkpt>
      <trkpt lat="49.06511" lon="-0.44172">
        <ele>23.69</ele>
        <time>2018-11-16T13:26:15Z</time>
      </trkpt>
      <trkpt lat="49.06506" lon="-0.44181">
        <ele>24.17</ele>
        <time>2018-11-16T13:26:21Z</time>
      </trkpt>
      <trkpt lat="49.06504" lon="-0.44199">
        <ele>25.13</ele>
        <time>2018-11-16T13:26:34Z</time>
      </trkpt>
      <trkpt lat="49.06513" lon="-0.44201">
        <ele>28.5</ele>
        <time>2018-11-16T13:26:47Z</time>
      </trkpt>
      <trkpt lat="49.06532" lon="-0.44197">
        <ele>28.98</ele>
        <time>2018-11-16T13:27:05Z</time>
      </trkpt>
      <trkpt lat="49.06553" lon="-0.44191">
        <ele>27.53</ele>
        <time>2018-11-16T13:27:24Z</time>
      </trkpt>
      <trkpt lat="49.06574" lon="-0.44188">
        <ele>29.46</ele>
        <time>2018-11-16T13:27:41Z</time>
      </trkpt>
      <trkpt lat="49.06583" lon="-0.44188">
        <ele>29.94</ele>
        <time>2018-11-16T13:27:50Z</time>
      </trkpt>
      <trkpt lat="49.06597" lon="-0.4419">
        <ele>32.82</ele>
        <time>2018-11-16T13:28:05Z</time>
      </trkpt>
      <trkpt lat="49.06608" lon="-0.44189">
        <ele>34.74</ele>
        <time>2018-11-16T13:28:19Z</time>
      </trkpt>
      <trkpt lat="49.06627" lon="-0.44184">
        <ele>36.67</ele>
        <time>2018-11-16T13:28:36Z</time>
      </trkpt>
      <trkpt lat="49.06645" lon="-0.44182">
        <ele>38.59</ele>
        <time>2018-11-16T13:28:52Z</time>
      </trkpt>
      <trkpt lat="49.06667" lon="-0.44176">
        <ele>40.03</ele>
        <time>2018-11-16T13:29:11Z</time>
      </trkpt>
      <trkpt lat="49.06689" lon="-0.44164">
        <ele>42.44</ele>
        <time>2018-11-16T13:29:31Z</time>
      </trkpt>
      <trkpt lat="49.06707" lon="-0.44146">
        <ele>43.4</ele>
        <time>2018-11-16T13:29:47Z</time>
      </trkpt>
      <trkpt lat="49.06711" lon="-0.4414">
        <ele>43.4</ele>
        <time>2018-11-16T13:29:52Z</time>
      </trkpt>
      <trkpt lat="49.06721" lon="-0.44122">
        <ele>42.92</ele>
        <time>2018-11-16T13:30:05Z</time>
      </trkpt>
      <trkpt lat="49.06722" lon="-0.44121">
        <ele>42.92</ele>
        <time>2018-11-16T13:30:06Z</time>
      </trkpt>
      <trkpt lat="49.06735" lon="-0.44104">
        <ele>42.92</ele>
        <time>2018-11-16T13:30:20Z</time>
      </trkpt>
      <trkpt lat="49.06755" lon="-0.44082">
        <ele>43.88</ele>
        <time>2018-11-16T13:30:37Z</time>
      </trkpt>
      <trkpt lat="49.06771" lon="-0.44066">
        <ele>44.36</ele>
        <time>2018-11-16T13:30:52Z</time>
      </trkpt>
      <trkpt lat="49.06777" lon="-0.44055">
        <ele>44.36</ele>
        <time>2018-11-16T13:31:00Z</time>
      </trkpt>
      <trkpt lat="49.06789" lon="-0.44037">
        <ele>45.32</ele>
        <time>2018-11-16T13:31:15Z</time>
      </trkpt>
      <trkpt lat="49.06791" lon="-0.44035">
        <ele>45.32</ele>
        <time>2018-11-16T13:31:17Z</time>
      </trkpt>
      <trkpt lat="49.06806" lon="-0.44016">
        <ele>45.32</ele>
        <time>2018-11-16T13:31:34Z</time>
      </trkpt>
      <trkpt lat="49.06819" lon="-0.43995">
        <ele>45.32</ele>
        <time>2018-11-16T13:31:48Z</time>
      </trkpt>
      <trkpt lat="49.06834" lon="-0.43971">
        <ele>45.32</ele>
        <time>2018-11-16T13:32:04Z</time>
      </trkpt>
      <trkpt lat="49.06841" lon="-0.43961">
        <ele>45.32</ele>
        <time>2018-11-16T13:32:12Z</time>
      </trkpt>
      <trkpt lat="49.06854" lon="-0.43938">
        <ele>44.84</ele>
        <time>2018-11-16T13:32:28Z</time>
      </trkpt>
      <trkpt lat="49.06872" lon="-0.43915">
        <ele>43.88</ele>
        <time>2018-11-16T13:32:46Z</time>
      </trkpt>
      <trkpt lat="49.06882" lon="-0.43898">
        <ele>43.4</ele>
        <time>2018-11-16T13:32:58Z</time>
      </trkpt>
      <trkpt lat="49.06894" lon="-0.43883">
        <ele>43.4</ele>
        <time>2018-11-16T13:33:11Z</time>
      </trkpt>
      <trkpt lat="49.06908" lon="-0.43864">
        <ele>42.92</ele>
        <time>2018-11-16T13:33:26Z</time>
      </trkpt>
      <trkpt lat="49.06927" lon="-0.43846">
        <ele>42.92</ele>
        <time>2018-11-16T13:33:41Z</time>
      </trkpt>
      <trkpt lat="49.06934" lon="-0.43846">
        <ele>44.84</ele>
        <time>2018-11-16T13:33:48Z</time>
      </trkpt>
      <trkpt lat="49.06947" lon="-0.43857">
        <ele>47.72</ele>
        <time>2018-11-16T13:34:06Z</time>
      </trkpt>
      <trkpt lat="49.06952" lon="-0.4386">
        <ele>48.68</ele>
        <time>2018-11-16T13:34:14Z</time>
      </trkpt>
      <trkpt lat="49.06962" lon="-0.43872">
        <ele>51.09</ele>
        <time>2018-11-16T13:34:29Z</time>
      </trkpt>
      <trkpt lat="49.06973" lon="-0.43888">
        <ele>52.53</ele>
        <time>2018-11-16T13:34:44Z</time>
      </trkpt>
      <trkpt lat="49.06987" lon="-0.43877">
        <ele>53.01</ele>
        <time>2018-11-16T13:35:01Z</time>
      </trkpt>
      <trkpt lat="49.07007" lon="-0.43864">
        <ele>53.01</ele>
        <time>2018-11-16T13:35:15Z</time>
      </trkpt>
      <trkpt lat="49.07021" lon="-0.43853">
        <ele>53.97</ele>
        <time>2018-11-16T13:35:30Z</time>
      </trkpt>
      <trkpt lat="49.07041" lon="-0.43844">
        <ele>54.45</ele>
        <time>2018-11-16T13:35:44Z</time>
      </trkpt>
      <trkpt lat="49.07065" lon="-0.43833">
        <ele>54.45</ele>
        <time>2018-11-16T13:36:02Z</time>
      </trkpt>
      <trkpt lat="49.07082" lon="-0.43825">
        <ele>53.49</ele>
        <time>2018-11-16T13:36:18Z</time>
      </trkpt>
      <trkpt lat="49.07098" lon="-0.43812">
        <ele>53.01</ele>
        <time>2018-11-16T13:36:35Z</time>
      </trkpt>
      <trkpt lat="49.07111" lon="-0.43818">
        <ele>52.05</ele>
        <time>2018-11-16T13:36:49Z</time>
      </trkpt>
      <trkpt lat="49.07113" lon="-0.43827">
        <ele>52.05</ele>
        <time>2018-11-16T13:36:54Z</time>
      </trkpt>
      <trkpt lat="49.07121" lon="-0.43847">
        <ele>53.49</ele>
        <time>2018-11-16T13:37:07Z</time>
      </trkpt>
      <trkpt lat="49.07137" lon="-0.43854">
        <ele>53.49</ele>
        <time>2018-11-16T13:37:23Z</time>
      </trkpt>
      <trkpt lat="49.07156" lon="-0.43856">
        <ele>53.97</ele>
        <time>2018-11-16T13:37:37Z</time>
      </trkpt>
      <trkpt lat="49.07171" lon="-0.43854">
        <ele>54.45</ele>
        <time>2018-11-16T13:37:52Z</time>
      </trkpt>
      <trkpt lat="49.07193" lon="-0.43854">
        <ele>54.93</ele>
        <time>2018-11-16T13:38:08Z</time>
      </trkpt>
      <trkpt lat="49.07214" lon="-0.43855">
        <ele>57.34</ele>
        <time>2018-11-16T13:38:25Z</time>
      </trkpt>
      <trkpt lat="49.07237" lon="-0.43856">
        <ele>57.82</ele>
        <time>2018-11-16T13:38:43Z</time>
      </trkpt>
      <trkpt lat="49.07254" lon="-0.43854">
        <ele>58.78</ele>
        <time>2018-11-16T13:38:58Z</time>
      </trkpt>
      <trkpt lat="49.0727" lon="-0.43854">
        <ele>59.26</ele>
        <time>2018-11-16T13:39:11Z</time>
      </trkpt>
      <trkpt lat="49.07286" lon="-0.43853">
        <ele>59.74</ele>
        <time>2018-11-16T13:39:27Z</time>
      </trkpt>
      <trkpt lat="49.07303" lon="-0.43851">
        <ele>60.22</ele>
        <time>2018-11-16T13:39:41Z</time>
      </trkpt>
      <trkpt lat="49.07325" lon="-0.43849">
        <ele>61.66</ele>
        <time>2018-11-16T13:39:57Z</time>
      </trkpt>
      <trkpt lat="49.07346" lon="-0.43849">
        <ele>62.14</ele>
        <time>2018-11-16T13:40:12Z</time>
      </trkpt>
      <trkpt lat="49.07373" lon="-0.43848">
        <ele>62.14</ele>
        <time>2018-11-16T13:40:28Z</time>
      </trkpt>
      <trkpt lat="49.07391" lon="-0.43849">
        <ele>62.14</ele>
        <time>2018-11-16T13:40:45Z</time>
      </trkpt>
      <trkpt lat="49.07393" lon="-0.43837">
        <ele>62.14</ele>
        <time>2018-11-16T13:41:04Z</time>
      </trkpt>
      <trkpt lat="49.07389" lon="-0.43812">
        <ele>61.18</ele>
        <time>2018-11-16T13:41:18Z</time>
      </trkpt>
      <trkpt lat="49.07387" lon="-0.43783">
        <ele>60.7</ele>
        <time>2018-11-16T13:41:32Z</time>
      </trkpt>
      <trkpt lat="49.07383" lon="-0.43755">
        <ele>60.22</ele>
        <time>2018-11-16T13:41:46Z</time>
      </trkpt>
      <trkpt lat="49.07377" lon="-0.43724">
        <ele>59.74</ele>
        <time>2018-11-16T13:42:02Z</time>
      </trkpt>
      <trkpt lat="49.07373" lon="-0.43688">
        <ele>59.26</ele>
        <time>2018-11-16T13:42:19Z</time>
      </trkpt>
      <trkpt lat="49.07373" lon="-0.43677">
        <ele>59.26</ele>
        <time>2018-11-16T13:42:24Z</time>
      </trkpt>
      <trkpt lat="49.07385" lon="-0.43642">
        <ele>59.26</ele>
        <time>2018-11-16T13:42:44Z</time>
      </trkpt>
      <trkpt lat="49.07396" lon="-0.43614">
        <ele>58.78</ele>
        <time>2018-11-16T13:43:02Z</time>
      </trkpt>
      <trkpt lat="49.07407" lon="-0.43592">
        <ele>58.3</ele>
        <time>2018-11-16T13:43:16Z</time>
      </trkpt>
      <trkpt lat="49.07421" lon="-0.43569">
        <ele>57.34</ele>
        <time>2018-11-16T13:43:33Z</time>
      </trkpt>
      <trkpt lat="49.07441" lon="-0.43547">
        <ele>56.86</ele>
        <time>2018-11-16T13:43:50Z</time>
      </trkpt>
      <trkpt lat="49.07454" lon="-0.43526">
        <ele>56.86</ele>
        <time>2018-11-16T13:44:07Z</time>
      </trkpt>
      <trkpt lat="49.07471" lon="-0.43506">
        <ele>56.37</ele>
        <time>2018-11-16T13:44:23Z</time>
      </trkpt>
      <trkpt lat="49.07489" lon="-0.43485">
        <ele>56.37</ele>
        <time>2018-11-16T13:44:39Z</time>
      </trkpt>
      <trkpt lat="49.07501" lon="-0.43466">
        <ele>56.37</ele>
        <time>2018-11-16T13:44:55Z</time>
      </trkpt>
      <trkpt lat="49.07513" lon="-0.43445">
        <ele>55.89</ele>
        <time>2018-11-16T13:45:10Z</time>
      </trkpt>
      <trkpt lat="49.0752" lon="-0.43438">
        <ele>55.89</ele>
        <time>2018-11-16T13:45:15Z</time>
      </trkpt>
      <trkpt lat="49.07538" lon="-0.43417">
        <ele>55.41</ele>
        <time>2018-11-16T13:45:31Z</time>
      </trkpt>
      <trkpt lat="49.07557" lon="-0.43399">
        <ele>54.93</ele>
        <time>2018-11-16T13:45:47Z</time>
      </trkpt>
      <trkpt lat="49.07576" lon="-0.43377">
        <ele>54.45</ele>
        <time>2018-11-16T13:46:02Z</time>
      </trkpt>
      <trkpt lat="49.07591" lon="-0.43357">
        <ele>53.49</ele>
        <time>2018-11-16T13:46:19Z</time>
      </trkpt>
      <trkpt lat="49.07608" lon="-0.43336">
        <ele>53.01</ele>
        <time>2018-11-16T13:46:35Z</time>
      </trkpt>
      <trkpt lat="49.07621" lon="-0.43318">
        <ele>52.53</ele>
        <time>2018-11-16T13:46:49Z</time>
      </trkpt>
      <trkpt lat="49.07636" lon="-0.43299">
        <ele>52.05</ele>
        <time>2018-11-16T13:47:04Z</time>
      </trkpt>
      <trkpt lat="49.07638" lon="-0.43296">
        <ele>52.05</ele>
        <time>2018-11-16T13:47:06Z</time>
      </trkpt>
      <trkpt lat="49.07655" lon="-0.43275">
        <ele>51.57</ele>
        <time>2018-11-16T13:47:23Z</time>
      </trkpt>
      <trkpt lat="49.07673" lon="-0.43255">
        <ele>50.61</ele>
        <time>2018-11-16T13:47:39Z</time>
      </trkpt>
      <trkpt lat="49.07692" lon="-0.43233">
        <ele>49.65</ele>
        <time>2018-11-16T13:47:57Z</time>
      </trkpt>
      <trkpt lat="49.07707" lon="-0.43212">
        <ele>48.68</ele>
        <time>2018-11-16T13:48:14Z</time>
      </trkpt>
      <trkpt lat="49.07727" lon="-0.43189">
        <ele>47.24</ele>
        <time>2018-11-16T13:48:32Z</time>
      </trkpt>
      <trkpt lat="49.07744" lon="-0.4317">
        <ele>46.76</ele>
        <time>2018-11-16T13:48:48Z</time>
      </trkpt>
      <trkpt lat="49.07762" lon="-0.43153">
        <ele>45.32</ele>
        <time>2018-11-16T13:49:02Z</time>
      </trkpt>
      <trkpt lat="49.07781" lon="-0.43137">
        <ele>44.84</ele>
        <time>2018-11-16T13:49:18Z</time>
      </trkpt>
      <trkpt lat="49.07797" lon="-0.43125">
        <ele>43.88</ele>
        <time>2018-11-16T13:49:32Z</time>
      </trkpt>
      <trkpt lat="49.07813" lon="-0.43112">
        <ele>42.44</ele>
        <time>2018-11-16T13:49:48Z</time>
      </trkpt>
      <trkpt lat="49.07832" lon="-0.43097">
        <ele>41.47</ele>
        <time>2018-11-16T13:50:04Z</time>
      </trkpt>
      <trkpt lat="49.07833" lon="-0.43097">
        <ele>41.47</ele>
        <time>2018-11-16T13:50:05Z</time>
      </trkpt>
      <trkpt lat="49.07844" lon="-0.43088">
        <ele>40.51</ele>
        <time>2018-11-16T13:50:14Z</time>
      </trkpt>
      <trkpt lat="49.07865" lon="-0.4307">
        <ele>40.03</ele>
        <time>2018-11-16T13:50:32Z</time>
      </trkpt>
      <trkpt lat="49.07887" lon="-0.43054">
        <ele>39.07</ele>
        <time>2018-11-16T13:50:49Z</time>
      </trkpt>
      <trkpt lat="49.07905" lon="-0.43049">
        <ele>38.59</ele>
        <time>2018-11-16T13:51:04Z</time>
      </trkpt>
      <trkpt lat="49.07913" lon="-0.43054">
        <ele>38.59</ele>
        <time>2018-11-16T13:51:16Z</time>
      </trkpt>
      <trkpt lat="49.07913" lon="-0.43042">
        <ele>38.11</ele>
        <time>2018-11-16T13:51:23Z</time>
      </trkpt>
      <trkpt lat="49.07919" lon="-0.43029">
        <ele>38.11</ele>
        <time>2018-11-16T13:51:36Z</time>
      </trkpt>
      <trkpt lat="49.07932" lon="-0.43016">
        <ele>36.67</ele>
        <time>2018-11-16T13:51:51Z</time>
      </trkpt>
      <trkpt lat="49.0795" lon="-0.43002">
        <ele>35.23</ele>
        <time>2018-11-16T13:52:06Z</time>
      </trkpt>
      <trkpt lat="49.07953" lon="-0.43">
        <ele>34.74</ele>
        <time>2018-11-16T13:52:08Z</time>
      </trkpt>
      <trkpt lat="49.07972" lon="-0.42986">
        <ele>33.3</ele>
        <time>2018-11-16T13:52:24Z</time>
      </trkpt>
      <trkpt lat="49.07976" lon="-0.42983">
        <ele>32.82</ele>
        <time>2018-11-16T13:52:29Z</time>
      </trkpt>
      <trkpt lat="49.07998" lon="-0.42968">
        <ele>31.38</ele>
        <time>2018-11-16T13:52:45Z</time>
      </trkpt>
      <trkpt lat="49.0801" lon="-0.42958">
        <ele>30.42</ele>
        <time>2018-11-16T13:52:55Z</time>
      </trkpt>
      <trkpt lat="49.08031" lon="-0.42944">
        <ele>28.98</ele>
        <time>2018-11-16T13:53:12Z</time>
      </trkpt>
      <trkpt lat="49.08041" lon="-0.42932">
        <ele>27.53</ele>
        <time>2018-11-16T13:53:26Z</time>
      </trkpt>
      <trkpt lat="49.08053" lon="-0.42923">
        <ele>26.09</ele>
        <time>2018-11-16T13:53:37Z</time>
      </trkpt>
      <trkpt lat="49.08064" lon="-0.42912">
        <ele>25.13</ele>
        <time>2018-11-16T13:53:47Z</time>
      </trkpt>
      <trkpt lat="49.08084" lon="-0.42888">
        <ele>22.25</ele>
        <time>2018-11-16T13:54:04Z</time>
      </trkpt>
      <trkpt lat="49.08102" lon="-0.42867">
        <ele>19.84</ele>
        <time>2018-11-16T13:54:19Z</time>
      </trkpt>
      <trkpt lat="49.08114" lon="-0.42849">
        <ele>16.48</ele>
        <time>2018-11-16T13:54:34Z</time>
      </trkpt>
      <trkpt lat="49.08125" lon="-0.42825">
        <ele>13.6</ele>
        <time>2018-11-16T13:54:51Z</time>
      </trkpt>
      <trkpt lat="49.08136" lon="-0.42805">
        <ele>11.19</ele>
        <time>2018-11-16T13:55:06Z</time>
      </trkpt>
      <trkpt lat="49.08143" lon="-0.42795">
        <ele>9.75</ele>
        <time>2018-11-16T13:55:19Z</time>
      </trkpt>
      <trkpt lat="49.08161" lon="-0.42777">
        <ele>7.35</ele>
        <time>2018-11-16T13:55:37Z</time>
      </trkpt>
      <trkpt lat="49.08181" lon="-0.42762">
        <ele>5.42</ele>
        <time>2018-11-16T13:55:53Z</time>
      </trkpt>
      <trkpt lat="49.08208" lon="-0.42747">
        <ele>4.46</ele>
        <time>2018-11-16T13:56:09Z</time>
      </trkpt>
      <trkpt lat="49.08209" lon="-0.42746">
        <ele>4.46</ele>
        <time>2018-11-16T13:56:11Z</time>
      </trkpt>
      <trkpt lat="49.0823" lon="-0.42734">
        <ele>3.98</ele>
        <time>2018-11-16T13:56:27Z</time>
      </trkpt>
      <trkpt lat="49.08247" lon="-0.42729">
        <ele>3.5</ele>
        <time>2018-11-16T13:56:43Z</time>
      </trkpt>
      <trkpt lat="49.08261" lon="-0.42725">
        <ele>3.02</ele>
        <time>2018-11-16T13:56:55Z</time>
      </trkpt>
      <trkpt lat="49.08278" lon="-0.42718">
        <ele>2.54</ele>
        <time>2018-11-16T13:57:09Z</time>
      </trkpt>
      <trkpt lat="49.08304" lon="-0.42704">
        <ele>2.54</ele>
        <time>2018-11-16T13:57:25Z</time>
      </trkpt>
      <trkpt lat="49.08324" lon="-0.42691">
        <ele>2.06</ele>
        <time>2018-11-16T13:57:43Z</time>
      </trkpt>
      <trkpt lat="49.08345" lon="-0.42682">
        <ele>2.06</ele>
        <time>2018-11-16T13:57:58Z</time>
      </trkpt>
      <trkpt lat="49.08366" lon="-0.42676">
        <ele>1.58</ele>
        <time>2018-11-16T13:58:15Z</time>
      </trkpt>
      <trkpt lat="49.08382" lon="-0.42671">
        <ele>1.58</ele>
        <time>2018-11-16T13:58:31Z</time>
      </trkpt>
      <trkpt lat="49.08409" lon="-0.42661">
        <ele>1.58</ele>
        <time>2018-11-16T13:58:49Z</time>
      </trkpt>
      <trkpt lat="49.0843" lon="-0.42651">
        <ele>1.58</ele>
        <time>2018-11-16T13:59:06Z</time>
      </trkpt>
      <trkpt lat="49.08446" lon="-0.42643">
        <ele>1.58</ele>
        <time>2018-11-16T13:59:22Z</time>
      </trkpt>
      <trkpt lat="49.08466" lon="-0.42624">
        <ele>1.58</ele>
        <time>2018-11-16T13:59:38Z</time>
      </trkpt>
      <trkpt lat="49.08487" lon="-0.42614">
        <ele>1.58</ele>
        <time>2018-11-16T13:59:55Z</time>
      </trkpt>
      <trkpt lat="49.08513" lon="-0.42604">
        <ele>1.58</ele>
        <time>2018-11-16T14:00:13Z</time>
      </trkpt>
      <trkpt lat="49.08522" lon="-0.426">
        <ele>1.58</ele>
        <time>2018-11-16T14:00:20Z</time>
      </trkpt>
      <trkpt lat="49.08525" lon="-0.42598">
        <ele>1.58</ele>
        <time>2018-11-16T14:00:22Z</time>
      </trkpt>
      <trkpt lat="49.08552" lon="-0.42591">
        <ele>1.58</ele>
        <time>2018-11-16T14:00:43Z</time>
      </trkpt>
      <trkpt lat="49.08564" lon="-0.42576">
        <ele>3.02</ele>
        <time>2018-11-16T14:00:54Z</time>
      </trkpt>
      <trkpt lat="49.08565" lon="-0.42574">
        <ele>3.02</ele>
        <time>2018-11-16T14:00:56Z</time>
      </trkpt>
      <trkpt lat="49.08568" lon="-0.42572">
        <ele>3.02</ele>
        <time>2018-11-16T14:00:59Z</time>
      </trkpt>
      <trkpt lat="49.08572" lon="-0.42563">
        <ele>3.02</ele>
        <time>2018-11-16T14:01:08Z</time>
      </trkpt>
      <trkpt lat="49.08586" lon="-0.42578">
        <ele>3.02</ele>
        <time>2018-11-16T14:01:23Z</time>
      </trkpt>
      <trkpt lat="49.08592" lon="-0.42583">
        <ele>3.02</ele>
        <time>2018-11-16T14:01:36Z</time>
      </trkpt>
      <trkpt lat="49.08592" lon="-0.42582">
        <ele>3.02</ele>
        <time>2018-11-16T14:01:47Z</time>
      </trkpt>
      <trkpt lat="49.08594" lon="-0.42582">
        <ele>2.06</ele>
        <time>2018-11-16T14:02:17Z</time>
      </trkpt>
      <trkpt lat="49.08595" lon="-0.42585">
        <ele>2.06</ele>
        <time>2018-11-16T14:02:45Z</time>
      </trkpt>
      <trkpt lat="49.08592" lon="-0.42587">
        <ele>2.06</ele>
        <time>2018-11-16T14:03:15Z</time>
      </trkpt>
      <trkpt lat="49.08589" lon="-0.42583">
        <ele>3.98</ele>
        <time>2018-11-16T14:03:31Z</time>
      </trkpt>
      <trkpt lat="49.08595" lon="-0.42578">
        <ele>2.54</ele>
        <time>2018-11-16T14:03:44Z</time>
      </trkpt>
      <trkpt lat="49.08594" lon="-0.42578">
        <ele>3.98</ele>
        <time>2018-11-16T14:03:55Z</time>
      </trkpt>
      <trkpt lat="49.08592" lon="-0.42583">
        <ele>3.98</ele>
        <time>2018-11-16T14:04:13Z</time>
      </trkpt>
      <trkpt lat="49.08586" lon="-0.42577">
        <ele>3.98</ele>
        <time>2018-11-16T14:04:22Z</time>
      </trkpt>
      <trkpt lat="49.08602" lon="-0.42565">
        <ele>3.02</ele>
        <time>2018-11-16T14:04:38Z</time>
      </trkpt>
      <trkpt lat="49.08626" lon="-0.42553">
        <ele>2.06</ele>
        <time>2018-11-16T14:04:58Z</time>
      </trkpt>
      <trkpt lat="49.08649" lon="-0.42541">
        <ele>1.58</ele>
        <time>2018-11-16T14:05:17Z</time>
      </trkpt>
      <trkpt lat="49.08668" lon="-0.42543">
        <ele>1.58</ele>
        <time>2018-11-16T14:05:31Z</time>
      </trkpt>
      <trkpt lat="49.08683" lon="-0.42552">
        <ele>3.02</ele>
        <time>2018-11-16T14:05:45Z</time>
      </trkpt>
      <trkpt lat="49.08697" lon="-0.42561">
        <ele>3.02</ele>
        <time>2018-11-16T14:05:58Z</time>
      </trkpt>
      <trkpt lat="49.08718" lon="-0.4256">
        <ele>3.98</ele>
        <time>2018-11-16T14:06:13Z</time>
      </trkpt>
      <trkpt lat="49.0872" lon="-0.4256">
        <ele>4.46</ele>
        <time>2018-11-16T14:06:16Z</time>
      </trkpt>
      <trkpt lat="49.08724" lon="-0.42562">
        <ele>4.46</ele>
        <time>2018-11-16T14:06:20Z</time>
      </trkpt>
      <trkpt lat="49.08732" lon="-0.42562">
        <ele>4.94</ele>
        <time>2018-11-16T14:06:26Z</time>
      </trkpt>
      <trkpt lat="49.0875" lon="-0.4256">
        <ele>5.91</ele>
        <time>2018-11-16T14:06:39Z</time>
      </trkpt>
      <trkpt lat="49.08759" lon="-0.42561">
        <ele>6.87</ele>
        <time>2018-11-16T14:06:46Z</time>
      </trkpt>
      <trkpt lat="49.08769" lon="-0.42564">
        <ele>7.83</ele>
        <time>2018-11-16T14:06:53Z</time>
      </trkpt>
      <trkpt lat="49.08771" lon="-0.42564">
        <ele>7.83</ele>
        <time>2018-11-16T14:06:55Z</time>
      </trkpt>
      <trkpt lat="49.08791" lon="-0.42571">
        <ele>9.27</ele>
        <time>2018-11-16T14:07:12Z</time>
      </trkpt>
      <trkpt lat="49.08807" lon="-0.42573">
        <ele>10.23</ele>
        <time>2018-11-16T14:07:26Z</time>
      </trkpt>
      <trkpt lat="49.08828" lon="-0.4257">
        <ele>12.63</ele>
        <time>2018-11-16T14:07:43Z</time>
      </trkpt>
      <trkpt lat="49.08846" lon="-0.42564">
        <ele>14.08</ele>
        <time>2018-11-16T14:07:59Z</time>
      </trkpt>
      <trkpt lat="49.08866" lon="-0.42557">
        <ele>16</ele>
        <time>2018-11-16T14:08:16Z</time>
      </trkpt>
      <trkpt lat="49.08885" lon="-0.42544">
        <ele>18.4</ele>
        <time>2018-11-16T14:08:33Z</time>
      </trkpt>
      <trkpt lat="49.08888" lon="-0.42541">
        <ele>18.88</ele>
        <time>2018-11-16T14:08:37Z</time>
      </trkpt>
      <trkpt lat="49.08903" lon="-0.4254">
        <ele>20.81</ele>
        <time>2018-11-16T14:08:53Z</time>
      </trkpt>
      <trkpt lat="49.08918" lon="-0.42546">
        <ele>23.21</ele>
        <time>2018-11-16T14:09:09Z</time>
      </trkpt>
      <trkpt lat="49.08933" lon="-0.42559">
        <ele>26.57</ele>
        <time>2018-11-16T14:09:27Z</time>
      </trkpt>
      <trkpt lat="49.08939" lon="-0.42569">
        <ele>28.02</ele>
        <time>2018-11-16T14:09:41Z</time>
      </trkpt>
      <trkpt lat="49.0895" lon="-0.42579">
        <ele>28.98</ele>
        <time>2018-11-16T14:09:54Z</time>
      </trkpt>
      <trkpt lat="49.08967" lon="-0.42597">
        <ele>30.9</ele>
        <time>2018-11-16T14:10:12Z</time>
      </trkpt>
      <trkpt lat="49.08983" lon="-0.42615">
        <ele>32.34</ele>
        <time>2018-11-16T14:10:30Z</time>
      </trkpt>
      <trkpt lat="49.08999" lon="-0.42627">
        <ele>33.78</ele>
        <time>2018-11-16T14:10:45Z</time>
      </trkpt>
      <trkpt lat="49.09018" lon="-0.42643">
        <ele>35.71</ele>
        <time>2018-11-16T14:11:05Z</time>
      </trkpt>
      <trkpt lat="49.09036" lon="-0.42657">
        <ele>37.63</ele>
        <time>2018-11-16T14:11:22Z</time>
      </trkpt>
      <trkpt lat="49.09058" lon="-0.42671">
        <ele>39.55</ele>
        <time>2018-11-16T14:11:41Z</time>
      </trkpt>
      <trkpt lat="49.09077" lon="-0.42678">
        <ele>40.99</ele>
        <time>2018-11-16T14:11:58Z</time>
      </trkpt>
      <trkpt lat="49.09098" lon="-0.42689">
        <ele>42.44</ele>
        <time>2018-11-16T14:12:16Z</time>
      </trkpt>
      <trkpt lat="49.09119" lon="-0.42699">
        <ele>43.88</ele>
        <time>2018-11-16T14:12:34Z</time>
      </trkpt>
      <trkpt lat="49.09142" lon="-0.42711">
        <ele>45.32</ele>
        <time>2018-11-16T14:12:54Z</time>
      </trkpt>
      <trkpt lat="49.09157" lon="-0.42719">
        <ele>46.28</ele>
        <time>2018-11-16T14:13:07Z</time>
      </trkpt>
      <trkpt lat="49.09174" lon="-0.42727">
        <ele>47.72</ele>
        <time>2018-11-16T14:13:22Z</time>
      </trkpt>
      <trkpt lat="49.09191" lon="-0.42736">
        <ele>49.16</ele>
        <time>2018-11-16T14:13:36Z</time>
      </trkpt>
      <trkpt lat="49.09195" lon="-0.42738">
        <ele>49.65</ele>
        <time>2018-11-16T14:13:50Z</time>
      </trkpt>
      <trkpt lat="49.09217" lon="-0.42748">
        <ele>50.61</ele>
        <time>2018-11-16T14:14:09Z</time>
      </trkpt>
      <trkpt lat="49.09241" lon="-0.42758">
        <ele>51.57</ele>
        <time>2018-11-16T14:14:27Z</time>
      </trkpt>
      <trkpt lat="49.09261" lon="-0.42767">
        <ele>52.53</ele>
        <time>2018-11-16T14:14:43Z</time>
      </trkpt>
      <trkpt lat="49.09286" lon="-0.42775">
        <ele>53.49</ele>
        <time>2018-11-16T14:15:03Z</time>
      </trkpt>
      <trkpt lat="49.09305" lon="-0.42784">
        <ele>53.49</ele>
        <time>2018-11-16T14:15:19Z</time>
      </trkpt>
      <trkpt lat="49.0931" lon="-0.42786">
        <ele>54.45</ele>
        <time>2018-11-16T14:15:33Z</time>
      </trkpt>
      <trkpt lat="49.09311" lon="-0.42786">
        <ele>54.93</ele>
        <time>2018-11-16T14:15:44Z</time>
      </trkpt>
      <trkpt lat="49.09327" lon="-0.42794">
        <ele>54.93</ele>
        <time>2018-11-16T14:15:58Z</time>
      </trkpt>
      <trkpt lat="49.09347" lon="-0.42806">
        <ele>56.37</ele>
        <time>2018-11-16T14:16:15Z</time>
      </trkpt>
      <trkpt lat="49.09375" lon="-0.42821">
        <ele>56.86</ele>
        <time>2018-11-16T14:16:37Z</time>
      </trkpt>
      <trkpt lat="49.09403" lon="-0.42839">
        <ele>57.34</ele>
        <time>2018-11-16T14:17:00Z</time>
      </trkpt>
      <trkpt lat="49.09426" lon="-0.42853">
        <ele>57.82</ele>
        <time>2018-11-16T14:17:19Z</time>
      </trkpt>
      <trkpt lat="49.09447" lon="-0.42867">
        <ele>58.78</ele>
        <time>2018-11-16T14:17:37Z</time>
      </trkpt>
      <trkpt lat="49.09468" lon="-0.42883">
        <ele>59.26</ele>
        <time>2018-11-16T14:17:55Z</time>
      </trkpt>
      <trkpt lat="49.09496" lon="-0.42904">
        <ele>59.74</ele>
        <time>2018-11-16T14:18:19Z</time>
      </trkpt>
      <trkpt lat="49.09503" lon="-0.42909">
        <ele>60.22</ele>
        <time>2018-11-16T14:18:33Z</time>
      </trkpt>
      <trkpt lat="49.09524" lon="-0.42914">
        <ele>61.18</ele>
        <time>2018-11-16T14:18:51Z</time>
      </trkpt>
      <trkpt lat="49.09543" lon="-0.42906">
        <ele>61.18</ele>
        <time>2018-11-16T14:19:07Z</time>
      </trkpt>
      <trkpt lat="49.09566" lon="-0.42899">
        <ele>61.18</ele>
        <time>2018-11-16T14:19:24Z</time>
      </trkpt>
      <trkpt lat="49.09585" lon="-0.42894">
        <ele>61.18</ele>
        <time>2018-11-16T14:19:41Z</time>
      </trkpt>
      <trkpt lat="49.0959" lon="-0.42892">
        <ele>61.18</ele>
        <time>2018-11-16T14:19:45Z</time>
      </trkpt>
      <trkpt lat="49.09616" lon="-0.42886">
        <ele>59.74</ele>
        <time>2018-11-16T14:20:05Z</time>
      </trkpt>
      <trkpt lat="49.09637" lon="-0.42882">
        <ele>59.26</ele>
        <time>2018-11-16T14:20:23Z</time>
      </trkpt>
      <trkpt lat="49.09658" lon="-0.42875">
        <ele>59.26</ele>
        <time>2018-11-16T14:20:40Z</time>
      </trkpt>
      <trkpt lat="49.09678" lon="-0.42869">
        <ele>59.26</ele>
        <time>2018-11-16T14:20:57Z</time>
      </trkpt>
      <trkpt lat="49.09705" lon="-0.42861">
        <ele>59.26</ele>
        <time>2018-11-16T14:21:19Z</time>
      </trkpt>
      <trkpt lat="49.09717" lon="-0.42857">
        <ele>58.78</ele>
        <time>2018-11-16T14:21:28Z</time>
      </trkpt>
      <trkpt lat="49.09739" lon="-0.42848">
        <ele>57.82</ele>
        <time>2018-11-16T14:21:46Z</time>
      </trkpt>
      <trkpt lat="49.0976" lon="-0.42841">
        <ele>57.82</ele>
        <time>2018-11-16T14:22:03Z</time>
      </trkpt>
      <trkpt lat="49.09782" lon="-0.42835">
        <ele>57.34</ele>
        <time>2018-11-16T14:22:19Z</time>
      </trkpt>
      <trkpt lat="49.09806" lon="-0.42826">
        <ele>56.86</ele>
        <time>2018-11-16T14:22:38Z</time>
      </trkpt>
      <trkpt lat="49.09814" lon="-0.42822">
        <ele>56.86</ele>
        <time>2018-11-16T14:22:44Z</time>
      </trkpt>
      <trkpt lat="49.09835" lon="-0.42811">
        <ele>56.37</ele>
        <time>2018-11-16T14:23:00Z</time>
      </trkpt>
      <trkpt lat="49.09855" lon="-0.42801">
        <ele>55.89</ele>
        <time>2018-11-16T14:23:17Z</time>
      </trkpt>
      <trkpt lat="49.09865" lon="-0.42795">
        <ele>55.89</ele>
        <time>2018-11-16T14:23:25Z</time>
      </trkpt>
      <trkpt lat="49.09888" lon="-0.42784">
        <ele>55.41</ele>
        <time>2018-11-16T14:23:44Z</time>
      </trkpt>
      <trkpt lat="49.0991" lon="-0.42771">
        <ele>54.93</ele>
        <time>2018-11-16T14:24:03Z</time>
      </trkpt>
      <trkpt lat="49.0993" lon="-0.42759">
        <ele>55.41</ele>
        <time>2018-11-16T14:24:21Z</time>
      </trkpt>
      <trkpt lat="49.09943" lon="-0.42751">
        <ele>54.45</ele>
        <time>2018-11-16T14:24:38Z</time>
      </trkpt>
      <trkpt lat="49.09943" lon="-0.42751">
        <ele>54.45</ele>
        <time>2018-11-16T14:25:07Z</time>
      </trkpt>
      <trkpt lat="49.09942" lon="-0.42753">
        <ele>54.45</ele>
        <time>2018-11-16T14:25:33Z</time>
      </trkpt>
      <trkpt lat="49.09947" lon="-0.42751">
        <ele>54.45</ele>
        <time>2018-11-16T14:26:02Z</time>
      </trkpt>
      <trkpt lat="49.0996" lon="-0.42754">
        <ele>54.45</ele>
        <time>2018-11-16T14:26:14Z</time>
      </trkpt>
      <trkpt lat="49.09967" lon="-0.42786">
        <ele>54.45</ele>
        <time>2018-11-16T14:26:33Z</time>
      </trkpt>
      <trkpt lat="49.09972" lon="-0.42818">
        <ele>54.45</ele>
        <time>2018-11-16T14:26:51Z</time>
      </trkpt>
      <trkpt lat="49.09977" lon="-0.42853">
        <ele>54.45</ele>
        <time>2018-11-16T14:27:10Z</time>
      </trkpt>
      <trkpt lat="49.09977" lon="-0.42855">
        <ele>54.45</ele>
        <time>2018-11-16T14:27:11Z</time>
      </trkpt>
      <trkpt lat="49.09981" lon="-0.42891">
        <ele>54.45</ele>
        <time>2018-11-16T14:27:29Z</time>
      </trkpt>
      <trkpt lat="49.09985" lon="-0.4293">
        <ele>54.93</ele>
        <time>2018-11-16T14:27:49Z</time>
      </trkpt>
      <trkpt lat="49.0999" lon="-0.4296">
        <ele>54.45</ele>
        <time>2018-11-16T14:28:05Z</time>
      </trkpt>
      <trkpt lat="49.09992" lon="-0.42993">
        <ele>54.45</ele>
        <time>2018-11-16T14:28:22Z</time>
      </trkpt>
      <trkpt lat="49.09996" lon="-0.4303">
        <ele>53.97</ele>
        <time>2018-11-16T14:28:42Z</time>
      </trkpt>
      <trkpt lat="49.10001" lon="-0.43073">
        <ele>53.49</ele>
        <time>2018-11-16T14:29:04Z</time>
      </trkpt>
      <trkpt lat="49.10003" lon="-0.43112">
        <ele>52.05</ele>
        <time>2018-11-16T14:29:24Z</time>
      </trkpt>
      <trkpt lat="49.10006" lon="-0.43141">
        <ele>51.57</ele>
        <time>2018-11-16T14:29:39Z</time>
      </trkpt>
      <trkpt lat="49.10009" lon="-0.4317">
        <ele>51.09</ele>
        <time>2018-11-16T14:29:54Z</time>
      </trkpt>
      <trkpt lat="49.10011" lon="-0.43197">
        <ele>51.09</ele>
        <time>2018-11-16T14:30:07Z</time>
      </trkpt>
      <trkpt lat="49.10014" lon="-0.43238">
        <ele>51.09</ele>
        <time>2018-11-16T14:30:28Z</time>
      </trkpt>
      <trkpt lat="49.10018" lon="-0.43278">
        <ele>50.61</ele>
        <time>2018-11-16T14:30:49Z</time>
      </trkpt>
      <trkpt lat="49.1002" lon="-0.4331">
        <ele>49.65</ele>
        <time>2018-11-16T14:31:07Z</time>
      </trkpt>
      <trkpt lat="49.10022" lon="-0.43339">
        <ele>49.16</ele>
        <time>2018-11-16T14:31:22Z</time>
      </trkpt>
      <trkpt lat="49.10021" lon="-0.43346">
        <ele>49.16</ele>
        <time>2018-11-16T14:31:34Z</time>
      </trkpt>
      <trkpt lat="49.10024" lon="-0.4338">
        <ele>49.16</ele>
        <time>2018-11-16T14:31:52Z</time>
      </trkpt>
      <trkpt lat="49.10026" lon="-0.4341">
        <ele>48.68</ele>
        <time>2018-11-16T14:32:07Z</time>
      </trkpt>
      <trkpt lat="49.10029" lon="-0.43443">
        <ele>48.2</ele>
        <time>2018-11-16T14:32:23Z</time>
      </trkpt>
      <trkpt lat="49.10031" lon="-0.43466">
        <ele>48.2</ele>
        <time>2018-11-16T14:32:35Z</time>
      </trkpt>
      <trkpt lat="49.10031" lon="-0.43479">
        <ele>47.72</ele>
        <time>2018-11-16T14:32:42Z</time>
      </trkpt>
      <trkpt lat="49.10032" lon="-0.43487">
        <ele>47.72</ele>
        <time>2018-11-16T14:32:46Z</time>
      </trkpt>
      <trkpt lat="49.10035" lon="-0.43521">
        <ele>47.72</ele>
        <time>2018-11-16T14:33:03Z</time>
      </trkpt>
      <trkpt lat="49.1004" lon="-0.4356">
        <ele>47.72</ele>
        <time>2018-11-16T14:33:23Z</time>
      </trkpt>
      <trkpt lat="49.10045" lon="-0.43598">
        <ele>46.76</ele>
        <time>2018-11-16T14:33:42Z</time>
      </trkpt>
      <trkpt lat="49.1005" lon="-0.43633">
        <ele>46.76</ele>
        <time>2018-11-16T14:34:01Z</time>
      </trkpt>
      <trkpt lat="49.10054" lon="-0.43665">
        <ele>46.76</ele>
        <time>2018-11-16T14:34:19Z</time>
      </trkpt>
      <trkpt lat="49.10056" lon="-0.43686">
        <ele>46.28</ele>
        <time>2018-11-16T14:34:31Z</time>
      </trkpt>
      <trkpt lat="49.10061" lon="-0.43727">
        <ele>45.8</ele>
        <time>2018-11-16T14:34:52Z</time>
      </trkpt>
      <trkpt lat="49.10064" lon="-0.4377">
        <ele>45.8</ele>
        <time>2018-11-16T14:35:14Z</time>
      </trkpt>
      <trkpt lat="49.10069" lon="-0.43811">
        <ele>44.84</ele>
        <time>2018-11-16T14:35:36Z</time>
      </trkpt>
      <trkpt lat="49.10068" lon="-0.43838">
        <ele>44.84</ele>
        <time>2018-11-16T14:35:52Z</time>
      </trkpt>
      <trkpt lat="49.1007" lon="-0.43877">
        <ele>44.84</ele>
        <time>2018-11-16T14:36:11Z</time>
      </trkpt>
      <trkpt lat="49.1007" lon="-0.43906">
        <ele>43.4</ele>
        <time>2018-11-16T14:36:27Z</time>
      </trkpt>
      <trkpt lat="49.10091" lon="-0.43914">
        <ele>42.44</ele>
        <time>2018-11-16T14:36:45Z</time>
      </trkpt>
      <trkpt lat="49.10112" lon="-0.43919">
        <ele>40.99</ele>
        <time>2018-11-16T14:37:02Z</time>
      </trkpt>
      <trkpt lat="49.10134" lon="-0.43923">
        <ele>39.55</ele>
        <time>2018-11-16T14:37:20Z</time>
      </trkpt>
      <trkpt lat="49.10136" lon="-0.43925">
        <ele>39.55</ele>
        <time>2018-11-16T14:37:22Z</time>
      </trkpt>
      <trkpt lat="49.10153" lon="-0.43933">
        <ele>38.11</ele>
        <time>2018-11-16T14:37:37Z</time>
      </trkpt>
      <trkpt lat="49.10173" lon="-0.43942">
        <ele>36.19</ele>
        <time>2018-11-16T14:37:54Z</time>
      </trkpt>
      <trkpt lat="49.10198" lon="-0.43935">
        <ele>34.74</ele>
        <time>2018-11-16T14:38:14Z</time>
      </trkpt>
      <trkpt lat="49.1022" lon="-0.43921">
        <ele>33.3</ele>
        <time>2018-11-16T14:38:33Z</time>
      </trkpt>
      <trkpt lat="49.1024" lon="-0.43899">
        <ele>32.34</ele>
        <time>2018-11-16T14:38:50Z</time>
      </trkpt>
      <trkpt lat="49.10253" lon="-0.43886">
        <ele>32.34</ele>
        <time>2018-11-16T14:39:05Z</time>
      </trkpt>
      <trkpt lat="49.10265" lon="-0.43874">
        <ele>32.34</ele>
        <time>2018-11-16T14:39:18Z</time>
      </trkpt>
      <trkpt lat="49.10281" lon="-0.43854">
        <ele>33.78</ele>
        <time>2018-11-16T14:39:32Z</time>
      </trkpt>
      <trkpt lat="49.10299" lon="-0.43834">
        <ele>35.23</ele>
        <time>2018-11-16T14:39:48Z</time>
      </trkpt>
      <trkpt lat="49.10303" lon="-0.43829">
        <ele>35.71</ele>
        <time>2018-11-16T14:39:52Z</time>
      </trkpt>
      <trkpt lat="49.10326" lon="-0.43806">
        <ele>37.15</ele>
        <time>2018-11-16T14:40:11Z</time>
      </trkpt>
      <trkpt lat="49.10345" lon="-0.43787">
        <ele>39.55</ele>
        <time>2018-11-16T14:40:28Z</time>
      </trkpt>
      <trkpt lat="49.10364" lon="-0.43773">
        <ele>40.99</ele>
        <time>2018-11-16T14:40:45Z</time>
      </trkpt>
      <trkpt lat="49.10371" lon="-0.43769">
        <ele>41.95</ele>
        <time>2018-11-16T14:40:59Z</time>
      </trkpt>
      <trkpt lat="49.10386" lon="-0.43758">
        <ele>42.92</ele>
        <time>2018-11-16T14:41:13Z</time>
      </trkpt>
      <trkpt lat="49.104" lon="-0.43748">
        <ele>44.36</ele>
        <time>2018-11-16T14:41:24Z</time>
      </trkpt>
      <trkpt lat="49.10418" lon="-0.43729">
        <ele>45.8</ele>
        <time>2018-11-16T14:41:41Z</time>
      </trkpt>
      <trkpt lat="49.10439" lon="-0.43701">
        <ele>47.24</ele>
        <time>2018-11-16T14:41:58Z</time>
      </trkpt>
      <trkpt lat="49.10456" lon="-0.43675">
        <ele>50.13</ele>
        <time>2018-11-16T14:42:14Z</time>
      </trkpt>
      <trkpt lat="49.10463" lon="-0.43662">
        <ele>48.2</ele>
        <time>2018-11-16T14:42:28Z</time>
      </trkpt>
      <trkpt lat="49.10465" lon="-0.43657">
        <ele>48.2</ele>
        <time>2018-11-16T14:42:35Z</time>
      </trkpt>
      <trkpt lat="49.10484" lon="-0.43635">
        <ele>48.2</ele>
        <time>2018-11-16T14:42:53Z</time>
      </trkpt>
      <trkpt lat="49.10487" lon="-0.43633">
        <ele>49.65</ele>
        <time>2018-11-16T14:42:55Z</time>
      </trkpt>
      <trkpt lat="49.1051" lon="-0.43617">
        <ele>50.13</ele>
        <time>2018-11-16T14:43:14Z</time>
      </trkpt>
      <trkpt lat="49.10539" lon="-0.43606">
        <ele>49.65</ele>
        <time>2018-11-16T14:43:35Z</time>
      </trkpt>
      <trkpt lat="49.10553" lon="-0.43595">
        <ele>49.16</ele>
        <time>2018-11-16T14:43:48Z</time>
      </trkpt>
      <trkpt lat="49.10554" lon="-0.4359">
        <ele>50.13</ele>
        <time>2018-11-16T14:43:51Z</time>
      </trkpt>
      <trkpt lat="49.10554" lon="-0.43589">
        <ele>50.13</ele>
        <time>2018-11-16T14:43:52Z</time>
      </trkpt>
      <trkpt lat="49.10553" lon="-0.43581">
        <ele>50.61</ele>
        <time>2018-11-16T14:44:05Z</time>
      </trkpt>
      <trkpt lat="49.10552" lon="-0.4358">
        <ele>50.61</ele>
        <time>2018-11-16T14:44:29Z</time>
      </trkpt>
      <trkpt lat="49.10549" lon="-0.43572">
        <ele>50.61</ele>
        <time>2018-11-16T14:44:50Z</time>
      </trkpt>
      <trkpt lat="49.10548" lon="-0.43569">
        <ele>50.61</ele>
        <time>2018-11-16T14:45:12Z</time>
      </trkpt>
      <trkpt lat="49.10548" lon="-0.43571">
        <ele>49.16</ele>
        <time>2018-11-16T14:45:38Z</time>
      </trkpt>
    </trkseg>
  </trk>
</gpx>